Darstellungsparameter: Aktuell verwendete Einstellungen:
Skalierung der Graphiken ... ?
xyx+y,   Skalierungsfaktor:      Skalierung: Modus: x, Faktor: 1
Darstellungszeitraum ... ?
Vom - - bis: - -   Zeitraum: 24.06.2016 - 23.09.2016
Min/Max/Avg-Anzeige ... ?
Zeige MMA aktuell
Zeige MMA Monat
Zeige MMA alles
Zeige --A aktuell
Zeige --A Monat
Zeige --A alles
Keine MMA-Anzeige
MMA:
Minimum Maximum Average (ber die Originaldaten)
MMA-Basis: 14.04.2020 - 16.05.2020
Quicknavigation für Darstellung... ?
Tage:      1T, 2T, 3T, 5T -1T -2T -3T -5T +1T +2T +3T +5T
Wochen: 1W, 2W, 3W -1W -2W -3W +1W +2W +3W
Monate: 1M, 3M, 6M -1M -3M -6M +1M +3M +6M
Jahre:    1J, 3J, 5J, 10J -1J -3J -5J -10J +1J +3J +5J +10J
Nutze für die Darstellung ... ?
Originaldaten oder ...
Mittelwerte Minima Maxima auf...
Stundenbasis Tagesbasis Wochenbasis
Monatsbasis Jahresbasis      Datenbasis: Mittelwerte auf Stundenbasis
Darstellen als:
Statistik (Auto) Statistik J:M      Darstellung:
Zur Graphik,    zurück zur Übersicht aller Sensoren.
 
Tabellarische Datenbersicht: ?
 
Sensor: Nr:Datum:Temp:Abs-Feuchte:Windchill:Wind:
Aussen-T/F 1 24-06-2016 00:00:00 22.45833 C 17.72 g/m*3 22.46 C 1.075 km/h
2 24-06-2016 01:00:00 22.89167 C 17.36 g/m*3 22.89 C 3.875 km/h
3 24-06-2016 02:00:00 21.75 C 16.71 g/m*3 21.75 C 0.26667 km/h
4 24-06-2016 03:00:00 20.725 C 16.21 g/m*3 20.73 C 0 km/h
5 24-06-2016 04:00:00 19.76667 C 15.75 g/m*3 19.77 C 0.4 km/h
6 24-06-2016 05:00:00 19.35 C 15.57 g/m*3 19.35 C 0 km/h
7 24-06-2016 06:00:00 19.175 C 15.49 g/m*3 19.18 C 0.26667 km/h
8 24-06-2016 07:00:00 19.45 C 15.88 g/m*3 19.45 C 0.8 km/h
9 24-06-2016 08:00:00 20.425 C 16.82 g/m*3 20.43 C 0.66667 km/h
10 24-06-2016 09:00:00 21.91667 C 18.01 g/m*3 21.92 C 0.13333 km/h
11 24-06-2016 10:00:00 25.375 C 19.47 g/m*3 25.38 C 2.95 km/h
12 24-06-2016 11:00:00 26.68333 C 20.46 g/m*3 26.68 C 1.875 km/h
13 24-06-2016 12:00:00 25.725 C 18.98 g/m*3 25.73 C 7.8 km/h
14 24-06-2016 13:00:00 23.075 C 18.84 g/m*3 23.08 C 0.13333 km/h
15 24-06-2016 14:00:00 23.45 C 19.35 g/m*3 23.45 C 5.21667 km/h
16 24-06-2016 15:00:00 23.95833 C 18.09 g/m*3 23.96 C 8.74167 km/h
17 24-06-2016 16:00:00 22.89167 C 18.32 g/m*3 22.89 C 2.53333 km/h
18 24-06-2016 17:00:00 22.90833 C 18.93 g/m*3 22.91 C 0 km/h
19 24-06-2016 18:00:00 23.35833 C 19.28 g/m*3 23.36 C 2.80833 km/h
20 24-06-2016 19:00:00 22.56667 C 18.71 g/m*3 22.57 C 0.53333 km/h
21 24-06-2016 20:00:00 21.74167 C 18.01 g/m*3 21.74 C 0 km/h
22 24-06-2016 21:00:00 21.03333 C 17.44 g/m*3 21.03 C 0.13333 km/h
23 24-06-2016 22:00:00 20.29167 C 16.77 g/m*3 20.29 C 0 km/h
24 24-06-2016 23:00:00 19.90833 C 16.49 g/m*3 19.91 C 0 km/h
25 25-06-2016 00:00:00 19.525 C 16.14 g/m*3 19.52 C 0.4 km/h
Sensor: Nr:Datum:Temp:Abs-Feuchte:Windchill:Wind:
Aussen-T/F 26 25-06-2016 01:00:00 19.175 C 15.81 g/m*3 19.18 C 0.53333 km/h
27 25-06-2016 02:00:00 19.14167 C 15.78 g/m*3 19.14 C 0.66667 km/h
28 25-06-2016 03:00:00 19.2 C 15.83 g/m*3 19.2 C 2 km/h
29 25-06-2016 04:00:00 19.06667 C 15.71 g/m*3 19.07 C 0.26667 km/h
30 25-06-2016 05:00:00 18.91667 C 15.57 g/m*3 18.92 C 2 km/h
31 25-06-2016 06:00:00 18.625 C 15.3 g/m*3 18.63 C 1.06667 km/h
32 25-06-2016 07:00:00 18.375 C 15.16 g/m*3 18.38 C 1.46667 km/h
33 25-06-2016 08:00:00 18.35 C 15.19 g/m*3 18.35 C 2.41667 km/h
34 25-06-2016 09:00:00 17.66667 C 14.52 g/m*3 17.67 C 8.05833 km/h
35 25-06-2016 10:00:00 17.6 C 14.45 g/m*3 17.6 C 9.28333 km/h
36 25-06-2016 11:00:00 17.01667 C 13.9 g/m*3 17.02 C 4.41667 km/h
37 25-06-2016 12:00:00 16.66667 C 13.62 g/m*3 16.67 C 4.15 km/h
38 25-06-2016 13:00:00 16.21667 C 13.24 g/m*3 16.22 C 4.28333 km/h
39 25-06-2016 14:00:00 15.94167 C 13.03 g/m*3 15.94 C 3.075 km/h
40 25-06-2016 15:00:00 15.79167 C 12.89 g/m*3 15.79 C 4 km/h
41 25-06-2016 16:00:00 15.48333 C 12.61 g/m*3 15.48 C 5.63333 km/h
42 25-06-2016 17:00:00 15.45833 C 12.61 g/m*3 15.46 C 4.69167 km/h
43 25-06-2016 18:00:00 15.675 C 12.69 g/m*3 15.68 C 4.41667 km/h
44 25-06-2016 19:00:00 15.23333 C 12.36 g/m*3 15.23 C 2 km/h
45 25-06-2016 20:00:00 15.10833 C 12.39 g/m*3 15.11 C 0.13333 km/h
46 25-06-2016 21:00:00 14.225 C 11.67 g/m*3 14.23 C 0.13333 km/h
47 25-06-2016 22:00:00 13.28333 C 11.07 g/m*3 13.28 C 0 km/h
48 25-06-2016 23:00:00 12.76667 C 10.73 g/m*3 12.77 C 0 km/h
49 26-06-2016 00:00:00 12.6 C 10.7 g/m*3 12.6 C 0 km/h
50 26-06-2016 01:00:00 13.35833 C 11.25 g/m*3 13.36 C 1.33333 km/h
Sensor: Nr:Datum:Temp:Abs-Feuchte:Windchill:Wind:
Aussen-T/F 51 26-06-2016 02:00:00 13.05 C 11.03 g/m*3 13.05 C 0.66667 km/h
52 26-06-2016 03:00:00 12.75 C 10.83 g/m*3 12.75 C 0.53333 km/h
53 26-06-2016 04:00:00 12.175 C 10.45 g/m*3 12.18 C 2.13333 km/h
54 26-06-2016 05:00:00 11.40833 C 9.96 g/m*3 11.41 C 0.53333 km/h
55 26-06-2016 06:00:00 11.44167 C 9.98 g/m*3 11.44 C 0.26667 km/h
56 26-06-2016 07:00:00 12.29167 C 10.59 g/m*3 12.29 C 2.41667 km/h
57 26-06-2016 08:00:00 13.05833 C 11.07 g/m*3 13.06 C 4.95 km/h
58 26-06-2016 09:00:00 13.95 C 11.38 g/m*3 13.95 C 9.40833 km/h
59 26-06-2016 10:00:00 16.13333 C 11.67 g/m*3 16.13 C 11.15 km/h
60 26-06-2016 11:00:00 17.075 C 11.23 g/m*3 17.08 C 13.15 km/h
61 26-06-2016 12:00:00 17.90833 C 11.15 g/m*3 17.91 C 12.36667 km/h
62 26-06-2016 13:00:00 19.31667 C 11.18 g/m*3 19.32 C 13.96667 km/h
63 26-06-2016 14:00:00 19.7 C 11.46 g/m*3 19.7 C 10.89167 km/h
64 26-06-2016 15:00:00 20.48333 C 11.67 g/m*3 20.48 C 11.29167 km/h
65 26-06-2016 16:00:00 20.675 C 11.55 g/m*3 20.68 C 11.95833 km/h
66 26-06-2016 17:00:00 19.44167 C 11.16 g/m*3 19.44 C 10.73333 km/h
67 26-06-2016 18:00:00 18.675 C 11.76 g/m*3 18.68 C 4.15 km/h
68 26-06-2016 19:00:00 17.79167 C 11.52 g/m*3 17.79 C 4.575 km/h
69 26-06-2016 20:00:00 16.025 C 11.91 g/m*3 16.02 C 0.13333 km/h
70 26-06-2016 21:00:00 14.75 C 11.45 g/m*3 14.75 C 0.26667 km/h
71 26-06-2016 22:00:00 13.3 C 10.68 g/m*3 13.3 C 0 km/h
72 26-06-2016 23:00:00 12.61667 C 10.46 g/m*3 12.62 C 1.2 km/h
73 27-06-2016 00:00:00 12.34167 C 10.34 g/m*3 12.34 C 1.86667 km/h
74 27-06-2016 01:00:00 12.15 C 10.23 g/m*3 12.15 C 0.8 km/h
75 27-06-2016 02:00:00 11.875 C 10.11 g/m*3 11.88 C 1.6 km/h
Sensor: Nr:Datum:Temp:Abs-Feuchte:Windchill:Wind:
Aussen-T/F 76 27-06-2016 03:00:00 12.25833 C 10.4 g/m*3 12.26 C 3.2 km/h
77 27-06-2016 04:00:00 12.18333 C 10.31 g/m*3 12.18 C 2.13333 km/h
78 27-06-2016 05:00:00 11.99167 C 10.14 g/m*3 11.99 C 2.4 km/h
79 27-06-2016 06:00:00 11.53333 C 9.83 g/m*3 11.53 C 0.13333 km/h
80 27-06-2016 07:00:00 11.68333 C 10.01 g/m*3 11.68 C 0.66667 km/h
81 27-06-2016 08:00:00 13.58333 C 10.97 g/m*3 13.58 C 2.66667 km/h
82 27-06-2016 09:00:00 15.74167 C 11.1 g/m*3 15.74 C 8.59167 km/h
83 27-06-2016 10:00:00 16.85 C 11.46 g/m*3 16.85 C 11.56667 km/h
84 27-06-2016 11:00:00 17.26667 C 11.71 g/m*3 17.27 C 10.63333 km/h
85 27-06-2016 12:00:00 17.64167 C 12.05 g/m*3 17.64 C 9 km/h
86 27-06-2016 13:00:00 18.29167 C 12.25 g/m*3 18.29 C 13.15833 km/h
87 27-06-2016 14:00:00 18.78333 C 12.6 g/m*3 18.78 C 14.5 km/h
88 27-06-2016 15:00:00 18.91667 C 12.81 g/m*3 18.92 C 14.36667 km/h
89 27-06-2016 16:00:00 18.95 C 12.92 g/m*3 18.95 C 13.03333 km/h
90 27-06-2016 17:00:00 19.59167 C 13.29 g/m*3 19.59 C 10.20833 km/h
91 27-06-2016 18:00:00 20.31667 C 13.54 g/m*3 20.32 C 11.03333 km/h
92 27-06-2016 19:00:00 20.075 C 13.51 g/m*3 20.08 C 7.93333 km/h
93 27-06-2016 20:00:00 18.775 C 13.37 g/m*3 18.77 C 3.61667 km/h
94 27-06-2016 21:00:00 17.7 C 13.1 g/m*3 17.7 C 0.4 km/h
95 27-06-2016 22:00:00 17.13333 C 13.29 g/m*3 17.13 C 0.93333 km/h
96 27-06-2016 23:00:00 16.34167 C 13.02 g/m*3 16.34 C 0.26667 km/h
97 28-06-2016 00:00:00 15.96667 C 12.89 g/m*3 15.97 C 0.66667 km/h
98 28-06-2016 01:00:00 15.86667 C 12.84 g/m*3 15.87 C 0 km/h
99 28-06-2016 02:00:00 15.43333 C 12.63 g/m*3 15.43 C 0 km/h
100 28-06-2016 03:00:00 14.90833 C 12.24 g/m*3 14.91 C 0 km/h
Sensor: Nr:Datum:Temp:Abs-Feuchte:Windchill:Wind:
Aussen-T/F 101 28-06-2016 04:00:00 14.18333 C 11.71 g/m*3 14.18 C 0 km/h
102 28-06-2016 05:00:00 14.55833 C 12.01 g/m*3 14.56 C 0 km/h
103 28-06-2016 06:00:00 14.81667 C 12.25 g/m*3 14.82 C 0 km/h
104 28-06-2016 07:00:00 15.28333 C 12.65 g/m*3 15.28 C 0 km/h
105 28-06-2016 08:00:00 15.725 C 12.95 g/m*3 15.73 C 0.93333 km/h
106 28-06-2016 09:00:00 16.48333 C 13.4 g/m*3 16.48 C 2.26667 km/h
107 28-06-2016 10:00:00 17.69167 C 13.71 g/m*3 17.69 C 3.06667 km/h
108 28-06-2016 11:00:00 19.05 C 13.58 g/m*3 19.05 C 5.21667 km/h
109 28-06-2016 12:00:00 20.38333 C 13.48 g/m*3 20.38 C 5.35833 km/h
110 28-06-2016 13:00:00 21.175 C 13.19 g/m*3 21.18 C 7.39167 km/h
111 28-06-2016 14:00:00 21.41667 C 12.65 g/m*3 21.42 C 11.96667 km/h
112 28-06-2016 15:00:00 22.325 C 12.18 g/m*3 22.33 C 10.625 km/h
113 28-06-2016 16:00:00 23.30833 C 12.34 g/m*3 23.31 C 10.61667 km/h
114 28-06-2016 17:00:00 22.9 C 13.35 g/m*3 22.9 C 5.08333 km/h
115 28-06-2016 18:00:00 23.06667 C 13.48 g/m*3 23.07 C 6.45 km/h
116 28-06-2016 19:00:00 21.775 C 14.23 g/m*3 21.78 C 1.06667 km/h
117 28-06-2016 20:00:00 19.36667 C 13.88 g/m*3 19.37 C 0 km/h
118 28-06-2016 21:00:00 18.13333 C 13.49 g/m*3 18.13 C 0 km/h
119 28-06-2016 22:00:00 17.29167 C 13.15 g/m*3 17.29 C 0 km/h
120 28-06-2016 23:00:00 17.275 C 13.35 g/m*3 17.27 C 0 km/h
121 29-06-2016 00:00:00 17.03333 C 13.22 g/m*3 17.03 C 0 km/h
122 29-06-2016 01:00:00 17.08333 C 13.2 g/m*3 17.08 C 0.4 km/h
123 29-06-2016 02:00:00 16.86667 C 13.12 g/m*3 16.87 C 0.26667 km/h
124 29-06-2016 03:00:00 16.70833 C 13.06 g/m*3 16.71 C 0 km/h
125 29-06-2016 04:00:00 16.84167 C 13.02 g/m*3 16.84 C 1.06667 km/h
Sensor: Nr:Datum:Temp:Abs-Feuchte:Windchill:Wind:
Aussen-T/F 126 29-06-2016 05:00:00 17.08333 C 12.98 g/m*3 17.08 C 5.1 km/h
127 29-06-2016 06:00:00 17.5 C 12.75 g/m*3 17.5 C 7.78333 km/h
128 29-06-2016 07:00:00 17.85 C 12.72 g/m*3 17.85 C 6.56667 km/h
129 29-06-2016 08:00:00 18.325 C 12.7 g/m*3 18.33 C 11.01667 km/h
130 29-06-2016 09:00:00 19.08333 C 11.85 g/m*3 19.08 C 12.23333 km/h
131 29-06-2016 10:00:00 19.575 C 11.49 g/m*3 19.58 C 11.01667 km/h
132 29-06-2016 11:00:00 20.16667 C 10.85 g/m*3 20.17 C 15.56667 km/h
133 29-06-2016 12:00:00 20.275 C 10.61 g/m*3 20.27 C 13.83333 km/h
134 29-06-2016 13:00:00 20.725 C 9.95 g/m*3 20.73 C 16.76667 km/h
135 29-06-2016 14:00:00 21.54167 C 10.66 g/m*3 21.54 C 11.96667 km/h
136 29-06-2016 15:00:00 23 C 10.6 g/m*3 23 C 10.875 km/h
137 29-06-2016 16:00:00 22.74167 C 10.35 g/m*3 22.74 C 9.00833 km/h
138 29-06-2016 17:00:00 23.46667 C 10.94 g/m*3 23.47 C 6.58333 km/h
139 29-06-2016 18:00:00 23.01667 C 12.67 g/m*3 23.02 C 1.60833 km/h
140 29-06-2016 19:00:00 20.10833 C 12.74 g/m*3 20.11 C 0.13333 km/h
141 29-06-2016 20:00:00 18.46667 C 12.41 g/m*3 18.47 C 0 km/h
142 29-06-2016 21:00:00 17.28333 C 11.95 g/m*3 17.28 C 0 km/h
143 29-06-2016 22:00:00 16.48333 C 11.79 g/m*3 16.48 C 0 km/h
144 29-06-2016 23:00:00 15.84167 C 11.61 g/m*3 15.84 C 0 km/h
145 30-06-2016 00:00:00 15.68333 C 11.66 g/m*3 15.68 C 0 km/h
146 30-06-2016 01:00:00 15.575 C 11.72 g/m*3 15.58 C 0 km/h
147 30-06-2016 02:00:00 15.725 C 11.8 g/m*3 15.73 C 0 km/h
148 30-06-2016 03:00:00 15.875 C 11.88 g/m*3 15.88 C 0 km/h
149 30-06-2016 04:00:00 15.9 C 11.91 g/m*3 15.9 C 0 km/h
150 30-06-2016 05:00:00 15.85 C 12.1 g/m*3 15.85 C 0 km/h
Sensor: Nr:Datum:Temp:Abs-Feuchte:Windchill:Wind:
Aussen-T/F 151 30-06-2016 06:00:00 15.88333 C 12.33 g/m*3 15.88 C 0 km/h
152 30-06-2016 07:00:00 16.34167 C 12.88 g/m*3 16.34 C 0.8 km/h
153 30-06-2016 08:00:00 17.30833 C 13.22 g/m*3 17.31 C 4.83333 km/h
154 30-06-2016 09:00:00 18.4 C 12.75 g/m*3 18.4 C 9.95833 km/h
155 30-06-2016 10:00:00 19.45 C 12.49 g/m*3 19.45 C 12.625 km/h
156 30-06-2016 11:00:00 20.45833 C 12.57 g/m*3 20.46 C 12.5 km/h
157 30-06-2016 12:00:00 21.175 C 13.09 g/m*3 21.18 C 10.2 km/h
158 30-06-2016 13:00:00 21.30833 C 12.98 g/m*3 21.31 C 10.5 km/h
159 30-06-2016 14:00:00 21.26667 C 13.49 g/m*3 21.27 C 7.79167 km/h
160 30-06-2016 15:00:00 22.00833 C 13.38 g/m*3 22.01 C 9.00833 km/h
161 30-06-2016 16:00:00 21.66667 C 13.64 g/m*3 21.67 C 6.15833 km/h
162 30-06-2016 17:00:00 22.475 C 13.8 g/m*3 22.48 C 9.14167 km/h
163 30-06-2016 18:00:00 21.975 C 13.66 g/m*3 21.98 C 7.375 km/h
164 30-06-2016 19:00:00 21.6 C 14.56 g/m*3 21.6 C 1.34167 km/h
165 30-06-2016 20:00:00 20.40833 C 14.14 g/m*3 20.41 C 0.13333 km/h
166 30-06-2016 21:00:00 19.13333 C 13.76 g/m*3 19.13 C 0.26667 km/h
167 30-06-2016 22:00:00 17.84167 C 13.26 g/m*3 17.84 C 0 km/h
168 30-06-2016 23:00:00 16.85 C 12.94 g/m*3 16.85 C 0 km/h
169 01-07-2016 00:00:00 16.825 C 13.14 g/m*3 16.83 C 0.26667 km/h
170 01-07-2016 01:00:00 16.86667 C 13.21 g/m*3 16.87 C 0 km/h
171 01-07-2016 02:00:00 16.98333 C 13.3 g/m*3 16.98 C 0 km/h
172 01-07-2016 03:00:00 16.65833 C 13.09 g/m*3 16.66 C 0 km/h
173 01-07-2016 04:00:00 16.55 C 13.11 g/m*3 16.55 C 0 km/h
174 01-07-2016 05:00:00 16.81667 C 13.32 g/m*3 16.82 C 0.66667 km/h
175 01-07-2016 06:00:00 17.75833 C 13.58 g/m*3 17.76 C 4.55833 km/h
Sensor: Nr:Datum:Temp:Abs-Feuchte:Windchill:Wind:
Aussen-T/F 176 01-07-2016 07:00:00 18.45833 C 13.8 g/m*3 18.46 C 5.90833 km/h
177 01-07-2016 08:00:00 19.25 C 14.22 g/m*3 19.25 C 1.46667 km/h
178 01-07-2016 09:00:00 19.95 C 14.6 g/m*3 19.95 C 2.675 km/h
179 01-07-2016 10:00:00 21.15 C 14.55 g/m*3 21.15 C 5.06667 km/h
180 01-07-2016 11:00:00 22.13333 C 14.33 g/m*3 22.13 C 9.54167 km/h
181 01-07-2016 12:00:00 22.075 C 13.74 g/m*3 22.08 C 15.7 km/h
182 01-07-2016 13:00:00 22.125 C 13.86 g/m*3 22.13 C 11.96667 km/h
183 01-07-2016 14:00:00 22.55833 C 13.86 g/m*3 22.56 C 12.9 km/h
184 01-07-2016 15:00:00 22.625 C 13.58 g/m*3 22.63 C 15.16667 km/h
185 01-07-2016 16:00:00 23.96667 C 14.06 g/m*3 23.97 C 13.03333 km/h
186 01-07-2016 17:00:00 22.75 C 13.88 g/m*3 22.75 C 9.80833 km/h
187 01-07-2016 18:00:00 21.93333 C 14.11 g/m*3 21.93 C 6.175 km/h
188 01-07-2016 19:00:00 22.75 C 14.39 g/m*3 22.75 C 5.34167 km/h
189 01-07-2016 20:00:00 21.93333 C 14.5 g/m*3 21.93 C 2.54167 km/h
190 01-07-2016 21:00:00 19.40833 C 13.81 g/m*3 19.41 C 0 km/h
191 01-07-2016 22:00:00 17.99167 C 13.47 g/m*3 17.99 C 0 km/h
192 01-07-2016 23:00:00 17.65 C 13.6 g/m*3 17.65 C 0 km/h
193 02-07-2016 00:00:00 17.88333 C 13.88 g/m*3 17.88 C 0 km/h
194 02-07-2016 01:00:00 17.50833 C 13.6 g/m*3 17.51 C 0.26667 km/h
195 02-07-2016 02:00:00 17.86667 C 13.78 g/m*3 17.87 C 3.08333 km/h
196 02-07-2016 03:00:00 18.65833 C 13.69 g/m*3 18.66 C 2.54167 km/h
197 02-07-2016 04:00:00 18.39167 C 13.6 g/m*3 18.39 C 5.5 km/h
198 02-07-2016 05:00:00 18.06667 C 13.02 g/m*3 18.07 C 10.75 km/h
199 02-07-2016 06:00:00 15.65 C 12.12 g/m*3 15.65 C 1.6 km/h
200 02-07-2016 07:00:00 14.75 C 11.45 g/m*3 14.75 C 3.21667 km/h
Sensor: Nr:Datum:Temp:Abs-Feuchte:Windchill:Wind:
Aussen-T/F 201 02-07-2016 08:00:00 14.24167 C 10.84 g/m*3 14.24 C 1.61667 km/h
202 02-07-2016 09:00:00 14.31667 C 11 g/m*3 14.32 C 1.06667 km/h
203 02-07-2016 10:00:00 14.65 C 11.04 g/m*3 14.65 C 2.41667 km/h
204 02-07-2016 11:00:00 15.60833 C 11.12 g/m*3 15.61 C 4.68333 km/h
205 02-07-2016 12:00:00 16.5 C 11.12 g/m*3 16.5 C 9.55 km/h
206 02-07-2016 13:00:00 17.86667 C 10.95 g/m*3 17.87 C 14.5 km/h
207 02-07-2016 14:00:00 18.65833 C 11.21 g/m*3 18.66 C 9.675 km/h
208 02-07-2016 15:00:00 20.15833 C 10.68 g/m*3 20.16 C 9.8 km/h
209 02-07-2016 16:00:00 21.08333 C 8.54 g/m*3 21.08 C 16.9 km/h
210 02-07-2016 17:00:00 19.30833 C 9.47 g/m*3 19.31 C 16.90833 km/h
211 02-07-2016 18:00:00 18.925 C 9.22 g/m*3 18.93 C 13.55833 km/h
212 02-07-2016 19:00:00 17.83333 C 9.67 g/m*3 17.83 C 6.71667 km/h
213 02-07-2016 20:00:00 16.63333 C 9.99 g/m*3 16.63 C 3.75 km/h
214 02-07-2016 21:00:00 15.125 C 10.26 g/m*3 15.13 C 0.13333 km/h
215 02-07-2016 22:00:00 13.21667 C 9.75 g/m*3 13.22 C 0 km/h
216 02-07-2016 23:00:00 12.90833 C 9.81 g/m*3 12.91 C 0 km/h
217 03-07-2016 00:00:00 12.46667 C 9.74 g/m*3 12.47 C 0.26667 km/h
218 03-07-2016 01:00:00 11.76667 C 9.57 g/m*3 11.77 C 2.53333 km/h
219 03-07-2016 02:00:00 12.24167 C 9.56 g/m*3 12.24 C 2.93333 km/h
220 03-07-2016 03:00:00 11.91111 C 9.44 g/m*3 11.91 C 2.48889 km/h
221 03-07-2016 04:00:00 11.9 C 9.52 g/m*3 11.9 C 2.51429 km/h
222 03-07-2016 05:00:00 11.71667 C 9.51 g/m*3 11.72 C 1.06667 km/h
223 03-07-2016 06:00:00 11.75833 C 9.66 g/m*3 11.76 C 0.26667 km/h
224 03-07-2016 07:00:00 12.6 C 10 g/m*3 12.6 C 1.73333 km/h
225 03-07-2016 08:00:00 13.71667 C 10.25 g/m*3 13.72 C 5.76667 km/h
Sensor: Nr:Datum:Temp:Abs-Feuchte:Windchill:Wind:
Aussen-T/F 226 03-07-2016 09:00:00 16.33 C 10.84 g/m*3 16.33 C 5.64 km/h
227 03-07-2016 10:00:00 17.48 C 11.06 g/m*3 17.48 C 5.95 km/h
228 03-07-2016 12:00:00 15.80909 C 11.73 g/m*3 15.81 C 2.32727 km/h
229 03-07-2016 13:00:00 16.66667 C 11.74 g/m*3 16.67 C 10.89167 km/h
230 03-07-2016 14:00:00 15.34167 C 10.76 g/m*3 15.34 C 6.44167 km/h
231 03-07-2016 15:00:00 16.225 C 12.34 g/m*3 16.23 C 6.975 km/h
232 03-07-2016 16:00:00 20.21667 C 12.82 g/m*3 20.22 C 14.63333 km/h
233 03-07-2016 17:00:00 19.31667 C 11.47 g/m*3 19.32 C 6.71667 km/h
234 03-07-2016 18:00:00 19.08333 C 11.82 g/m*3 19.08 C 2.40833 km/h
235 03-07-2016 19:00:00 19.075 C 12.02 g/m*3 19.08 C 1.60833 km/h
236 03-07-2016 20:00:00 17.35833 C 11.9 g/m*3 17.36 C 0 km/h
237 03-07-2016 21:00:00 15.75 C 11 g/m*3 15.75 C 0 km/h
238 03-07-2016 22:00:00 15.16667 C 11 g/m*3 15.17 C 0 km/h
239 03-07-2016 23:00:00 14.46667 C 10.86 g/m*3 14.47 C 0 km/h
240 04-07-2016 00:00:00 13.06667 C 10.15 g/m*3 13.07 C 0 km/h
241 04-07-2016 01:00:00 11.85 C 9.72 g/m*3 11.85 C 0 km/h
242 04-07-2016 02:00:00 11.70833 C 9.8 g/m*3 11.71 C 0.26667 km/h
243 04-07-2016 03:00:00 12.19167 C 10.04 g/m*3 12.19 C 0.13333 km/h
244 04-07-2016 04:00:00 12.06667 C 10.01 g/m*3 12.07 C 0 km/h
245 04-07-2016 05:00:00 12.21667 C 10.15 g/m*3 12.22 C 0 km/h
246 04-07-2016 06:00:00 12.5 C 10.33 g/m*3 12.5 C 0 km/h
247 04-07-2016 07:00:00 13.375 C 10.73 g/m*3 13.38 C 0.26667 km/h
248 04-07-2016 08:00:00 14.74167 C 11.27 g/m*3 14.74 C 0.26667 km/h
249 04-07-2016 09:00:00 16.49167 C 11.98 g/m*3 16.49 C 1.86667 km/h
250 04-07-2016 10:00:00 18.34167 C 12.13 g/m*3 18.34 C 2.53333 km/h
Sensor: Nr:Datum:Temp:Abs-Feuchte:Windchill:Wind:
Aussen-T/F 251 04-07-2016 11:00:00 19.1 C 12.69 g/m*3 19.1 C 3.46667 km/h
252 04-07-2016 12:00:00 18.28333 C 13.08 g/m*3 18.28 C 8.325 km/h
253 04-07-2016 13:00:00 19.05 C 13.33 g/m*3 19.05 C 4.01667 km/h
254 04-07-2016 14:00:00 20.05 C 13.37 g/m*3 20.05 C 8.46667 km/h
255 04-07-2016 15:00:00 20.80833 C 13.57 g/m*3 20.81 C 9.40833 km/h
256 04-07-2016 16:00:00 21.25 C 14.03 g/m*3 21.25 C 6.03333 km/h
257 04-07-2016 17:00:00 23.25833 C 14.13 g/m*3 23.26 C 5.20833 km/h
258 04-07-2016 18:00:00 24.73333 C 14.23 g/m*3 24.73 C 5.08333 km/h
259 04-07-2016 19:00:00 23.875 C 14.33 g/m*3 23.88 C 2.13333 km/h
260 04-07-2016 20:00:00 22.40833 C 14.72 g/m*3 22.41 C 0.13333 km/h
261 04-07-2016 21:00:00 20.11667 C 13.99 g/m*3 20.12 C 0 km/h
262 04-07-2016 22:00:00 18.69167 C 13.79 g/m*3 18.69 C 0 km/h
263 04-07-2016 23:00:00 18.225 C 13.75 g/m*3 18.23 C 0 km/h
264 05-07-2016 00:00:00 17.85 C 13.69 g/m*3 17.85 C 0 km/h
265 05-07-2016 01:00:00 17.65 C 13.66 g/m*3 17.65 C 0 km/h
266 05-07-2016 02:00:00 17.58333 C 13.63 g/m*3 17.58 C 0.13333 km/h
267 05-07-2016 03:00:00 17.33333 C 13.43 g/m*3 17.33 C 0.26667 km/h
268 05-07-2016 04:00:00 17.28333 C 13.39 g/m*3 17.28 C 0.93333 km/h
269 05-07-2016 05:00:00 16.91667 C 13.19 g/m*3 16.92 C 0.13333 km/h
270 05-07-2016 06:00:00 16.90833 C 13.32 g/m*3 16.91 C 0.8 km/h
271 05-07-2016 07:00:00 17.56667 C 13.63 g/m*3 17.57 C 4.41667 km/h
272 05-07-2016 08:00:00 18.5 C 13.71 g/m*3 18.5 C 5.9 km/h
273 05-07-2016 09:00:00 19.45 C 13.67 g/m*3 19.45 C 5.89167 km/h
274 05-07-2016 10:00:00 20.48333 C 13.33 g/m*3 20.48 C 5.625 km/h
275 05-07-2016 11:00:00 20.70833 C 12.49 g/m*3 20.71 C 12.9 km/h
Sensor: Nr:Datum:Temp:Abs-Feuchte:Windchill:Wind:
Aussen-T/F 276 05-07-2016 12:00:00 20.88333 C 12.65 g/m*3 20.88 C 10.74167 km/h
277 05-07-2016 13:00:00 21.15 C 13.23 g/m*3 21.15 C 12.225 km/h
278 05-07-2016 14:00:00 21.175 C 13.35 g/m*3 21.18 C 8.86667 km/h
279 05-07-2016 15:00:00 22.44167 C 13.6 g/m*3 22.44 C 12.09167 km/h
280 05-07-2016 16:00:00 21.8 C 14.15 g/m*3 21.8 C 7.38333 km/h
281 05-07-2016 17:00:00 22.08333 C 12.98 g/m*3 22.08 C 13.69167 km/h
282 05-07-2016 18:00:00 21.05833 C 12.45 g/m*3 21.06 C 16.375 km/h
283 05-07-2016 19:00:00 22.05 C 12.54 g/m*3 22.05 C 11.28333 km/h
284 05-07-2016 20:00:00 21.3 C 11.21 g/m*3 21.3 C 8.99167 km/h
285 05-07-2016 21:00:00 19.525 C 11.49 g/m*3 19.52 C 4.69167 km/h
286 05-07-2016 22:00:00 17.625 C 11.23 g/m*3 17.63 C 13.025 km/h
287 05-07-2016 23:00:00 16.49167 C 10.91 g/m*3 16.49 C 8.2 km/h
288 06-07-2016 00:00:00 15.43333 C 10.37 g/m*3 15.43 C 6.025 km/h
289 06-07-2016 01:00:00 13.9 C 10.1 g/m*3 13.9 C 0.26667 km/h
290 06-07-2016 02:00:00 12.85 C 9.78 g/m*3 12.85 C 0 km/h
291 06-07-2016 03:00:00 12.075 C 9.52 g/m*3 12.08 C 0 km/h
292 06-07-2016 04:00:00 11.06667 C 9.16 g/m*3 11.07 C 0 km/h
293 06-07-2016 05:00:00 10.675 C 9.02 g/m*3 10.68 C 0.53333 km/h
294 06-07-2016 06:00:00 10.60833 C 9 g/m*3 10.61 C 0.13333 km/h
295 06-07-2016 07:00:00 11.10833 C 9.35 g/m*3 11.11 C 3.35 km/h
296 06-07-2016 08:00:00 13.075 C 9.91 g/m*3 13.08 C 2.80833 km/h
297 06-07-2016 09:00:00 15.1 C 10.17 g/m*3 15.1 C 2.8 km/h
298 06-07-2016 10:00:00 17.10833 C 10.68 g/m*3 17.11 C 3.2 km/h
299 06-07-2016 11:00:00 17.66667 C 11 g/m*3 17.67 C 4.01667 km/h
300 06-07-2016 12:00:00 18.28333 C 11.12 g/m*3 18.28 C 2.93333 km/h
Sensor: Nr:Datum:Temp:Abs-Feuchte:Windchill:Wind:
Aussen-T/F 301 06-07-2016 13:00:00 19.34167 C 11.25 g/m*3 19.34 C 3.475 km/h
302 06-07-2016 14:00:00 19.8 C 11.34 g/m*3 19.8 C 3.88333 km/h
303 06-07-2016 15:00:00 20.81667 C 11.22 g/m*3 20.82 C 5.48333 km/h
304 06-07-2016 16:00:00 22.2 C 10.24 g/m*3 22.2 C 9.675 km/h
305 06-07-2016 17:00:00 22.975 C 9.54 g/m*3 22.98 C 11.43333 km/h
306 06-07-2016 18:00:00 23.03333 C 9.9 g/m*3 23.03 C 9.29167 km/h
307 06-07-2016 19:00:00 22.23333 C 10.31 g/m*3 22.23 C 10.35833 km/h
308 06-07-2016 20:00:00 20.69167 C 10.6 g/m*3 20.69 C 4.14167 km/h
309 06-07-2016 21:00:00 18.05 C 10.92 g/m*3 18.05 C 2.13333 km/h
310 06-07-2016 22:00:00 15.79167 C 10.58 g/m*3 15.79 C 0 km/h
311 06-07-2016 23:00:00 14.76667 C 10.4 g/m*3 14.77 C 0 km/h
312 07-07-2016 00:00:00 13.3 C 9.98 g/m*3 13.3 C 0 km/h
313 07-07-2016 01:00:00 12.56667 C 9.85 g/m*3 12.57 C 0 km/h
314 07-07-2016 02:00:00 12.06667 C 9.78 g/m*3 12.07 C 0 km/h
315 07-07-2016 03:00:00 11.425 C 9.51 g/m*3 11.43 C 0 km/h
316 07-07-2016 04:00:00 11.13333 C 9.42 g/m*3 11.13 C 0.53333 km/h
317 07-07-2016 05:00:00 10.775 C 9.28 g/m*3 10.78 C 0.13333 km/h
318 07-07-2016 06:00:00 10.75 C 9.31 g/m*3 10.75 C 0.66667 km/h
319 07-07-2016 07:00:00 11.05833 C 9.52 g/m*3 11.06 C 0 km/h
320 07-07-2016 08:00:00 12.05833 C 10.16 g/m*3 12.06 C 0.8 km/h
321 07-07-2016 09:00:00 13.5 C 10.95 g/m*3 13.5 C 0 km/h
322 07-07-2016 10:00:00 16.19167 C 11.77 g/m*3 16.19 C 0.8 km/h
323 07-07-2016 11:00:00 18.5 C 11.75 g/m*3 18.5 C 2.26667 km/h
324 07-07-2016 12:00:00 19.55 C 10.73 g/m*3 19.55 C 5.09167 km/h
325 07-07-2016 13:00:00 20.69167 C 9.58 g/m*3 20.69 C 7.25 km/h
Sensor: Nr:Datum:Temp:Abs-Feuchte:Windchill:Wind:
Aussen-T/F 326 07-07-2016 14:00:00 22.60833 C 9.92 g/m*3 22.61 C 6.575 km/h
327 07-07-2016 15:00:00 23.85833 C 10.56 g/m*3 23.86 C 7.675 km/h
328 07-07-2016 16:00:00 24.9 C 12.17 g/m*3 24.9 C 2.93333 km/h
329 07-07-2016 17:00:00 24.8 C 14.28 g/m*3 24.8 C 0 km/h
330 07-07-2016 18:00:00 23.64167 C 14.41 g/m*3 23.64 C 0.13333 km/h
331 07-07-2016 19:00:00 23.55 C 14.17 g/m*3 23.55 C 0 km/h
332 07-07-2016 20:00:00 20.89167 C 13.49 g/m*3 20.89 C 0 km/h
333 07-07-2016 21:00:00 19.125 C 12.6 g/m*3 19.13 C 0.13333 km/h
334 07-07-2016 22:00:00 17.28333 C 12.04 g/m*3 17.28 C 0 km/h
335 07-07-2016 23:00:00 15.83333 C 11.66 g/m*3 15.83 C 0 km/h
336 08-07-2016 00:00:00 14.74167 C 11.16 g/m*3 14.74 C 0 km/h
337 08-07-2016 01:00:00 13.96667 C 10.75 g/m*3 13.97 C 0 km/h
338 08-07-2016 02:00:00 13.84167 C 10.88 g/m*3 13.84 C 0 km/h
339 08-07-2016 03:00:00 13.06667 C 10.48 g/m*3 13.07 C 0 km/h
340 08-07-2016 04:00:00 12.825 C 10.45 g/m*3 12.83 C 0.26667 km/h
341 08-07-2016 05:00:00 12.6 C 10.33 g/m*3 12.6 C 0 km/h
342 08-07-2016 06:00:00 12.80833 C 10.56 g/m*3 12.81 C 0.26667 km/h
343 08-07-2016 07:00:00 13.125 C 10.74 g/m*3 13.13 C 0.13333 km/h
344 08-07-2016 08:00:00 14.36667 C 11.53 g/m*3 14.37 C 0.53333 km/h
345 08-07-2016 09:00:00 16.15 C 12.51 g/m*3 16.15 C 0.13333 km/h
346 08-07-2016 10:00:00 19.03333 C 14.22 g/m*3 19.03 C 1.20833 km/h
347 08-07-2016 11:00:00 22.44167 C 14 g/m*3 22.44 C 7.65833 km/h
348 08-07-2016 12:00:00 24.03333 C 14.04 g/m*3 24.03 C 9.94167 km/h
349 08-07-2016 13:00:00 25.25 C 14.8 g/m*3 25.25 C 6.58333 km/h
350 08-07-2016 14:00:00 25.88333 C 14.23 g/m*3 25.88 C 8.86667 km/h
Sensor: Nr:Datum:Temp:Abs-Feuchte:Windchill:Wind:
Aussen-T/F 351 08-07-2016 15:00:00 24.41667 C 14.5 g/m*3 24.42 C 3.60833 km/h
352 08-07-2016 16:00:00 23.51667 C 14.25 g/m*3 23.52 C 3.88333 km/h
353 08-07-2016 17:00:00 23.61667 C 15.06 g/m*3 23.62 C 2.94167 km/h
354 08-07-2016 18:00:00 22.25833 C 15.04 g/m*3 22.26 C 0.4 km/h
355 08-07-2016 19:00:00 22.26667 C 15.32 g/m*3 22.27 C 0 km/h
356 08-07-2016 20:00:00 22.1 C 15.23 g/m*3 22.1 C 0.4 km/h
357 08-07-2016 21:00:00 21.35 C 14.38 g/m*3 21.35 C 1.86667 km/h
358 08-07-2016 22:00:00 20.05 C 13.72 g/m*3 20.05 C 2 km/h
359 08-07-2016 23:00:00 19.225 C 13.53 g/m*3 19.23 C 0 km/h
360 09-07-2016 00:00:00 18.475 C 13.27 g/m*3 18.48 C 0 km/h
361 09-07-2016 01:00:00 17.85833 C 13.01 g/m*3 17.86 C 0 km/h
362 09-07-2016 02:00:00 17.425 C 12.85 g/m*3 17.43 C 0.26667 km/h
363 09-07-2016 03:00:00 17.325 C 12.7 g/m*3 17.33 C 0.26667 km/h
364 09-07-2016 04:00:00 17.275 C 12.63 g/m*3 17.27 C 0 km/h
365 09-07-2016 05:00:00 17.2 C 12.68 g/m*3 17.2 C 0 km/h
366 09-07-2016 06:00:00 17.39167 C 12.92 g/m*3 17.39 C 0.93333 km/h
367 09-07-2016 07:00:00 18.09167 C 13.09 g/m*3 18.09 C 2.8 km/h
368 09-07-2016 08:00:00 18.775 C 13.55 g/m*3 18.77 C 2.26667 km/h
369 09-07-2016 09:00:00 19.98333 C 13.61 g/m*3 19.98 C 4.26667 km/h
370 09-07-2016 10:00:00 21.1 C 13.67 g/m*3 21.1 C 4.4 km/h
371 09-07-2016 11:00:00 21.81667 C 13.73 g/m*3 21.82 C 5.20833 km/h
372 09-07-2016 12:00:00 22.55 C 13.74 g/m*3 22.55 C 6.43333 km/h
373 09-07-2016 13:00:00 23.41667 C 13.94 g/m*3 23.42 C 6.30833 km/h
374 09-07-2016 14:00:00 24.11667 C 14.13 g/m*3 24.12 C 7.66667 km/h
375 09-07-2016 15:00:00 25.825 C 14.22 g/m*3 25.83 C 9.55 km/h
Sensor: Nr:Datum:Temp:Abs-Feuchte:Windchill:Wind:
Aussen-T/F 376 09-07-2016 16:00:00 25.59167 C 15.37 g/m*3 25.59 C 2.93333 km/h
377 09-07-2016 17:00:00 26.31667 C 15.38 g/m*3 26.32 C 4.16667 km/h
378 09-07-2016 18:00:00 26.23333 C 16.46 g/m*3 26.23 C 0.53333 km/h
379 09-07-2016 19:00:00 24.73333 C 16.12 g/m*3 24.73 C 0.8 km/h
380 09-07-2016 20:00:00 24.31667 C 15.84 g/m*3 24.32 C 0.4 km/h
381 09-07-2016 21:00:00 21.74167 C 14.55 g/m*3 21.74 C 0.66667 km/h
382 09-07-2016 22:00:00 19.875 C 13.85 g/m*3 19.88 C 0.26667 km/h
383 09-07-2016 23:00:00 18.7 C 13.49 g/m*3 18.7 C 0 km/h
384 10-07-2016 00:00:00 17.94167 C 13.32 g/m*3 17.94 C 2.28333 km/h
385 10-07-2016 01:00:00 17.125 C 12.95 g/m*3 17.13 C 1.33333 km/h
386 10-07-2016 02:00:00 16.48333 C 12.67 g/m*3 16.48 C 0 km/h
387 10-07-2016 03:00:00 15.51667 C 12.17 g/m*3 15.52 C 0 km/h
388 10-07-2016 04:00:00 14.88333 C 11.88 g/m*3 14.88 C 0 km/h
389 10-07-2016 05:00:00 14.55833 C 11.73 g/m*3 14.56 C 0 km/h
390 10-07-2016 06:00:00 14.74167 C 11.98 g/m*3 14.74 C 0 km/h
391 10-07-2016 07:00:00 15.34167 C 12.44 g/m*3 15.34 C 0.13333 km/h
392 10-07-2016 08:00:00 16.44167 C 13.23 g/m*3 16.44 C 0.13333 km/h
393 10-07-2016 09:00:00 17.66667 C 13.95 g/m*3 17.67 C 0.26667 km/h
394 10-07-2016 10:00:00 20.08333 C 15.47 g/m*3 20.08 C 0.4 km/h
395 10-07-2016 11:00:00 22.58333 C 16.71 g/m*3 22.58 C 0.93333 km/h
396 10-07-2016 12:00:00 24.8 C 16.35 g/m*3 24.8 C 6.025 km/h
397 10-07-2016 13:00:00 26.39167 C 17.02 g/m*3 26.39 C 4.41667 km/h
398 10-07-2016 14:00:00 27.70833 C 16.66 g/m*3 27.71 C 8.075 km/h
399 10-07-2016 15:00:00 30.03333 C 17.04 g/m*3 30.03 C 9.26667 km/h
400 10-07-2016 16:00:00 32.38333 C 17.03 g/m*3 32.38 C 6.575 km/h
Sensor: Nr:Datum:Temp:Abs-Feuchte:Windchill:Wind:
Aussen-T/F 401 10-07-2016 17:00:00 32.39167 C 17.81 g/m*3 32.39 C 7.11667 km/h
402 10-07-2016 18:00:00 30.08333 C 18.05 g/m*3 30.08 C 2.66667 km/h
403 10-07-2016 19:00:00 26.98333 C 17.98 g/m*3 26.98 C 1.46667 km/h
404 10-07-2016 20:00:00 24.94167 C 17.63 g/m*3 24.94 C 1.2 km/h
405 10-07-2016 21:00:00 23.425 C 16.3 g/m*3 23.43 C 1.06667 km/h
406 10-07-2016 22:00:00 22.29167 C 15.92 g/m*3 22.29 C 0 km/h
407 10-07-2016 23:00:00 21.40833 C 15.58 g/m*3 21.41 C 0 km/h
408 11-07-2016 00:00:00 20.74167 C 15.34 g/m*3 20.74 C 0 km/h
409 11-07-2016 01:00:00 20.225 C 15.16 g/m*3 20.23 C 0 km/h
410 11-07-2016 02:00:00 19.425 C 14.65 g/m*3 19.43 C 0.4 km/h
411 11-07-2016 03:00:00 19.18333 C 14.77 g/m*3 19.18 C 0.26667 km/h
412 11-07-2016 04:00:00 18.675 C 14.33 g/m*3 18.68 C 0.66667 km/h
413 11-07-2016 05:00:00 18.70833 C 14.58 g/m*3 18.71 C 1.06667 km/h
414 11-07-2016 06:00:00 18.94167 C 14.71 g/m*3 18.94 C 0.13333 km/h
415 11-07-2016 07:00:00 19.275 C 15.1 g/m*3 19.27 C 0 km/h
416 11-07-2016 08:00:00 20.20833 C 15.66 g/m*3 20.21 C 1.475 km/h
417 11-07-2016 09:00:00 22.18333 C 15.4 g/m*3 22.18 C 9.14167 km/h
418 11-07-2016 10:00:00 23.76667 C 14.78 g/m*3 23.77 C 12.225 km/h
419 11-07-2016 11:00:00 23.5 C 14.29 g/m*3 23.5 C 10.2 km/h
420 11-07-2016 12:00:00 23.85 C 14.6 g/m*3 23.85 C 7.8 km/h
421 11-07-2016 13:00:00 24.40833 C 13.99 g/m*3 24.41 C 14.08333 km/h
422 11-07-2016 14:00:00 24.44167 C 12.53 g/m*3 24.44 C 16.76667 km/h
423 11-07-2016 15:00:00 24.29167 C 12.61 g/m*3 24.29 C 14.23333 km/h
424 11-07-2016 16:00:00 24.375 C 13.19 g/m*3 24.38 C 11.26667 km/h
425 11-07-2016 17:00:00 24.20833 C 13.91 g/m*3 24.21 C 6.575 km/h
Sensor: Nr:Datum:Temp:Abs-Feuchte:Windchill:Wind:
Aussen-T/F 426 11-07-2016 18:00:00 24.19167 C 12.74 g/m*3 24.19 C 11.81667 km/h
427 11-07-2016 19:00:00 23.6 C 11.98 g/m*3 23.6 C 14.225 km/h
428 11-07-2016 20:00:00 21.75833 C 11.88 g/m*3 21.76 C 3.60833 km/h
429 11-07-2016 21:00:00 20.35 C 11.67 g/m*3 20.35 C 4.40833 km/h
430 11-07-2016 22:00:00 19.61667 C 11.89 g/m*3 19.62 C 1.86667 km/h
431 11-07-2016 23:00:00 18.88333 C 12.11 g/m*3 18.88 C 0.13333 km/h
432 12-07-2016 00:00:00 18.275 C 12.22 g/m*3 18.27 C 0.4 km/h
433 12-07-2016 01:00:00 17.66667 C 11.8 g/m*3 17.67 C 0.8 km/h
434 12-07-2016 02:00:00 16.36667 C 11.45 g/m*3 16.37 C 0 km/h
435 12-07-2016 03:00:00 15.00833 C 11.14 g/m*3 15.01 C 0 km/h
436 12-07-2016 04:00:00 14.475 C 11.12 g/m*3 14.48 C 0 km/h
437 12-07-2016 05:00:00 14.29167 C 11.22 g/m*3 14.29 C 0.53333 km/h
438 12-07-2016 06:00:00 14.65833 C 11.48 g/m*3 14.66 C 3.75 km/h
439 12-07-2016 07:00:00 15.29167 C 11.76 g/m*3 15.29 C 4.825 km/h
440 12-07-2016 08:00:00 16.80833 C 12.3 g/m*3 16.81 C 7.675 km/h
441 12-07-2016 09:00:00 18.39167 C 12.73 g/m*3 18.39 C 2 km/h
442 12-07-2016 10:00:00 19.91667 C 12.47 g/m*3 19.92 C 4.55 km/h
443 12-07-2016 11:00:00 20.975 C 12.35 g/m*3 20.98 C 4.14167 km/h
444 12-07-2016 12:00:00 21.88333 C 12.63 g/m*3 21.88 C 4.15 km/h
445 12-07-2016 13:00:00 22.18333 C 12.47 g/m*3 22.18 C 7.775 km/h
446 12-07-2016 14:00:00 23.125 C 11.56 g/m*3 23.13 C 12.09167 km/h
447 12-07-2016 15:00:00 24.875 C 11.26 g/m*3 24.88 C 11.40833 km/h
448 12-07-2016 16:00:00 24.65833 C 11.55 g/m*3 24.66 C 9.95 km/h
449 12-07-2016 17:00:00 24.2 C 11.92 g/m*3 24.2 C 9.13333 km/h
450 12-07-2016 18:00:00 23.51667 C 12.28 g/m*3 23.52 C 8.35833 km/h
Sensor: Nr:Datum:Temp:Abs-Feuchte:Windchill:Wind:
Aussen-T/F 451 12-07-2016 19:00:00 22.08333 C 11.81 g/m*3 22.08 C 9.55 km/h
452 12-07-2016 20:00:00 19.275 C 12.46 g/m*3 19.27 C 1.74167 km/h
453 12-07-2016 21:00:00 17.53333 C 12.24 g/m*3 17.53 C 3.60833 km/h
454 12-07-2016 22:00:00 16.5 C 12.65 g/m*3 16.5 C 1.6 km/h
455 12-07-2016 23:00:00 15.56667 C 12.29 g/m*3 15.57 C 0.13333 km/h
456 13-07-2016 00:00:00 14.94167 C 11.96 g/m*3 14.94 C 0 km/h
457 13-07-2016 01:00:00 14.05 C 11.34 g/m*3 14.05 C 0 km/h
458 13-07-2016 02:00:00 13.59167 C 11.09 g/m*3 13.59 C 0 km/h
459 13-07-2016 03:00:00 13.18333 C 10.89 g/m*3 13.18 C 0 km/h
460 13-07-2016 04:00:00 12.58333 C 10.5 g/m*3 12.58 C 0.13333 km/h
461 13-07-2016 05:00:00 12.33333 C 10.37 g/m*3 12.33 C 0.4 km/h
462 13-07-2016 06:00:00 12.85 C 10.79 g/m*3 12.85 C 0.93333 km/h
463 13-07-2016 07:00:00 13.10833 C 10.96 g/m*3 13.11 C 2.53333 km/h
464 13-07-2016 08:00:00 13.73333 C 11.39 g/m*3 13.73 C 1.33333 km/h
465 13-07-2016 09:00:00 15.20833 C 12.17 g/m*3 15.21 C 1.73333 km/h
466 13-07-2016 10:00:00 14.95833 C 11.3 g/m*3 14.96 C 4.81667 km/h
467 13-07-2016 11:00:00 13.15833 C 10.8 g/m*3 13.16 C 0.53333 km/h
468 13-07-2016 12:00:00 14.80833 C 11.99 g/m*3 14.81 C 3.33333 km/h
469 13-07-2016 13:00:00 15.8 C 12.33 g/m*3 15.8 C 3.48333 km/h
470 13-07-2016 14:00:00 16.99167 C 12.24 g/m*3 16.99 C 7.11667 km/h
471 13-07-2016 15:00:00 18.525 C 11.99 g/m*3 18.52 C 7.78333 km/h
472 13-07-2016 16:00:00 19.78333 C 12.41 g/m*3 19.78 C 5.61667 km/h
473 13-07-2016 17:00:00 15.29167 C 11.42 g/m*3 15.29 C 2.54167 km/h
474 13-07-2016 18:00:00 15.88333 C 12.18 g/m*3 15.88 C 0.53333 km/h
475 13-07-2016 19:00:00 16.38333 C 12.49 g/m*3 16.38 C 0 km/h
Sensor: Nr:Datum:Temp:Abs-Feuchte:Windchill:Wind:
Aussen-T/F 476 13-07-2016 20:00:00 15.225 C 11.95 g/m*3 15.23 C 2.55 km/h
477 13-07-2016 21:00:00 14.025 C 11.31 g/m*3 14.03 C 0.8 km/h
478 13-07-2016 22:00:00 13.38333 C 10.98 g/m*3 13.38 C 0.8 km/h
479 13-07-2016 23:00:00 13.31667 C 11.03 g/m*3 13.32 C 0.53333 km/h
480 14-07-2016 00:00:00 13.35833 C 11.13 g/m*3 13.36 C 3.20833 km/h
481 14-07-2016 01:00:00 12.83333 C 10.67 g/m*3 12.83 C 2.54167 km/h
482 14-07-2016 02:00:00 12.14167 C 10.21 g/m*3 12.14 C 1.33333 km/h
483 14-07-2016 03:00:00 11.525 C 9.83 g/m*3 11.53 C 0.26667 km/h
484 14-07-2016 04:00:00 11.33333 C 9.8 g/m*3 11.33 C 1.2 km/h
485 14-07-2016 05:00:00 11.05833 C 9.64 g/m*3 11.06 C 0.53333 km/h
486 14-07-2016 06:00:00 11.025 C 9.62 g/m*3 11.03 C 0 km/h
487 14-07-2016 07:00:00 11.425 C 9.87 g/m*3 11.43 C 0.13333 km/h
488 14-07-2016 08:00:00 12.55 C 10.48 g/m*3 12.55 C 4.55833 km/h
489 14-07-2016 09:00:00 14.05 C 10.47 g/m*3 14.05 C 8.86667 km/h
490 14-07-2016 10:00:00 15.18333 C 10.39 g/m*3 15.18 C 8.73333 km/h
491 14-07-2016 11:00:00 15.95833 C 9.88 g/m*3 15.96 C 10.225 km/h
492 14-07-2016 12:00:00 16.54167 C 9.56 g/m*3 16.54 C 10.75833 km/h
493 14-07-2016 13:00:00 17.5 C 9.29 g/m*3 17.5 C 9.69167 km/h
494 14-07-2016 14:00:00 18.06667 C 9.3 g/m*3 18.07 C 9.95 km/h
495 14-07-2016 15:00:00 18.225 C 9.21 g/m*3 18.23 C 12.89167 km/h
496 14-07-2016 16:00:00 17.88333 C 9.95 g/m*3 17.88 C 6.7 km/h
497 14-07-2016 17:00:00 17.95 C 9.52 g/m*3 17.95 C 8.725 km/h
498 14-07-2016 18:00:00 18.525 C 9.88 g/m*3 18.52 C 6.175 km/h
499 14-07-2016 19:00:00 19.48333 C 9.89 g/m*3 19.48 C 8.73333 km/h
500 14-07-2016 20:00:00 17.45 C 10.38 g/m*3 17.45 C 3.88333 km/h
Sensor: Nr:Datum:Temp:Abs-Feuchte:Windchill:Wind:
Aussen-T/F 501 14-07-2016 21:00:00 15.43333 C 10.31 g/m*3 15.43 C 0.93333 km/h
502 14-07-2016 22:00:00 14.8 C 10.43 g/m*3 14.8 C 1.88333 km/h
503 14-07-2016 23:00:00 14.4 C 9.57 g/m*3 14.4 C 4.80833 km/h
504 15-07-2016 00:00:00 13.4 C 9.4 g/m*3 13.4 C 1.86667 km/h
505 15-07-2016 01:00:00 12.95 C 9.53 g/m*3 12.95 C 0.13333 km/h
506 15-07-2016 02:00:00 12.90833 C 9.74 g/m*3 12.91 C 0 km/h
507 15-07-2016 03:00:00 12.15 C 9.45 g/m*3 12.15 C 0.13333 km/h
508 15-07-2016 04:00:00 11.79167 C 9.33 g/m*3 11.79 C 0.13333 km/h
509 15-07-2016 05:00:00 11.99167 C 9.36 g/m*3 11.99 C 0.66667 km/h
510 15-07-2016 06:00:00 12.275 C 9.49 g/m*3 12.28 C 2 km/h
511 15-07-2016 07:00:00 12.50833 C 9.45 g/m*3 12.51 C 5.5 km/h
512 15-07-2016 08:00:00 13.04167 C 9.75 g/m*3 13.04 C 3.6 km/h
513 15-07-2016 09:00:00 14.39167 C 10.06 g/m*3 14.39 C 5.9 km/h
514 15-07-2016 10:00:00 15.15 C 9.96 g/m*3 15.15 C 7.925 km/h
515 15-07-2016 11:00:00 16.45 C 9.68 g/m*3 16.45 C 11.96667 km/h
516 15-07-2016 12:00:00 17.74167 C 9.49 g/m*3 17.74 C 11.55 km/h
517 15-07-2016 13:00:00 18.48333 C 9.63 g/m*3 18.48 C 10.35833 km/h
518 15-07-2016 14:00:00 19.26667 C 9.81 g/m*3 19.27 C 8.99167 km/h
519 15-07-2016 15:00:00 19.95833 C 10.43 g/m*3 19.96 C 8.875 km/h
520 15-07-2016 16:00:00 20.59167 C 10.54 g/m*3 20.59 C 8.46667 km/h
521 15-07-2016 17:00:00 21.11667 C 11.39 g/m*3 21.12 C 2.4 km/h
522 15-07-2016 18:00:00 22.125 C 9.71 g/m*3 22.13 C 8.45833 km/h
523 15-07-2016 19:00:00 22.375 C 9.85 g/m*3 22.38 C 5.76667 km/h
524 15-07-2016 20:00:00 19.70833 C 11.27 g/m*3 19.71 C 1.46667 km/h
525 15-07-2016 21:00:00 16.86667 C 10.93 g/m*3 16.87 C 0 km/h
Sensor: Nr:Datum:Temp:Abs-Feuchte:Windchill:Wind:
Aussen-T/F 526 15-07-2016 22:00:00 15.15 C 10.57 g/m*3 15.15 C 0.4 km/h
527 15-07-2016 23:00:00 13.58333 C 10.2 g/m*3 13.58 C 0 km/h
528 16-07-2016 00:00:00 12.66667 C 9.88 g/m*3 12.67 C 0.13333 km/h
529 16-07-2016 01:00:00 12.125 C 9.76 g/m*3 12.13 C 0 km/h
530 16-07-2016 02:00:00 11.6 C 9.56 g/m*3 11.6 C 0 km/h
531 16-07-2016 03:00:00 11.23333 C 9.47 g/m*3 11.23 C 0 km/h
532 16-07-2016 04:00:00 11.6 C 9.77 g/m*3 11.6 C 0.4 km/h
533 16-07-2016 05:00:00 11.88333 C 9.89 g/m*3 11.88 C 0 km/h
534 16-07-2016 06:00:00 12.15 C 10.03 g/m*3 12.15 C 0.53333 km/h
535 16-07-2016 07:00:00 13.125 C 10.39 g/m*3 13.13 C 0.53333 km/h
536 16-07-2016 08:00:00 14.325 C 10.82 g/m*3 14.33 C 2.54167 km/h
537 16-07-2016 09:00:00 15.81667 C 11.24 g/m*3 15.82 C 3.34167 km/h
538 16-07-2016 10:00:00 17.38333 C 11.56 g/m*3 17.38 C 8.33333 km/h
539 16-07-2016 11:00:00 18.73333 C 12.11 g/m*3 18.73 C 4.95 km/h
540 16-07-2016 12:00:00 20.075 C 11.63 g/m*3 20.08 C 6.01667 km/h
541 16-07-2016 13:00:00 21.23333 C 12.35 g/m*3 21.23 C 4.94167 km/h
542 16-07-2016 14:00:00 21.25 C 12.92 g/m*3 21.25 C 5.61667 km/h
543 16-07-2016 15:00:00 21.65833 C 13.18 g/m*3 21.66 C 6.025 km/h
544 16-07-2016 16:00:00 22.225 C 14.47 g/m*3 22.23 C 1.33333 km/h
545 16-07-2016 17:00:00 21.55 C 14.92 g/m*3 21.55 C 0 km/h
546 16-07-2016 18:00:00 21.15 C 14.88 g/m*3 21.15 C 0.13333 km/h
547 16-07-2016 19:00:00 20.525 C 14.76 g/m*3 20.53 C 0 km/h
548 16-07-2016 20:00:00 20.30833 C 14.49 g/m*3 20.31 C 0 km/h
549 16-07-2016 21:00:00 19.1 C 13.8 g/m*3 19.1 C 0 km/h
550 16-07-2016 22:00:00 18.35833 C 13.62 g/m*3 18.36 C 0 km/h
Sensor: Nr:Datum:Temp:Abs-Feuchte:Windchill:Wind:
Aussen-T/F 551 16-07-2016 23:00:00 17.575 C 13.48 g/m*3 17.58 C 0 km/h
552 17-07-2016 00:00:00 16.48333 C 12.93 g/m*3 16.48 C 0 km/h
553 17-07-2016 01:00:00 16.56667 C 13.25 g/m*3 16.57 C 0 km/h
554 17-07-2016 02:00:00 17.04167 C 13.61 g/m*3 17.04 C 1.2 km/h
555 17-07-2016 03:00:00 17.21667 C 13.63 g/m*3 17.22 C 0.13333 km/h
556 17-07-2016 04:00:00 17.075 C 13.61 g/m*3 17.08 C 0 km/h
557 17-07-2016 05:00:00 16.48333 C 13.16 g/m*3 16.48 C 0 km/h
558 17-07-2016 06:00:00 16.83333 C 13.61 g/m*3 16.83 C 0.13333 km/h
559 17-07-2016 07:00:00 17.56667 C 14.16 g/m*3 17.57 C 1.46667 km/h
560 17-07-2016 08:00:00 18.78333 C 14.68 g/m*3 18.78 C 0.8 km/h
561 17-07-2016 09:00:00 20.25 C 15.2 g/m*3 20.25 C 1.2 km/h
562 17-07-2016 10:00:00 22.40833 C 15.53 g/m*3 22.41 C 5.48333 km/h
563 17-07-2016 11:00:00 23.7 C 15.38 g/m*3 23.7 C 5.35833 km/h
564 17-07-2016 12:00:00 24.35 C 16.5 g/m*3 24.35 C 2.81667 km/h
565 17-07-2016 13:00:00 24.38333 C 16.36 g/m*3 24.38 C 5.21667 km/h
566 17-07-2016 14:00:00 25.38333 C 17.56 g/m*3 25.38 C 0.93333 km/h
567 17-07-2016 15:00:00 25.53333 C 16.7 g/m*3 25.53 C 4.56667 km/h
568 17-07-2016 16:00:00 26.575 C 15.35 g/m*3 26.58 C 10.09167 km/h
569 17-07-2016 17:00:00 26.34167 C 14.74 g/m*3 26.34 C 12.63333 km/h
570 17-07-2016 18:00:00 25.89167 C 14.32 g/m*3 25.89 C 10.2 km/h
571 17-07-2016 19:00:00 25.15 C 14.7 g/m*3 25.15 C 4.80833 km/h
572 17-07-2016 20:00:00 24.8 C 15.04 g/m*3 24.8 C 4.40833 km/h
573 17-07-2016 21:00:00 22.475 C 15.51 g/m*3 22.48 C 0.66667 km/h
574 17-07-2016 22:00:00 20.85833 C 15.4 g/m*3 20.86 C 0 km/h
575 17-07-2016 23:00:00 20.19167 C 15.25 g/m*3 20.19 C 0 km/h
Sensor: Nr:Datum:Temp:Abs-Feuchte:Windchill:Wind:
Aussen-T/F 576 18-07-2016 00:00:00 19.43333 C 14.89 g/m*3 19.43 C 0 km/h
577 18-07-2016 01:00:00 18.75833 C 14.67 g/m*3 18.76 C 0.26667 km/h
578 18-07-2016 02:00:00 18.11667 C 14.29 g/m*3 18.12 C 0.53333 km/h
579 18-07-2016 03:00:00 17.63333 C 14.03 g/m*3 17.63 C 0.53333 km/h
580 18-07-2016 04:00:00 17.34167 C 13.87 g/m*3 17.34 C 0.4 km/h
581 18-07-2016 05:00:00 16.58333 C 13.24 g/m*3 16.58 C 0.4 km/h
582 18-07-2016 06:00:00 16.26667 C 13.12 g/m*3 16.27 C 0.8 km/h
583 18-07-2016 07:00:00 16.35 C 13.22 g/m*3 16.35 C 0.26667 km/h
584 18-07-2016 08:00:00 16.95833 C 13.77 g/m*3 16.96 C 0 km/h
585 18-07-2016 09:00:00 18.11667 C 14.76 g/m*3 18.12 C 0 km/h
586 18-07-2016 10:00:00 20.675 C 15.71 g/m*3 20.68 C 2 km/h
587 18-07-2016 11:00:00 23.03333 C 15.2 g/m*3 23.03 C 3.46667 km/h
588 18-07-2016 12:00:00 23.84167 C 14.39 g/m*3 23.84 C 4.93333 km/h
589 18-07-2016 13:00:00 24.39167 C 14.18 g/m*3 24.39 C 3.33333 km/h
590 18-07-2016 14:00:00 25.325 C 12.54 g/m*3 25.33 C 6.44167 km/h
591 18-07-2016 15:00:00 27.06667 C 13.04 g/m*3 27.07 C 7.25833 km/h
592 18-07-2016 16:00:00 29 C 12.85 g/m*3 29 C 7.79167 km/h
593 18-07-2016 17:00:00 29.81667 C 13.44 g/m*3 29.82 C 4.66667 km/h
594 18-07-2016 18:00:00 30.10833 C 13.22 g/m*3 30.11 C 4.81667 km/h
595 18-07-2016 19:00:00 29.23333 C 14.88 g/m*3 29.23 C 2.675 km/h
596 18-07-2016 20:00:00 25.39167 C 15.08 g/m*3 25.39 C 0.26667 km/h
597 18-07-2016 21:00:00 22.30833 C 14.03 g/m*3 22.31 C 0.13333 km/h
598 18-07-2016 22:00:00 20.10833 C 13.54 g/m*3 20.11 C 0 km/h
599 18-07-2016 23:00:00 18.55833 C 13.06 g/m*3 18.56 C 0 km/h
600 19-07-2016 00:00:00 17.49167 C 12.78 g/m*3 17.49 C 0 km/h
Sensor: Nr:Datum:Temp:Abs-Feuchte:Windchill:Wind:
Aussen-T/F 601 19-07-2016 01:00:00 16.675 C 12.55 g/m*3 16.68 C 0 km/h
602 19-07-2016 02:00:00 16.1 C 12.38 g/m*3 16.1 C 0 km/h
603 19-07-2016 03:00:00 15.475 C 12.2 g/m*3 15.48 C 0 km/h
604 19-07-2016 04:00:00 15.04167 C 11.99 g/m*3 15.04 C 0 km/h
605 19-07-2016 05:00:00 14.61667 C 11.77 g/m*3 14.62 C 0 km/h
606 19-07-2016 06:00:00 14.61667 C 11.88 g/m*3 14.62 C 0 km/h
607 19-07-2016 07:00:00 14.98333 C 12.17 g/m*3 14.98 C 0 km/h
608 19-07-2016 08:00:00 15.89167 C 12.86 g/m*3 15.89 C 0 km/h
609 19-07-2016 09:00:00 17.25833 C 13.92 g/m*3 17.26 C 0 km/h
610 19-07-2016 10:00:00 19.65 C 15.51 g/m*3 19.65 C 0 km/h
611 19-07-2016 11:00:00 22.2 C 16.7 g/m*3 22.2 C 0.8 km/h
612 19-07-2016 12:00:00 24.98333 C 15.73 g/m*3 24.98 C 5.49167 km/h
613 19-07-2016 13:00:00 26.69167 C 14.65 g/m*3 26.69 C 5.48333 km/h
614 19-07-2016 14:00:00 26.29167 C 16.74 g/m*3 26.29 C 1.6 km/h
615 19-07-2016 15:00:00 26.46667 C 17.3 g/m*3 26.47 C 2.26667 km/h
616 19-07-2016 16:00:00 29.76667 C 18.81 g/m*3 29.77 C 0.93333 km/h
617 19-07-2016 17:00:00 31.61667 C 18.52 g/m*3 31.62 C 2.4 km/h
618 19-07-2016 18:00:00 32.075 C 18.02 g/m*3 32.08 C 2.26667 km/h
619 19-07-2016 19:00:00 29.95 C 17.62 g/m*3 29.95 C 0.26667 km/h
620 19-07-2016 20:00:00 26.71667 C 15.79 g/m*3 26.72 C 1.33333 km/h
621 19-07-2016 21:00:00 23.65 C 14.43 g/m*3 23.65 C 0.4 km/h
622 19-07-2016 22:00:00 21.04167 C 13.5 g/m*3 21.04 C 0 km/h
623 19-07-2016 23:00:00 19.55 C 13.2 g/m*3 19.55 C 0 km/h
624 20-07-2016 00:00:00 18.25 C 13.06 g/m*3 18.25 C 0.13333 km/h
625 20-07-2016 01:00:00 17.325 C 12.9 g/m*3 17.33 C 0 km/h
Sensor: Nr:Datum:Temp:Abs-Feuchte:Windchill:Wind:
Aussen-T/F 626 20-07-2016 02:00:00 16.71667 C 12.71 g/m*3 16.72 C 0 km/h
627 20-07-2016 03:00:00 16.075 C 12.48 g/m*3 16.08 C 0 km/h
628 20-07-2016 04:00:00 15.50833 C 12.23 g/m*3 15.51 C 0 km/h
629 20-07-2016 05:00:00 15.01667 C 11.99 g/m*3 15.02 C 0 km/h
630 20-07-2016 06:00:00 14.775 C 11.9 g/m*3 14.78 C 0 km/h
631 20-07-2016 07:00:00 15.2 C 12.33 g/m*3 15.2 C 0 km/h
632 20-07-2016 08:00:00 16.14167 C 13.1 g/m*3 16.14 C 0 km/h
633 20-07-2016 09:00:00 17.85833 C 14.47 g/m*3 17.86 C 0 km/h
634 20-07-2016 10:00:00 20.58333 C 16.09 g/m*3 20.58 C 0 km/h
635 20-07-2016 11:00:00 23.99167 C 17.07 g/m*3 23.99 C 4.28333 km/h
636 20-07-2016 12:00:00 27.03333 C 16.97 g/m*3 27.03 C 5.625 km/h
637 20-07-2016 13:00:00 29.05 C 16.78 g/m*3 29.05 C 7.24167 km/h
638 20-07-2016 14:00:00 30.20833 C 17.02 g/m*3 30.21 C 7.91667 km/h
639 20-07-2016 15:00:00 32.19167 C 17.11 g/m*3 32.19 C 6.575 km/h
640 20-07-2016 16:00:00 34.70833 C 17.65 g/m*3 34.71 C 5.34167 km/h
641 20-07-2016 17:00:00 34.75 C 20 g/m*3 34.75 C 2.26667 km/h
642 20-07-2016 18:00:00 32.93333 C 19.24 g/m*3 32.93 C 2.66667 km/h
643 20-07-2016 19:00:00 30.2 C 17.4 g/m*3 30.2 C 2.26667 km/h
644 20-07-2016 20:00:00 26.63333 C 16.1 g/m*3 26.63 C 1.46667 km/h
645 20-07-2016 21:00:00 25.88333 C 16.23 g/m*3 25.88 C 0.93333 km/h
646 20-07-2016 22:00:00 25.25 C 16.36 g/m*3 25.25 C 0.53333 km/h
647 20-07-2016 23:00:00 23.9 C 15.85 g/m*3 23.9 C 0.26667 km/h
648 21-07-2016 00:00:00 23.5 C 15.65 g/m*3 23.5 C 0.4 km/h
649 21-07-2016 01:00:00 22.8 C 15.7 g/m*3 22.8 C 0.8 km/h
650 21-07-2016 02:00:00 22.39167 C 15.45 g/m*3 22.39 C 2.26667 km/h
Sensor: Nr:Datum:Temp:Abs-Feuchte:Windchill:Wind:
Aussen-T/F 651 21-07-2016 03:00:00 22.5 C 15.4 g/m*3 22.5 C 5.36667 km/h
652 21-07-2016 04:00:00 22.64167 C 15.49 g/m*3 22.64 C 9.4 km/h
653 21-07-2016 05:00:00 21.76667 C 15.29 g/m*3 21.77 C 9.66667 km/h
654 21-07-2016 06:00:00 20.55833 C 15.1 g/m*3 20.56 C 2.80833 km/h
655 21-07-2016 07:00:00 20.075 C 14.97 g/m*3 20.08 C 3.89167 km/h
656 21-07-2016 08:00:00 19.28333 C 15.18 g/m*3 19.28 C 2.93333 km/h
657 21-07-2016 09:00:00 19.21667 C 15.58 g/m*3 19.22 C 0.4 km/h
658 21-07-2016 10:00:00 19.85 C 16.27 g/m*3 19.85 C 0.4 km/h
659 21-07-2016 11:00:00 20.69167 C 17.03 g/m*3 20.69 C 1.2 km/h
660 21-07-2016 12:00:00 22.24167 C 17.88 g/m*3 22.24 C 3.2 km/h
661 21-07-2016 13:00:00 23.34167 C 17.47 g/m*3 23.34 C 7.925 km/h
662 21-07-2016 14:00:00 24.89167 C 17.22 g/m*3 24.89 C 9.54167 km/h
663 21-07-2016 15:00:00 25.84167 C 18.6 g/m*3 25.84 C 2.95 km/h
664 21-07-2016 16:00:00 23.1 C 17.23 g/m*3 23.1 C 3.76667 km/h
665 21-07-2016 17:00:00 20.71667 C 16.32 g/m*3 20.72 C 0.26667 km/h
666 21-07-2016 18:00:00 19.76667 C 15.95 g/m*3 19.77 C 0.13333 km/h
667 21-07-2016 19:00:00 19.6 C 15.97 g/m*3 19.6 C 0.93333 km/h
668 21-07-2016 20:00:00 19.00833 C 15.46 g/m*3 19.01 C 0.8 km/h
669 21-07-2016 21:00:00 18.91667 C 15.45 g/m*3 18.92 C 0.26667 km/h
670 21-07-2016 22:00:00 18.64167 C 15.29 g/m*3 18.64 C 0.13333 km/h
671 21-07-2016 23:00:00 18.4 C 15.1 g/m*3 18.4 C 0 km/h
672 22-07-2016 00:00:00 18.24167 C 14.96 g/m*3 18.24 C 0 km/h
673 22-07-2016 01:00:00 18.05 C 14.79 g/m*3 18.05 C 0 km/h
674 22-07-2016 02:00:00 17.95 C 14.73 g/m*3 17.95 C 0.93333 km/h
675 22-07-2016 03:00:00 17.35 C 14.18 g/m*3 17.35 C 0 km/h
Sensor: Nr:Datum:Temp:Abs-Feuchte:Windchill:Wind:
Aussen-T/F 676 22-07-2016 04:00:00 17.00833 C 13.95 g/m*3 17.01 C 0 km/h
677 22-07-2016 05:00:00 16.71667 C 13.73 g/m*3 16.72 C 0 km/h
678 22-07-2016 06:00:00 16.675 C 13.75 g/m*3 16.68 C 0 km/h
679 22-07-2016 07:00:00 17.34167 C 14.33 g/m*3 17.34 C 0.93333 km/h
680 22-07-2016 08:00:00 17.58333 C 14.53 g/m*3 17.58 C 2.13333 km/h
681 22-07-2016 09:00:00 18.20833 C 15.08 g/m*3 18.21 C 0.8 km/h
682 22-07-2016 10:00:00 19.36667 C 16.15 g/m*3 19.37 C 2 km/h
683 22-07-2016 11:00:00 21.03333 C 17.73 g/m*3 21.03 C 0.13333 km/h
684 22-07-2016 12:00:00 23.06667 C 19.07 g/m*3 23.07 C 0.66667 km/h
685 22-07-2016 13:00:00 24.75833 C 19.38 g/m*3 24.76 C 1.2 km/h
686 22-07-2016 14:00:00 26.55 C 18.41 g/m*3 26.55 C 5.225 km/h
687 22-07-2016 15:00:00 27.55 C 19.54 g/m*3 27.55 C 3.06667 km/h
688 22-07-2016 16:00:00 28.64167 C 18.59 g/m*3 28.64 C 8.05833 km/h
689 22-07-2016 17:00:00 27.01667 C 17.13 g/m*3 27.02 C 9.8 km/h
690 22-07-2016 18:00:00 25.2 C 17.96 g/m*3 25.2 C 1.74167 km/h
691 22-07-2016 19:00:00 22.74167 C 17.01 g/m*3 22.74 C 0.13333 km/h
692 22-07-2016 20:00:00 21.64167 C 16.64 g/m*3 21.64 C 0 km/h
693 22-07-2016 21:00:00 20.71667 C 15.86 g/m*3 20.72 C 0.13333 km/h
694 22-07-2016 22:00:00 19.98333 C 15.31 g/m*3 19.98 C 0 km/h
695 22-07-2016 23:00:00 19.84167 C 15.3 g/m*3 19.84 C 0 km/h
696 23-07-2016 00:00:00 19.475 C 15.22 g/m*3 19.48 C 0 km/h
697 23-07-2016 01:00:00 19.16667 C 15.21 g/m*3 19.17 C 0 km/h
698 23-07-2016 02:00:00 18.90833 C 15.07 g/m*3 18.91 C 0 km/h
699 23-07-2016 03:00:00 18.60833 C 14.81 g/m*3 18.61 C 0 km/h
700 23-07-2016 04:00:00 18.375 C 14.65 g/m*3 18.38 C 0 km/h
Sensor: Nr:Datum:Temp:Abs-Feuchte:Windchill:Wind:
Aussen-T/F 701 23-07-2016 05:00:00 18.33333 C 14.75 g/m*3 18.33 C 0 km/h
702 23-07-2016 06:00:00 18.35833 C 14.91 g/m*3 18.36 C 0 km/h
703 23-07-2016 07:00:00 18.69167 C 15.27 g/m*3 18.69 C 0 km/h
704 23-07-2016 08:00:00 19.15833 C 15.7 g/m*3 19.16 C 4.66667 km/h
705 23-07-2016 09:00:00 19.925 C 16.3 g/m*3 19.93 C 1.33333 km/h
706 23-07-2016 10:00:00 20.625 C 16.59 g/m*3 20.63 C 0.8 km/h
707 23-07-2016 11:00:00 21.11667 C 16.84 g/m*3 21.12 C 0.13333 km/h
708 23-07-2016 12:00:00 22 C 16.8 g/m*3 22 C 3.88333 km/h
709 23-07-2016 13:00:00 22.98333 C 16.79 g/m*3 22.98 C 5.75833 km/h
710 23-07-2016 14:00:00 24.1 C 16.85 g/m*3 24.1 C 7.39167 km/h
711 23-07-2016 15:00:00 23.44167 C 16.79 g/m*3 23.44 C 7.66667 km/h
712 23-07-2016 16:00:00 22.61667 C 17.11 g/m*3 22.62 C 5.09167 km/h
713 23-07-2016 17:00:00 20.60833 C 16.59 g/m*3 20.61 C 0.53333 km/h
714 23-07-2016 18:00:00 20.78333 C 17.14 g/m*3 20.78 C 0.53333 km/h
715 23-07-2016 19:00:00 21.075 C 17.48 g/m*3 21.08 C 0 km/h
716 23-07-2016 20:00:00 20.64167 C 17.06 g/m*3 20.64 C 0 km/h
717 23-07-2016 21:00:00 20.25833 C 16.77 g/m*3 20.26 C 0 km/h
718 23-07-2016 22:00:00 19.625 C 16.22 g/m*3 19.63 C 0 km/h
719 23-07-2016 23:00:00 19.36667 C 15.99 g/m*3 19.37 C 0 km/h
720 24-07-2016 00:00:00 19.2 C 15.83 g/m*3 19.2 C 0 km/h
721 24-07-2016 01:00:00 19.13333 C 15.84 g/m*3 19.13 C 0 km/h
722 24-07-2016 02:00:00 19.1 C 15.85 g/m*3 19.1 C 0 km/h
723 24-07-2016 03:00:00 19.10833 C 15.91 g/m*3 19.11 C 0 km/h
724 24-07-2016 04:00:00 19.03333 C 15.84 g/m*3 19.03 C 0 km/h
725 24-07-2016 05:00:00 18.60833 C 15.42 g/m*3 18.61 C 0.13333 km/h
Sensor: Nr:Datum:Temp:Abs-Feuchte:Windchill:Wind:
Aussen-T/F 726 24-07-2016 06:00:00 18.66667 C 15.5 g/m*3 18.67 C 0.53333 km/h
727 24-07-2016 07:00:00 19.01667 C 15.82 g/m*3 19.02 C 0.4 km/h
728 24-07-2016 08:00:00 19.41667 C 16.2 g/m*3 19.42 C 1.33333 km/h
729 24-07-2016 09:00:00 19.70833 C 16.45 g/m*3 19.71 C 1.06667 km/h
730 24-07-2016 10:00:00 20.34167 C 16.54 g/m*3 20.34 C 4.13333 km/h
731 24-07-2016 11:00:00 21.51667 C 16.92 g/m*3 21.52 C 2.4 km/h
732 24-07-2016 12:00:00 23.06667 C 16.83 g/m*3 23.07 C 4.675 km/h
733 24-07-2016 13:00:00 23.76667 C 17.19 g/m*3 23.77 C 4.80833 km/h
734 24-07-2016 14:00:00 24.55833 C 16.93 g/m*3 24.56 C 6.575 km/h
735 24-07-2016 15:00:00 26.15833 C 16.62 g/m*3 26.16 C 6.29167 km/h
736 24-07-2016 16:00:00 27.88333 C 17.16 g/m*3 27.88 C 4.13333 km/h
737 24-07-2016 17:00:00 28.375 C 16.89 g/m*3 28.38 C 9.29167 km/h
738 24-07-2016 18:00:00 28.35 C 17.05 g/m*3 28.35 C 5.23333 km/h
739 24-07-2016 19:00:00 27.69167 C 18.07 g/m*3 27.69 C 3.20833 km/h
740 24-07-2016 20:00:00 24.725 C 17.76 g/m*3 24.73 C 0.13333 km/h
741 24-07-2016 21:00:00 21.95 C 16.3 g/m*3 21.95 C 0.13333 km/h
742 24-07-2016 22:00:00 20.7 C 15.86 g/m*3 20.7 C 0.13333 km/h
743 24-07-2016 23:00:00 20.18333 C 15.88 g/m*3 20.18 C 0 km/h
744 25-07-2016 00:00:00 19.78333 C 15.67 g/m*3 19.78 C 0 km/h
745 25-07-2016 01:00:00 19.65833 C 15.57 g/m*3 19.66 C 1.33333 km/h
746 25-07-2016 02:00:00 18.81667 C 14.9 g/m*3 18.82 C 0.8 km/h
747 25-07-2016 03:00:00 18.33333 C 14.71 g/m*3 18.33 C 0.26667 km/h
748 25-07-2016 04:00:00 17.88333 C 14.4 g/m*3 17.88 C 0.13333 km/h
749 25-07-2016 05:00:00 17.575 C 14.23 g/m*3 17.58 C 0.13333 km/h
750 25-07-2016 06:00:00 17.39167 C 14.11 g/m*3 17.39 C 0 km/h
Sensor: Nr:Datum:Temp:Abs-Feuchte:Windchill:Wind:
Aussen-T/F 751 25-07-2016 07:00:00 18.18333 C 14.87 g/m*3 18.18 C 2.26667 km/h
752 25-07-2016 08:00:00 19.15833 C 15.53 g/m*3 19.16 C 0.53333 km/h
753 25-07-2016 09:00:00 20.20833 C 15.85 g/m*3 20.21 C 0.66667 km/h
754 25-07-2016 10:00:00 21.71667 C 15.55 g/m*3 21.72 C 4.675 km/h
755 25-07-2016 11:00:00 23.11667 C 15.05 g/m*3 23.12 C 6.70833 km/h
756 25-07-2016 12:00:00 24.08333 C 15.34 g/m*3 24.08 C 6.70833 km/h
757 25-07-2016 13:00:00 24.41667 C 16.3 g/m*3 24.42 C 3.20833 km/h
758 25-07-2016 14:00:00 25.15 C 16.1 g/m*3 25.15 C 3.475 km/h
759 25-07-2016 15:00:00 26.025 C 16.11 g/m*3 26.03 C 3.73333 km/h
760 25-07-2016 16:00:00 26.40833 C 15.34 g/m*3 26.41 C 7.94167 km/h
761 25-07-2016 17:00:00 25.93333 C 16.05 g/m*3 25.93 C 6.575 km/h
762 25-07-2016 18:00:00 24.93333 C 17.05 g/m*3 24.93 C 2.53333 km/h
763 25-07-2016 19:00:00 25.05833 C 17.05 g/m*3 25.06 C 2.675 km/h
764 25-07-2016 20:00:00 25.28333 C 15.63 g/m*3 25.28 C 6.29167 km/h
765 25-07-2016 21:00:00 22.55833 C 16.1 g/m*3 22.56 C 0.93333 km/h
766 25-07-2016 22:00:00 21.55833 C 15.85 g/m*3 21.56 C 1.06667 km/h
767 25-07-2016 23:00:00 20.425 C 15.12 g/m*3 20.43 C 0 km/h
768 26-07-2016 00:00:00 19.525 C 14.86 g/m*3 19.52 C 0 km/h
769 26-07-2016 01:00:00 18.71667 C 14.64 g/m*3 18.72 C 0 km/h
770 26-07-2016 02:00:00 18.15833 C 14.42 g/m*3 18.16 C 0.13333 km/h
771 26-07-2016 03:00:00 18.025 C 14.37 g/m*3 18.02 C 0.53333 km/h
772 26-07-2016 04:00:00 17.89167 C 14.35 g/m*3 17.89 C 0.26667 km/h
773 26-07-2016 05:00:00 17.55 C 14.07 g/m*3 17.55 C 0.4 km/h
774 26-07-2016 06:00:00 17.59167 C 14.24 g/m*3 17.59 C 0.13333 km/h
775 26-07-2016 07:00:00 18.49167 C 15.01 g/m*3 18.49 C 1.73333 km/h
Sensor: Nr:Datum:Temp:Abs-Feuchte:Windchill:Wind:
Aussen-T/F 776 26-07-2016 08:00:00 19.54167 C 15.39 g/m*3 19.54 C 2 km/h
777 26-07-2016 09:00:00 20.63333 C 15.8 g/m*3 20.63 C 1.2 km/h
778 26-07-2016 10:00:00 20.7 C 15.74 g/m*3 20.7 C 0.93333 km/h
779 26-07-2016 11:00:00 20.85833 C 15.75 g/m*3 20.86 C 1.2 km/h
780 26-07-2016 12:00:00 22.19167 C 16.09 g/m*3 22.19 C 2.8 km/h
781 26-07-2016 13:00:00 23.28333 C 16.4 g/m*3 23.28 C 2 km/h
782 26-07-2016 14:00:00 24.18333 C 16.49 g/m*3 24.18 C 4.675 km/h
783 26-07-2016 15:00:00 24.15833 C 16.08 g/m*3 24.16 C 5.625 km/h
784 26-07-2016 16:00:00 23.04167 C 15.86 g/m*3 23.04 C 10.76667 km/h
785 26-07-2016 17:00:00 21.73333 C 15.31 g/m*3 21.73 C 9.55 km/h
786 26-07-2016 18:00:00 22.625 C 15.39 g/m*3 22.63 C 9.68333 km/h
787 26-07-2016 19:00:00 21.65833 C 15.16 g/m*3 21.66 C 5.225 km/h
788 26-07-2016 20:00:00 20.825 C 14.73 g/m*3 20.83 C 5.21667 km/h
789 26-07-2016 21:00:00 18.875 C 14.1 g/m*3 18.88 C 0.53333 km/h
790 26-07-2016 22:00:00 17.44167 C 13.54 g/m*3 17.44 C 0 km/h
791 26-07-2016 23:00:00 17.15 C 13.52 g/m*3 17.15 C 0 km/h
792 27-07-2016 00:00:00 16.63333 C 13.16 g/m*3 16.63 C 0 km/h
793 27-07-2016 01:00:00 16.03333 C 12.79 g/m*3 16.03 C 0 km/h
794 27-07-2016 02:00:00 16.08333 C 12.99 g/m*3 16.08 C 0.4 km/h
795 27-07-2016 03:00:00 15.98333 C 12.93 g/m*3 15.98 C 0.93333 km/h
796 27-07-2016 04:00:00 15.775 C 12.8 g/m*3 15.78 C 2.26667 km/h
797 27-07-2016 05:00:00 15.76667 C 12.82 g/m*3 15.77 C 0.66667 km/h
798 27-07-2016 06:00:00 15.51667 C 12.66 g/m*3 15.52 C 1.2 km/h
799 27-07-2016 07:00:00 15.94167 C 13.03 g/m*3 15.94 C 5.35 km/h
800 27-07-2016 08:00:00 16.5 C 13.34 g/m*3 16.5 C 4 km/h
Sensor: Nr:Datum:Temp:Abs-Feuchte:Windchill:Wind:
Aussen-T/F 801 27-07-2016 09:00:00 17.60833 C 13.77 g/m*3 17.61 C 1.86667 km/h
802 27-07-2016 10:00:00 18.90833 C 14.03 g/m*3 18.91 C 2.93333 km/h
803 27-07-2016 11:00:00 20.625 C 14.13 g/m*3 20.63 C 3.61667 km/h
804 27-07-2016 12:00:00 22.1 C 14.3 g/m*3 22.1 C 5.75 km/h
805 27-07-2016 13:00:00 23.10833 C 14.01 g/m*3 23.11 C 8.59167 km/h
806 27-07-2016 14:00:00 23.83333 C 12.82 g/m*3 23.83 C 10.9 km/h
807 27-07-2016 15:00:00 23.85 C 13.68 g/m*3 23.85 C 6.96667 km/h
808 27-07-2016 16:00:00 23.875 C 13.48 g/m*3 23.88 C 7.93333 km/h
809 27-07-2016 17:00:00 25.75833 C 13.75 g/m*3 25.76 C 7.8 km/h
810 27-07-2016 18:00:00 25.1 C 13.75 g/m*3 25.1 C 4.96667 km/h
811 27-07-2016 19:00:00 22.81667 C 14.25 g/m*3 22.82 C 2.81667 km/h
812 27-07-2016 20:00:00 20.59167 C 13.77 g/m*3 20.59 C 0.26667 km/h
813 27-07-2016 21:00:00 20.00833 C 13.46 g/m*3 20.01 C 0 km/h
814 27-07-2016 22:00:00 19.50833 C 13.81 g/m*3 19.51 C 0 km/h
815 27-07-2016 23:00:00 19.19167 C 13.78 g/m*3 19.19 C 0 km/h
816 28-07-2016 00:00:00 18.575 C 13.42 g/m*3 18.58 C 0 km/h
817 28-07-2016 01:00:00 18.05 C 13.29 g/m*3 18.05 C 0 km/h
818 28-07-2016 02:00:00 17.65833 C 13.22 g/m*3 17.66 C 0 km/h
819 28-07-2016 03:00:00 17.55833 C 13.27 g/m*3 17.56 C 0 km/h
820 28-07-2016 04:00:00 17.15 C 12.99 g/m*3 17.15 C 0 km/h
821 28-07-2016 05:00:00 16.60833 C 12.72 g/m*3 16.61 C 0 km/h
822 28-07-2016 06:00:00 16.43333 C 12.85 g/m*3 16.43 C 0 km/h
823 28-07-2016 07:00:00 17.09167 C 13.49 g/m*3 17.09 C 0 km/h
824 28-07-2016 08:00:00 18.45 C 14.01 g/m*3 18.45 C 0.4 km/h
825 28-07-2016 09:00:00 20.05833 C 14.58 g/m*3 20.06 C 1.2 km/h
Sensor: Nr:Datum:Temp:Abs-Feuchte:Windchill:Wind:
Aussen-T/F 826 28-07-2016 10:00:00 21.16667 C 14.8 g/m*3 21.17 C 1.86667 km/h
827 28-07-2016 11:00:00 21.85833 C 14.55 g/m*3 21.86 C 5.60833 km/h
828 28-07-2016 12:00:00 22.91667 C 14.61 g/m*3 22.92 C 7.65833 km/h
829 28-07-2016 13:00:00 23.475 C 14.45 g/m*3 23.48 C 10.225 km/h
830 28-07-2016 14:00:00 24.30833 C 14.5 g/m*3 24.31 C 10.61667 km/h
831 28-07-2016 15:00:00 23.9 C 14.82 g/m*3 23.9 C 8.05833 km/h
832 28-07-2016 16:00:00 22.64167 C 15.82 g/m*3 22.64 C 6.30833 km/h
833 28-07-2016 17:00:00 23.05 C 16.78 g/m*3 23.05 C 7.39167 km/h
834 28-07-2016 18:00:00 23.14167 C 16.06 g/m*3 23.14 C 7.8 km/h
835 28-07-2016 19:00:00 22.49167 C 15.99 g/m*3 22.49 C 2.40833 km/h
836 28-07-2016 20:00:00 21.24167 C 15.7 g/m*3 21.24 C 0 km/h
837 28-07-2016 21:00:00 19.71667 C 15 g/m*3 19.72 C 0 km/h
838 28-07-2016 22:00:00 18.825 C 14.68 g/m*3 18.83 C 0 km/h
839 28-07-2016 23:00:00 18.475 C 14.64 g/m*3 18.48 C 0 km/h
840 29-07-2016 00:00:00 18.26667 C 14.47 g/m*3 18.27 C 0.4 km/h
841 29-07-2016 01:00:00 17.50833 C 13.72 g/m*3 17.51 C 0.26667 km/h
842 29-07-2016 02:00:00 16.39167 C 12.89 g/m*3 16.39 C 0.26667 km/h
843 29-07-2016 03:00:00 15.64167 C 12.47 g/m*3 15.64 C 2.4 km/h
844 29-07-2016 04:00:00 16.23333 C 13.05 g/m*3 16.23 C 4.14167 km/h
845 29-07-2016 05:00:00 16.675 C 13.34 g/m*3 16.68 C 1.46667 km/h
846 29-07-2016 06:00:00 16.68333 C 13.37 g/m*3 16.68 C 0 km/h
847 29-07-2016 07:00:00 17.03333 C 13.77 g/m*3 17.03 C 0.13333 km/h
848 29-07-2016 08:00:00 17.475 C 14.02 g/m*3 17.48 C 2.66667 km/h
849 29-07-2016 09:00:00 18.55 C 14.15 g/m*3 18.55 C 3.2 km/h
850 29-07-2016 10:00:00 19.29167 C 14.56 g/m*3 19.29 C 3.06667 km/h
Sensor: Nr:Datum:Temp:Abs-Feuchte:Windchill:Wind:
Aussen-T/F 851 29-07-2016 11:00:00 19.58333 C 15.33 g/m*3 19.58 C 2.26667 km/h
852 29-07-2016 12:00:00 21.025 C 16.1 g/m*3 21.03 C 3.075 km/h
853 29-07-2016 13:00:00 22.725 C 15.97 g/m*3 22.73 C 10.075 km/h
854 29-07-2016 14:00:00 24.29167 C 15.67 g/m*3 24.29 C 13.025 km/h
855 29-07-2016 15:00:00 23.725 C 15.48 g/m*3 23.73 C 12.75833 km/h
856 29-07-2016 16:00:00 24.16667 C 15.34 g/m*3 24.17 C 13.16667 km/h
857 29-07-2016 17:00:00 23.99167 C 15.48 g/m*3 23.99 C 5.50833 km/h
858 29-07-2016 18:00:00 23.95833 C 15.45 g/m*3 23.96 C 5.35833 km/h
859 29-07-2016 19:00:00 22.68333 C 15.21 g/m*3 22.68 C 2.53333 km/h
860 29-07-2016 20:00:00 22.08333 C 14.81 g/m*3 22.08 C 2.93333 km/h
861 29-07-2016 21:00:00 19.88333 C 14.32 g/m*3 19.88 C 0.26667 km/h
862 29-07-2016 22:00:00 18.85833 C 14.19 g/m*3 18.86 C 0 km/h
863 29-07-2016 23:00:00 18.725 C 14.18 g/m*3 18.73 C 0 km/h
864 30-07-2016 00:00:00 18.8 C 14.32 g/m*3 18.8 C 0 km/h
865 30-07-2016 01:00:00 18.8 C 14.36 g/m*3 18.8 C 0 km/h
866 30-07-2016 02:00:00 18.63333 C 14.42 g/m*3 18.63 C 0.26667 km/h
867 30-07-2016 03:00:00 18.14167 C 14.34 g/m*3 18.14 C 0 km/h
868 30-07-2016 04:00:00 18.1 C 14.4 g/m*3 18.1 C 0 km/h
869 30-07-2016 05:00:00 17.60833 C 13.96 g/m*3 17.61 C 0 km/h
870 30-07-2016 06:00:00 17.23333 C 13.77 g/m*3 17.23 C 0 km/h
871 30-07-2016 07:00:00 17.875 C 14.41 g/m*3 17.88 C 0.4 km/h
872 30-07-2016 08:00:00 18.79167 C 14.63 g/m*3 18.79 C 3.6 km/h
873 30-07-2016 09:00:00 19.875 C 14.55 g/m*3 19.88 C 1.06667 km/h
874 30-07-2016 10:00:00 20.99167 C 14.51 g/m*3 20.99 C 2 km/h
875 30-07-2016 11:00:00 21.55 C 13.21 g/m*3 21.55 C 7.91667 km/h
Sensor: Nr:Datum:Temp:Abs-Feuchte:Windchill:Wind:
Aussen-T/F 876 30-07-2016 12:00:00 22.31667 C 12.7 g/m*3 22.32 C 11.55833 km/h
877 30-07-2016 13:00:00 22.925 C 12.84 g/m*3 22.93 C 9.00833 km/h
878 30-07-2016 14:00:00 23.55 C 13.27 g/m*3 23.55 C 7.8 km/h
879 30-07-2016 15:00:00 23.8 C 14.05 g/m*3 23.8 C 5.64167 km/h
880 30-07-2016 16:00:00 24.73333 C 14.1 g/m*3 24.73 C 5.09167 km/h
881 30-07-2016 17:00:00 25.06667 C 13.29 g/m*3 25.07 C 7.525 km/h
882 30-07-2016 18:00:00 24.025 C 13.78 g/m*3 24.03 C 4.825 km/h
883 30-07-2016 19:00:00 23.34167 C 13.78 g/m*3 23.34 C 3.60833 km/h
884 30-07-2016 20:00:00 21.1 C 14.06 g/m*3 21.1 C 0.53333 km/h
885 30-07-2016 21:00:00 19.28333 C 13.41 g/m*3 19.28 C 0.13333 km/h
886 30-07-2016 22:00:00 18.63333 C 13.36 g/m*3 18.63 C 0 km/h
887 30-07-2016 23:00:00 18.09167 C 13.06 g/m*3 18.09 C 0 km/h
888 31-07-2016 00:00:00 17.425 C 13.1 g/m*3 17.43 C 0 km/h
889 31-07-2016 01:00:00 16.6 C 12.7 g/m*3 16.6 C 0 km/h
890 31-07-2016 02:00:00 16.375 C 12.81 g/m*3 16.38 C 0 km/h
891 31-07-2016 03:00:00 16.08333 C 12.61 g/m*3 16.08 C 0.26667 km/h
892 31-07-2016 04:00:00 15.9 C 12.56 g/m*3 15.9 C 0 km/h
893 31-07-2016 05:00:00 15.775 C 12.5 g/m*3 15.78 C 0.26667 km/h
894 31-07-2016 06:00:00 15.68333 C 12.54 g/m*3 15.68 C 0.53333 km/h
895 31-07-2016 07:00:00 16.3 C 12.99 g/m*3 16.3 C 0.53333 km/h
896 31-07-2016 08:00:00 17.375 C 13.36 g/m*3 17.38 C 2.4 km/h
897 31-07-2016 09:00:00 19.04167 C 13.38 g/m*3 19.04 C 4.93333 km/h
898 31-07-2016 10:00:00 19.5 C 13.36 g/m*3 19.5 C 6.30833 km/h
899 31-07-2016 11:00:00 19.88333 C 13.12 g/m*3 19.88 C 7.78333 km/h
900 31-07-2016 12:00:00 20.68333 C 13.13 g/m*3 20.68 C 8.73333 km/h
Sensor: Nr:Datum:Temp:Abs-Feuchte:Windchill:Wind:
Aussen-T/F 901 31-07-2016 13:00:00 21.2 C 13.02 g/m*3 21.2 C 8.46667 km/h
902 31-07-2016 14:00:00 21.19167 C 12.63 g/m*3 21.19 C 11.54167 km/h
903 31-07-2016 15:00:00 18.43333 C 12.74 g/m*3 18.43 C 9.4 km/h
904 31-07-2016 16:00:00 19.60833 C 11.82 g/m*3 19.61 C 8.86667 km/h
905 31-07-2016 17:00:00 19.81667 C 11.51 g/m*3 19.82 C 6.83333 km/h
906 31-07-2016 18:00:00 21.8 C 11.85 g/m*3 21.8 C 9.53333 km/h
907 31-07-2016 19:00:00 20.525 C 11.11 g/m*3 20.53 C 12.36667 km/h
908 31-07-2016 20:00:00 19.25833 C 11.25 g/m*3 19.26 C 4.54167 km/h
909 31-07-2016 21:00:00 16.79167 C 11.37 g/m*3 16.79 C 0 km/h
910 31-07-2016 22:00:00 15.64167 C 11.34 g/m*3 15.64 C 0 km/h
911 31-07-2016 23:00:00 14.575 C 11.02 g/m*3 14.58 C 0 km/h
912 01-08-2016 00:00:00 13.81667 C 10.64 g/m*3 13.82 C 0.13333 km/h
913 01-08-2016 01:00:00 12.84167 C 10.19 g/m*3 12.84 C 0 km/h
914 01-08-2016 02:00:00 12.34167 C 9.99 g/m*3 12.34 C 0.66667 km/h
915 01-08-2016 03:00:00 11.75833 C 9.71 g/m*3 11.76 C 0.4 km/h
916 01-08-2016 04:00:00 11.10833 C 9.38 g/m*3 11.11 C 0.53333 km/h
917 01-08-2016 05:00:00 10.63333 C 9.19 g/m*3 10.63 C 0.13333 km/h
918 01-08-2016 06:00:00 10.45 C 9.14 g/m*3 10.45 C 0.4 km/h
919 01-08-2016 07:00:00 10.55 C 9.24 g/m*3 10.55 C 0.13333 km/h
920 01-08-2016 08:00:00 11.125 C 9.62 g/m*3 11.13 C 0 km/h
921 01-08-2016 09:00:00 12.59167 C 10.61 g/m*3 12.59 C 0.13333 km/h
922 01-08-2016 10:00:00 14.94167 C 11.78 g/m*3 14.94 C 0.93333 km/h
923 01-08-2016 11:00:00 18.64167 C 11.69 g/m*3 18.64 C 4.68333 km/h
924 01-08-2016 12:00:00 21.05 C 11.83 g/m*3 21.05 C 4.55 km/h
925 01-08-2016 13:00:00 21 C 12.38 g/m*3 21 C 2 km/h
Sensor: Nr:Datum:Temp:Abs-Feuchte:Windchill:Wind:
Aussen-T/F 926 01-08-2016 14:00:00 21.58333 C 11.87 g/m*3 21.58 C 6.04167 km/h
927 01-08-2016 15:00:00 20.76667 C 13.3 g/m*3 20.77 C 0.4 km/h
928 01-08-2016 16:00:00 20.64167 C 13.71 g/m*3 20.64 C 1.475 km/h
929 01-08-2016 17:00:00 24.10833 C 10.87 g/m*3 24.11 C 8.06667 km/h
930 01-08-2016 18:00:00 25.26667 C 11.16 g/m*3 25.27 C 5.64167 km/h
931 01-08-2016 19:00:00 23.88333 C 10.79 g/m*3 23.88 C 4.14167 km/h
932 01-08-2016 20:00:00 19.75 C 11.71 g/m*3 19.75 C 0.4 km/h
933 01-08-2016 21:00:00 17.65 C 10.4 g/m*3 17.65 C 0 km/h
934 01-08-2016 22:00:00 16.86667 C 10.87 g/m*3 16.87 C 0 km/h
935 01-08-2016 23:00:00 15.98333 C 10.9 g/m*3 15.98 C 0 km/h
936 02-08-2016 00:00:00 15.88333 C 10.96 g/m*3 15.88 C 0.4 km/h
937 02-08-2016 01:00:00 15.85833 C 11.01 g/m*3 15.86 C 0 km/h
938 02-08-2016 02:00:00 15.31667 C 10.9 g/m*3 15.32 C 0 km/h
939 02-08-2016 03:00:00 15.24167 C 11.12 g/m*3 15.24 C 0 km/h
940 02-08-2016 04:00:00 15.125 C 11.53 g/m*3 15.13 C 0 km/h
941 02-08-2016 05:00:00 14.79167 C 11.74 g/m*3 14.79 C 0 km/h
942 02-08-2016 06:00:00 14.6 C 11.71 g/m*3 14.6 C 0 km/h
943 02-08-2016 07:00:00 14.81667 C 11.98 g/m*3 14.82 C 1.33333 km/h
944 02-08-2016 08:00:00 15.225 C 12.35 g/m*3 15.23 C 0.8 km/h
945 02-08-2016 09:00:00 15.725 C 12.73 g/m*3 15.73 C 0 km/h
946 02-08-2016 10:00:00 15.85 C 12.8 g/m*3 15.85 C 1.33333 km/h
947 02-08-2016 11:00:00 15.775 C 12.75 g/m*3 15.78 C 4.425 km/h
948 02-08-2016 12:00:00 16.10833 C 13.02 g/m*3 16.11 C 7.39167 km/h
949 02-08-2016 13:00:00 16.46667 C 13.25 g/m*3 16.47 C 8.33333 km/h
950 02-08-2016 14:00:00 17.03333 C 13.7 g/m*3 17.03 C 9.69167 km/h
Sensor: Nr:Datum:Temp:Abs-Feuchte:Windchill:Wind:
Aussen-T/F 951 02-08-2016 15:00:00 17.33333 C 13.94 g/m*3 17.33 C 8.05 km/h
952 02-08-2016 16:00:00 17.49167 C 14.02 g/m*3 17.49 C 11.41667 km/h
953 02-08-2016 17:00:00 17.49167 C 14.02 g/m*3 17.49 C 6.71667 km/h
954 02-08-2016 18:00:00 17.4 C 13.94 g/m*3 17.4 C 11.14167 km/h
955 02-08-2016 19:00:00 17.20833 C 13.75 g/m*3 17.21 C 10.61667 km/h
956 02-08-2016 20:00:00 17.1 C 13.63 g/m*3 17.1 C 6.45 km/h
957 02-08-2016 21:00:00 16.84167 C 13.57 g/m*3 16.84 C 4.95 km/h
958 02-08-2016 22:00:00 16.7 C 13.54 g/m*3 16.7 C 5.50833 km/h
959 02-08-2016 23:00:00 16.66667 C 13.62 g/m*3 16.67 C 4.96667 km/h
960 03-08-2016 00:00:00 16.63333 C 13.59 g/m*3 16.63 C 10.60833 km/h
961 03-08-2016 01:00:00 16.75833 C 13.63 g/m*3 16.76 C 10.46667 km/h
962 03-08-2016 02:00:00 17 C 13.79 g/m*3 17 C 8.05 km/h
963 03-08-2016 03:00:00 17.21667 C 13.95 g/m*3 17.22 C 2.4 km/h
964 03-08-2016 04:00:00 17.35833 C 14.13 g/m*3 17.36 C 8.45833 km/h
965 03-08-2016 05:00:00 17.64167 C 14.27 g/m*3 17.64 C 8.45 km/h
966 03-08-2016 06:00:00 17.85 C 14.23 g/m*3 17.85 C 11.15833 km/h
967 03-08-2016 07:00:00 17.79167 C 14.35 g/m*3 17.79 C 4.425 km/h
968 03-08-2016 08:00:00 17.875 C 14.47 g/m*3 17.88 C 9.14167 km/h
969 03-08-2016 09:00:00 18.61667 C 14.87 g/m*3 18.62 C 10.88333 km/h
970 03-08-2016 10:00:00 19.3 C 15.14 g/m*3 19.3 C 6.84167 km/h
971 03-08-2016 11:00:00 19.90833 C 15.63 g/m*3 19.91 C 6.18333 km/h
972 03-08-2016 12:00:00 19.875 C 15.75 g/m*3 19.88 C 7.65 km/h
973 03-08-2016 13:00:00 19.475 C 15.35 g/m*3 19.48 C 9.13333 km/h
974 03-08-2016 14:00:00 19 C 15.28 g/m*3 19 C 6.85 km/h
975 03-08-2016 15:00:00 19 C 15.45 g/m*3 19 C 9.39167 km/h
Sensor: Nr:Datum:Temp:Abs-Feuchte:Windchill:Wind:
Aussen-T/F 976 03-08-2016 16:00:00 19.70833 C 15.91 g/m*3 19.71 C 8.99167 km/h
977 03-08-2016 17:00:00 20.25 C 16.25 g/m*3 20.25 C 5.48333 km/h
978 03-08-2016 18:00:00 19.875 C 16 g/m*3 19.88 C 0.93333 km/h
979 03-08-2016 19:00:00 19.63333 C 15.9 g/m*3 19.63 C 0 km/h
980 03-08-2016 20:00:00 19.14167 C 15.57 g/m*3 19.14 C 0 km/h
981 03-08-2016 21:00:00 18.675 C 15.19 g/m*3 18.68 C 0 km/h
982 03-08-2016 22:00:00 18.4 C 15.07 g/m*3 18.4 C 0 km/h
983 03-08-2016 23:00:00 18.25833 C 14.97 g/m*3 18.26 C 0 km/h
984 04-08-2016 00:00:00 18.1 C 14.83 g/m*3 18.1 C 0 km/h
985 04-08-2016 01:00:00 17.94167 C 14.69 g/m*3 17.94 C 0.4 km/h
986 04-08-2016 02:00:00 17.59167 C 14.42 g/m*3 17.59 C 0.13333 km/h
987 04-08-2016 03:00:00 17.03333 C 13.94 g/m*3 17.03 C 0 km/h
988 04-08-2016 04:00:00 17.00833 C 14.04 g/m*3 17.01 C 0 km/h
989 04-08-2016 05:00:00 17.11667 C 14.13 g/m*3 17.12 C 0 km/h
990 04-08-2016 06:00:00 17.25 C 14.25 g/m*3 17.25 C 0 km/h
991 04-08-2016 07:00:00 17.13333 C 14.15 g/m*3 17.13 C 1.20833 km/h
992 04-08-2016 08:00:00 17.10833 C 14.13 g/m*3 17.11 C 0 km/h
993 04-08-2016 09:00:00 17.65833 C 14.6 g/m*3 17.66 C 0.13333 km/h
994 04-08-2016 10:00:00 18.475 C 15.32 g/m*3 18.48 C 1.06667 km/h
995 04-08-2016 11:00:00 19.15833 C 15.94 g/m*3 19.16 C 0.53333 km/h
996 04-08-2016 12:00:00 19.94167 C 16.16 g/m*3 19.94 C 3.075 km/h
997 04-08-2016 13:00:00 20.6 C 16.26 g/m*3 20.6 C 3.2 km/h
998 04-08-2016 14:00:00 20.44167 C 15.99 g/m*3 20.44 C 1.33333 km/h
999 04-08-2016 15:00:00 19.81667 C 15.67 g/m*3 19.82 C 1.6 km/h
1000 04-08-2016 16:00:00 19.81667 C 15.42 g/m*3 19.82 C 0.66667 km/h
Sensor: Nr:Datum:Temp:Abs-Feuchte:Windchill:Wind:
Aussen-T/F 1001 04-08-2016 17:00:00 18.75833 C 14.81 g/m*3 18.76 C 0.53333 km/h
1002 04-08-2016 18:00:00 18.41667 C 14.77 g/m*3 18.42 C 0 km/h
1003 04-08-2016 19:00:00 18.05833 C 14.39 g/m*3 18.06 C 0.26667 km/h
1004 04-08-2016 20:00:00 17.39167 C 13.87 g/m*3 17.39 C 0 km/h
1005 04-08-2016 21:00:00 16.45833 C 13.14 g/m*3 16.46 C 0 km/h
1006 04-08-2016 22:00:00 15.79167 C 12.71 g/m*3 15.79 C 0 km/h
1007 04-08-2016 23:00:00 15.33333 C 12.43 g/m*3 15.33 C 0 km/h
1008 05-08-2016 00:00:00 14.93333 C 12.13 g/m*3 14.93 C 0 km/h
1009 05-08-2016 01:00:00 14.43333 C 11.84 g/m*3 14.43 C 0.53333 km/h
1010 05-08-2016 02:00:00 14.15 C 11.67 g/m*3 14.15 C 0 km/h
1011 05-08-2016 03:00:00 13.79167 C 11.43 g/m*3 13.79 C 0.93333 km/h
1012 05-08-2016 04:00:00 13.625 C 11.32 g/m*3 13.63 C 1.73333 km/h
1013 05-08-2016 05:00:00 13.5 C 11.26 g/m*3 13.5 C 1.2 km/h
1014 05-08-2016 06:00:00 13.375 C 11.18 g/m*3 13.38 C 0.13333 km/h
1015 05-08-2016 07:00:00 13.29167 C 11.18 g/m*3 13.29 C 1.46667 km/h
1016 05-08-2016 08:00:00 13.74167 C 11.52 g/m*3 13.74 C 4.425 km/h
1017 05-08-2016 09:00:00 14.65833 C 12 g/m*3 14.66 C 8.60833 km/h
1018 05-08-2016 10:00:00 16.71667 C 12.54 g/m*3 16.72 C 4.15833 km/h
1019 05-08-2016 11:00:00 17.6 C 12.35 g/m*3 17.6 C 7.525 km/h
1020 05-08-2016 12:00:00 18.44167 C 12.68 g/m*3 18.44 C 4.68333 km/h
1021 05-08-2016 13:00:00 19.68333 C 13.46 g/m*3 19.68 C 2.66667 km/h
1022 05-08-2016 14:00:00 19.25 C 14.28 g/m*3 19.25 C 0.4 km/h
1023 05-08-2016 15:00:00 19.35 C 14.21 g/m*3 19.35 C 0.8 km/h
1024 05-08-2016 16:00:00 21.79167 C 14.72 g/m*3 21.79 C 0.53333 km/h
1025 05-08-2016 17:00:00 21.1 C 14.39 g/m*3 21.1 C 5.24167 km/h
Sensor: Nr:Datum:Temp:Abs-Feuchte:Windchill:Wind:
Aussen-T/F 1026 05-08-2016 18:00:00 19.79167 C 12.12 g/m*3 19.79 C 11.55 km/h
1027 05-08-2016 19:00:00 19.16667 C 12.86 g/m*3 19.17 C 4.16667 km/h
1028 05-08-2016 20:00:00 17.90833 C 13.23 g/m*3 17.91 C 0.13333 km/h
1029 05-08-2016 21:00:00 16.84167 C 12.65 g/m*3 16.84 C 0 km/h
1030 05-08-2016 22:00:00 15.85833 C 12.27 g/m*3 15.86 C 0 km/h
1031 05-08-2016 23:00:00 15.01667 C 11.95 g/m*3 15.02 C 0 km/h
1032 06-08-2016 00:00:00 14.525 C 11.74 g/m*3 14.53 C 0 km/h
1033 06-08-2016 01:00:00 14.34167 C 11.71 g/m*3 14.34 C 1.33333 km/h
1034 06-08-2016 02:00:00 14.63333 C 12.03 g/m*3 14.63 C 0.66667 km/h
1035 06-08-2016 03:00:00 14.79167 C 12.15 g/m*3 14.79 C 0.26667 km/h
1036 06-08-2016 04:00:00 14.35 C 11.71 g/m*3 14.35 C 0 km/h
1037 06-08-2016 05:00:00 13.55833 C 11.17 g/m*3 13.56 C 0 km/h
1038 06-08-2016 06:00:00 13.24167 C 11.05 g/m*3 13.24 C 0.8 km/h
1039 06-08-2016 07:00:00 13.65833 C 11.38 g/m*3 13.66 C 2.675 km/h
1040 06-08-2016 08:00:00 14.54167 C 12.04 g/m*3 14.54 C 5.88333 km/h
1041 06-08-2016 09:00:00 16 C 12.58 g/m*3 16 C 6.83333 km/h
1042 06-08-2016 10:00:00 17.75833 C 12.6 g/m*3 17.76 C 4.4 km/h
1043 06-08-2016 11:00:00 19.06667 C 12.68 g/m*3 19.07 C 3.86667 km/h
1044 06-08-2016 12:00:00 19.975 C 13.69 g/m*3 19.98 C 3.09167 km/h
1045 06-08-2016 13:00:00 19.95833 C 14.02 g/m*3 19.96 C 2 km/h
1046 06-08-2016 14:00:00 20.8 C 14.77 g/m*3 20.8 C 0.66667 km/h
1047 06-08-2016 15:00:00 20.89167 C 15.14 g/m*3 20.89 C 0.13333 km/h
1048 06-08-2016 16:00:00 21.35 C 14.97 g/m*3 21.35 C 0 km/h
1049 06-08-2016 17:00:00 21.14167 C 14.96 g/m*3 21.14 C 0 km/h
1050 06-08-2016 18:00:00 23.025 C 14.39 g/m*3 23.03 C 3.09167 km/h
Sensor: Nr:Datum:Temp:Abs-Feuchte:Windchill:Wind:
Aussen-T/F 1051 06-08-2016 19:00:00 22.59167 C 13.8 g/m*3 22.59 C 3.225 km/h
1052 06-08-2016 20:00:00 20.15833 C 13.36 g/m*3 20.16 C 2.54167 km/h
1053 06-08-2016 21:00:00 18.275 C 13.08 g/m*3 18.27 C 0.93333 km/h
1054 06-08-2016 22:00:00 17.1 C 12.62 g/m*3 17.1 C 0.4 km/h
1055 06-08-2016 23:00:00 16.45 C 12.3 g/m*3 16.45 C 0.13333 km/h
1056 07-08-2016 00:00:00 15.35833 C 11.86 g/m*3 15.36 C 0.13333 km/h
1057 07-08-2016 01:00:00 14.4 C 11.51 g/m*3 14.4 C 0 km/h
1058 07-08-2016 02:00:00 13.84167 C 11.23 g/m*3 13.84 C 0 km/h
1059 07-08-2016 03:00:00 13.41667 C 11.05 g/m*3 13.42 C 0 km/h
1060 07-08-2016 04:00:00 12.84167 C 10.67 g/m*3 12.84 C 0.8 km/h
1061 07-08-2016 05:00:00 12.35833 C 10.35 g/m*3 12.36 C 0.13333 km/h
1062 07-08-2016 06:00:00 12.05833 C 10.22 g/m*3 12.06 C 0 km/h
1063 07-08-2016 07:00:00 12.775 C 10.74 g/m*3 12.78 C 1.2 km/h
1064 07-08-2016 08:00:00 13.3 C 11.09 g/m*3 13.3 C 0.8 km/h
1065 07-08-2016 09:00:00 13.96667 C 11.58 g/m*3 13.97 C 0 km/h
1066 07-08-2016 10:00:00 15.79167 C 12.92 g/m*3 15.79 C 1.6 km/h
1067 07-08-2016 11:00:00 19.18333 C 13.4 g/m*3 19.18 C 8.2 km/h
1068 07-08-2016 12:00:00 20.74167 C 13.55 g/m*3 20.74 C 6.44167 km/h
1069 07-08-2016 13:00:00 22.08333 C 13.49 g/m*3 22.08 C 8.33333 km/h
1070 07-08-2016 14:00:00 23.31667 C 13.67 g/m*3 23.32 C 9.69167 km/h
1071 07-08-2016 15:00:00 24.86667 C 14.15 g/m*3 24.87 C 7.925 km/h
1072 07-08-2016 16:00:00 27.71667 C 15.13 g/m*3 27.72 C 5.9 km/h
1073 07-08-2016 17:00:00 28.71667 C 15.93 g/m*3 28.72 C 5.63333 km/h
1074 07-08-2016 18:00:00 28.69167 C 16.64 g/m*3 28.69 C 3.48333 km/h
1075 07-08-2016 19:00:00 26.925 C 16.77 g/m*3 26.93 C 0.8 km/h
Sensor: Nr:Datum:Temp:Abs-Feuchte:Windchill:Wind:
Aussen-T/F 1076 07-08-2016 20:00:00 23.24167 C 15.37 g/m*3 23.24 C 0 km/h
1077 07-08-2016 21:00:00 20.73333 C 14.28 g/m*3 20.73 C 0.4 km/h
1078 07-08-2016 22:00:00 19.33333 C 13.78 g/m*3 19.33 C 0 km/h
1079 07-08-2016 23:00:00 18.45833 C 13.61 g/m*3 18.46 C 0.675 km/h
1080 08-08-2016 00:00:00 17.64167 C 13.41 g/m*3 17.64 C 1.06667 km/h
1081 08-08-2016 01:00:00 17.48333 C 13.43 g/m*3 17.48 C 2.4 km/h
1082 08-08-2016 02:00:00 17.85833 C 13.56 g/m*3 17.86 C 4.01667 km/h
1083 08-08-2016 03:00:00 17.98333 C 13.5 g/m*3 17.98 C 4.66667 km/h
1084 08-08-2016 04:00:00 17.13333 C 13.01 g/m*3 17.13 C 2.68333 km/h
1085 08-08-2016 05:00:00 16.35833 C 12.69 g/m*3 16.36 C 1.46667 km/h
1086 08-08-2016 06:00:00 16.35 C 12.92 g/m*3 16.35 C 1.2 km/h
1087 08-08-2016 07:00:00 17.14167 C 13.27 g/m*3 17.14 C 5.225 km/h
1088 08-08-2016 08:00:00 17.9 C 13.78 g/m*3 17.9 C 3.34167 km/h
1089 08-08-2016 09:00:00 19.18333 C 13.97 g/m*3 19.18 C 10.60833 km/h
1090 08-08-2016 10:00:00 20.24167 C 13.86 g/m*3 20.24 C 9.40833 km/h
1091 08-08-2016 11:00:00 21.55 C 11.19 g/m*3 21.55 C 10.49167 km/h
1092 08-08-2016 12:00:00 22.025 C 10.82 g/m*3 22.03 C 7.925 km/h
1093 08-08-2016 13:00:00 22.625 C 11.72 g/m*3 22.63 C 12.225 km/h
1094 08-08-2016 14:00:00 22.64167 C 12.85 g/m*3 22.64 C 11.16667 km/h
1095 08-08-2016 15:00:00 22.8 C 12.72 g/m*3 22.8 C 9.4 km/h
1096 08-08-2016 16:00:00 24.60833 C 12.25 g/m*3 24.61 C 14.5 km/h
1097 08-08-2016 17:00:00 21.15 C 12.29 g/m*3 21.15 C 12.9 km/h
1098 08-08-2016 18:00:00 20.24167 C 12.17 g/m*3 20.24 C 6.7 km/h
1099 08-08-2016 19:00:00 19.75833 C 12.34 g/m*3 19.76 C 3.75 km/h
1100 08-08-2016 20:00:00 19.55833 C 12.25 g/m*3 19.56 C 1.46667 km/h
Sensor: Nr:Datum:Temp:Abs-Feuchte:Windchill:Wind:
Aussen-T/F 1101 08-08-2016 21:00:00 17.09167 C 12.03 g/m*3 17.09 C 0.26667 km/h
1102 08-08-2016 22:00:00 16.49167 C 12.07 g/m*3 16.49 C 0 km/h
1103 08-08-2016 23:00:00 16.30833 C 11.91 g/m*3 16.31 C 3.48333 km/h
1104 09-08-2016 00:00:00 16.725 C 11.18 g/m*3 16.73 C 1.73333 km/h
1105 09-08-2016 01:00:00 16.00833 C 10.95 g/m*3 16.01 C 0.66667 km/h
1106 09-08-2016 02:00:00 14.95 C 10.57 g/m*3 14.95 C 0.13333 km/h
1107 09-08-2016 03:00:00 14.55 C 10.57 g/m*3 14.55 C 0 km/h
1108 09-08-2016 04:00:00 14.4 C 10.54 g/m*3 14.4 C 0 km/h
1109 09-08-2016 05:00:00 14.25833 C 10.45 g/m*3 14.26 C 0.13333 km/h
1110 09-08-2016 06:00:00 13.8 C 10.33 g/m*3 13.8 C 0 km/h
1111 09-08-2016 07:00:00 13.39167 C 10.25 g/m*3 13.39 C 0 km/h
1112 09-08-2016 08:00:00 14.13333 C 10.85 g/m*3 14.13 C 0.8 km/h
1113 09-08-2016 09:00:00 15.325 C 10.89 g/m*3 15.33 C 5.65 km/h
1114 09-08-2016 10:00:00 16.475 C 10.62 g/m*3 16.48 C 4.7 km/h
1115 09-08-2016 11:00:00 17.83333 C 10.09 g/m*3 17.83 C 10.35 km/h
1116 09-08-2016 12:00:00 18.575 C 9.68 g/m*3 18.58 C 9.95833 km/h
1117 09-08-2016 13:00:00 19.25833 C 8.91 g/m*3 19.26 C 11.56667 km/h
1118 09-08-2016 14:00:00 19.1 C 8.97 g/m*3 19.1 C 11.43333 km/h
1119 09-08-2016 15:00:00 19.99167 C 9.15 g/m*3 19.99 C 7.8 km/h
1120 09-08-2016 16:00:00 21.55833 C 8.47 g/m*3 21.56 C 10.76667 km/h
1121 09-08-2016 17:00:00 20.45833 C 9.47 g/m*3 20.46 C 14.09167 km/h
1122 09-08-2016 18:00:00 17.75 C 9.56 g/m*3 17.75 C 10.075 km/h
1123 09-08-2016 19:00:00 17.15 C 9.03 g/m*3 17.15 C 6.56667 km/h
1124 09-08-2016 20:00:00 16.525 C 9.14 g/m*3 16.52 C 3.2 km/h
1125 09-08-2016 21:00:00 14.60833 C 9.63 g/m*3 14.61 C 0.8 km/h
Sensor: Nr:Datum:Temp:Abs-Feuchte:Windchill:Wind:
Aussen-T/F 1126 09-08-2016 22:00:00 14.26667 C 9.53 g/m*3 14.27 C 3.61667 km/h
1127 09-08-2016 23:00:00 13.225 C 9.44 g/m*3 13.23 C 0.53333 km/h
1128 10-08-2016 00:00:00 12.16667 C 9.21 g/m*3 12.17 C 0.13333 km/h
1129 10-08-2016 01:00:00 11.4 C 8.88 g/m*3 11.4 C 0 km/h
1130 10-08-2016 02:00:00 10.36667 C 8.58 g/m*3 10.37 C 0 km/h
1131 10-08-2016 03:00:00 9.88333 C 8.5 g/m*3 9.88 C 0.4 km/h
1132 10-08-2016 04:00:00 10.15833 C 8.81 g/m*3 10.16 C 1.06667 km/h
1133 10-08-2016 05:00:00 10.39167 C 8.88 g/m*3 10.39 C 0.93333 km/h
1134 10-08-2016 06:00:00 10.31667 C 8.86 g/m*3 10.32 C 0 km/h
1135 10-08-2016 07:00:00 10.58333 C 9.07 g/m*3 10.58 C 1.6 km/h
1136 10-08-2016 08:00:00 11.46667 C 9.38 g/m*3 11.47 C 5.775 km/h
1137 10-08-2016 09:00:00 13.05 C 9.76 g/m*3 13.05 C 3.46667 km/h
1138 10-08-2016 10:00:00 12.63333 C 9.39 g/m*3 12.63 C 6.56667 km/h
1139 10-08-2016 11:00:00 11.64167 C 9.47 g/m*3 11.64 C 1.06667 km/h
1140 10-08-2016 12:00:00 12.90833 C 9.89 g/m*3 12.91 C 3.46667 km/h
1141 10-08-2016 13:00:00 14.325 C 9.63 g/m*3 14.33 C 7.25833 km/h
1142 10-08-2016 14:00:00 15.45 C 9.36 g/m*3 15.45 C 9.40833 km/h
1143 10-08-2016 15:00:00 16.58333 C 9.17 g/m*3 16.58 C 9.825 km/h
1144 10-08-2016 16:00:00 17.99167 C 8.97 g/m*3 17.99 C 12.5 km/h
1145 10-08-2016 17:00:00 18.80833 C 7.96 g/m*3 18.81 C 13.96667 km/h
1146 10-08-2016 18:00:00 17.6 C 8.4 g/m*3 17.6 C 10.08333 km/h
1147 10-08-2016 19:00:00 15.95 C 8.7 g/m*3 15.95 C 11.29167 km/h
1148 10-08-2016 20:00:00 14.6 C 8.83 g/m*3 14.6 C 4.275 km/h
1149 10-08-2016 21:00:00 12.91667 C 8.61 g/m*3 12.92 C 1.46667 km/h
1150 10-08-2016 22:00:00 11.23333 C 8.36 g/m*3 11.23 C 0 km/h
Sensor: Nr:Datum:Temp:Abs-Feuchte:Windchill:Wind:
Aussen-T/F 1151 10-08-2016 23:00:00 10.16667 C 8.2 g/m*3 10.17 C 0 km/h
1152 11-08-2016 00:00:00 9.15833 C 7.96 g/m*3 9.16 C 0 km/h
1153 11-08-2016 01:00:00 8.475 C 7.8 g/m*3 8.48 C 0.13333 km/h
1154 11-08-2016 02:00:00 8.175 C 7.77 g/m*3 8.18 C 0 km/h
1155 11-08-2016 03:00:00 7.86667 C 7.66 g/m*3 7.87 C 0.13333 km/h
1156 11-08-2016 04:00:00 7.41667 C 7.48 g/m*3 7.42 C 0.26667 km/h
1157 11-08-2016 05:00:00 7.075 C 7.33 g/m*3 7.08 C 2 km/h
1158 11-08-2016 06:00:00 6.9 C 7.31 g/m*3 6.9 C 4.825 km/h
1159 11-08-2016 07:00:00 7.16667 C 7.46 g/m*3 6.46 C 5.225 km/h
1160 11-08-2016 08:00:00 8.725 C 8.29 g/m*3 8.04 C 5.88333 km/h
1161 11-08-2016 09:00:00 10.54167 C 8.93 g/m*3 9.45 C 9.00833 km/h
1162 11-08-2016 10:00:00 12.49167 C 9.4 g/m*3 12.49 C 7.54167 km/h
1163 11-08-2016 11:00:00 14.58333 C 9.03 g/m*3 14.58 C 7.38333 km/h
1164 11-08-2016 12:00:00 16.14167 C 8.49 g/m*3 16.14 C 10.20833 km/h
1165 11-08-2016 13:00:00 17.40833 C 9.21 g/m*3 17.41 C 6.98333 km/h
1166 11-08-2016 14:00:00 17.95833 C 9.28 g/m*3 17.96 C 9 km/h
1167 11-08-2016 15:00:00 18.3 C 9.19 g/m*3 18.3 C 9.275 km/h
1168 11-08-2016 16:00:00 18.34167 C 9.4 g/m*3 18.34 C 10.475 km/h
1169 11-08-2016 17:00:00 17.36667 C 9.61 g/m*3 17.37 C 11.40833 km/h
1170 11-08-2016 18:00:00 15.50833 C 10.9 g/m*3 15.51 C 0.53333 km/h
1171 11-08-2016 19:00:00 13.76667 C 10.7 g/m*3 13.77 C 2 km/h
1172 11-08-2016 20:00:00 13.08333 C 10.53 g/m*3 13.08 C 6.83333 km/h
1173 11-08-2016 21:00:00 12.8 C 10.43 g/m*3 12.8 C 7.91667 km/h
1174 11-08-2016 22:00:00 12.89167 C 10.58 g/m*3 12.89 C 11.56667 km/h
1175 11-08-2016 23:00:00 13.05833 C 10.71 g/m*3 13.06 C 9.125 km/h
Sensor: Nr:Datum:Temp:Abs-Feuchte:Windchill:Wind:
Aussen-T/F 1176 12-08-2016 00:00:00 13.25833 C 10.93 g/m*3 13.26 C 9.95 km/h
1177 12-08-2016 01:00:00 13.39167 C 11.02 g/m*3 13.39 C 6.975 km/h
1178 12-08-2016 02:00:00 13.51667 C 11.12 g/m*3 13.52 C 5.63333 km/h
1179 12-08-2016 03:00:00 13.63333 C 11.2 g/m*3 13.63 C 7.65833 km/h
1180 12-08-2016 04:00:00 13.775 C 11.3 g/m*3 13.78 C 6.55833 km/h
1181 12-08-2016 05:00:00 14.06667 C 11.47 g/m*3 14.07 C 8.05833 km/h
1182 12-08-2016 06:00:00 14.25833 C 11.53 g/m*3 14.26 C 7.11667 km/h
1183 12-08-2016 07:00:00 14.575 C 11.74 g/m*3 14.58 C 8.34167 km/h
1184 12-08-2016 08:00:00 15.01667 C 12.07 g/m*3 15.02 C 8.2 km/h
1185 12-08-2016 09:00:00 15.60833 C 12.46 g/m*3 15.61 C 8.75 km/h
1186 12-08-2016 10:00:00 16.325 C 12.9 g/m*3 16.33 C 6.30833 km/h
1187 12-08-2016 11:00:00 17.60833 C 13.65 g/m*3 17.61 C 8.88333 km/h
1188 12-08-2016 12:00:00 19.40833 C 14.48 g/m*3 19.41 C 9.69167 km/h
1189 12-08-2016 13:00:00 20.3 C 14.91 g/m*3 20.3 C 8.35 km/h
1190 12-08-2016 14:00:00 21.20833 C 15.4 g/m*3 21.21 C 4.00833 km/h
1191 12-08-2016 15:00:00 20.54167 C 15.68 g/m*3 20.54 C 0.26667 km/h
1192 12-08-2016 16:00:00 22.025 C 16.1 g/m*3 22.03 C 1.6 km/h
1193 12-08-2016 17:00:00 21.98333 C 16.24 g/m*3 21.98 C 0 km/h
1194 12-08-2016 18:00:00 20.28333 C 15.54 g/m*3 20.28 C 0.13333 km/h
1195 12-08-2016 19:00:00 19.85833 C 15.43 g/m*3 19.86 C 0 km/h
1196 12-08-2016 20:00:00 19.325 C 15.01 g/m*3 19.33 C 0 km/h
1197 12-08-2016 21:00:00 18.6 C 14.56 g/m*3 18.6 C 0.13333 km/h
1198 12-08-2016 22:00:00 18.5 C 14.46 g/m*3 18.5 C 0.26667 km/h
1199 12-08-2016 23:00:00 18.54167 C 14.3 g/m*3 18.54 C 0.8 km/h
1200 13-08-2016 00:00:00 18.31667 C 14.1 g/m*3 18.32 C 0 km/h
Sensor: Nr:Datum:Temp:Abs-Feuchte:Windchill:Wind:
Aussen-T/F 1201 13-08-2016 01:00:00 17.74167 C 13.83 g/m*3 17.74 C 0.13333 km/h
1202 13-08-2016 02:00:00 17.20833 C 13.53 g/m*3 17.21 C 0 km/h
1203 13-08-2016 03:00:00 16.49167 C 13.04 g/m*3 16.49 C 0 km/h
1204 13-08-2016 04:00:00 15.66667 C 12.54 g/m*3 15.67 C 1.06667 km/h
1205 13-08-2016 05:00:00 14.98333 C 12.12 g/m*3 14.98 C 0.26667 km/h
1206 13-08-2016 06:00:00 14.66667 C 11.94 g/m*3 14.67 C 0.13333 km/h
1207 13-08-2016 07:00:00 14.58333 C 11.95 g/m*3 14.58 C 0 km/h
1208 13-08-2016 08:00:00 15.38333 C 12.6 g/m*3 15.38 C 3.06667 km/h
1209 13-08-2016 09:00:00 16.69167 C 13.49 g/m*3 16.69 C 4.7 km/h
1210 13-08-2016 10:00:00 19.175 C 14.43 g/m*3 19.18 C 9.00833 km/h
1211 13-08-2016 11:00:00 21.71667 C 15.21 g/m*3 21.72 C 7.925 km/h
1212 13-08-2016 12:00:00 22.69167 C 15.31 g/m*3 22.69 C 8.05 km/h
1213 13-08-2016 13:00:00 23.55833 C 15.31 g/m*3 23.56 C 7.125 km/h
1214 13-08-2016 14:00:00 24.80833 C 15.31 g/m*3 24.81 C 7.65 km/h
1215 13-08-2016 15:00:00 26.13333 C 14.47 g/m*3 26.13 C 6.43333 km/h
1216 13-08-2016 16:00:00 28.63333 C 13 g/m*3 28.63 C 10.89167 km/h
1217 13-08-2016 17:00:00 29.83333 C 13.2 g/m*3 29.83 C 7.525 km/h
1218 13-08-2016 18:00:00 29.64167 C 12.07 g/m*3 29.64 C 9.55833 km/h
1219 13-08-2016 19:00:00 26.73333 C 12.93 g/m*3 26.73 C 7.25 km/h
1220 13-08-2016 20:00:00 23.41667 C 14.33 g/m*3 23.42 C 2.81667 km/h
1221 13-08-2016 21:00:00 20.30833 C 14.09 g/m*3 20.31 C 0 km/h
1222 13-08-2016 22:00:00 18.825 C 13.72 g/m*3 18.83 C 0 km/h
1223 13-08-2016 23:00:00 17.81667 C 13.31 g/m*3 17.82 C 0 km/h
1224 14-08-2016 00:00:00 16.54167 C 12.75 g/m*3 16.54 C 0 km/h
1225 14-08-2016 01:00:00 15.65 C 12.29 g/m*3 15.65 C 0 km/h
Sensor: Nr:Datum:Temp:Abs-Feuchte:Windchill:Wind:
Aussen-T/F 1226 14-08-2016 02:00:00 15.08333 C 12.01 g/m*3 15.08 C 0 km/h
1227 14-08-2016 03:00:00 14.58333 C 11.75 g/m*3 14.58 C 0 km/h
1228 14-08-2016 04:00:00 14.08333 C 11.48 g/m*3 14.08 C 0 km/h
1229 14-08-2016 05:00:00 13.9 C 11.4 g/m*3 13.9 C 0.13333 km/h
1230 14-08-2016 06:00:00 13.575 C 11.19 g/m*3 13.58 C 0 km/h
1231 14-08-2016 07:00:00 14.03333 C 11.6 g/m*3 14.03 C 0.53333 km/h
1232 14-08-2016 08:00:00 14.48333 C 11.93 g/m*3 14.48 C 0.8 km/h
1233 14-08-2016 09:00:00 15.3 C 12.54 g/m*3 15.3 C 0.4 km/h
1234 14-08-2016 10:00:00 16.95833 C 13.62 g/m*3 16.96 C 0.8 km/h
1235 14-08-2016 11:00:00 18.85833 C 14.61 g/m*3 18.86 C 0.53333 km/h
1236 14-08-2016 12:00:00 21.15 C 14.6 g/m*3 21.15 C 3.6 km/h
1237 14-08-2016 13:00:00 22.61667 C 14.73 g/m*3 22.62 C 3.75 km/h
1238 14-08-2016 14:00:00 23.79167 C 14.28 g/m*3 23.79 C 5.48333 km/h
1239 14-08-2016 15:00:00 24.63333 C 14.17 g/m*3 24.63 C 6.41667 km/h
1240 14-08-2016 16:00:00 26.125 C 13.79 g/m*3 26.13 C 7.65833 km/h
1241 14-08-2016 17:00:00 26.24167 C 13.12 g/m*3 26.24 C 7.925 km/h
1242 14-08-2016 18:00:00 25.775 C 12.54 g/m*3 25.78 C 8.325 km/h
1243 14-08-2016 19:00:00 24.31667 C 12.72 g/m*3 24.32 C 7.79167 km/h
1244 14-08-2016 20:00:00 23.31667 C 12.99 g/m*3 23.32 C 7.4 km/h
1245 14-08-2016 21:00:00 20.94167 C 13.37 g/m*3 20.94 C 2.54167 km/h
1246 14-08-2016 22:00:00 18.55833 C 13.11 g/m*3 18.56 C 0.26667 km/h
1247 14-08-2016 23:00:00 17.625 C 12.96 g/m*3 17.63 C 0 km/h
1248 15-08-2016 00:00:00 17.49167 C 12.99 g/m*3 17.49 C 0 km/h
1249 15-08-2016 01:00:00 16.64167 C 12.34 g/m*3 16.64 C 0 km/h
1250 15-08-2016 02:00:00 15.73333 C 11.93 g/m*3 15.73 C 0 km/h
Sensor: Nr:Datum:Temp:Abs-Feuchte:Windchill:Wind:
Aussen-T/F 1251 15-08-2016 03:00:00 15.15833 C 11.75 g/m*3 15.16 C 0 km/h
1252 15-08-2016 04:00:00 14.73333 C 11.61 g/m*3 14.73 C 0 km/h
1253 15-08-2016 05:00:00 14.275 C 11.4 g/m*3 14.28 C 0 km/h
1254 15-08-2016 06:00:00 14.15833 C 11.41 g/m*3 14.16 C 0.4 km/h
1255 15-08-2016 07:00:00 14.69167 C 11.76 g/m*3 14.69 C 0.66667 km/h
1256 15-08-2016 08:00:00 14.73333 C 11.7 g/m*3 14.73 C 0 km/h
1257 15-08-2016 09:00:00 15.11667 C 12.01 g/m*3 15.12 C 0 km/h
1258 15-08-2016 10:00:00 16.19167 C 12.66 g/m*3 16.19 C 0 km/h
1259 15-08-2016 11:00:00 18.34167 C 12.94 g/m*3 18.34 C 4.83333 km/h
1260 15-08-2016 12:00:00 20.65 C 12.88 g/m*3 20.65 C 7.80833 km/h
1261 15-08-2016 13:00:00 22.075 C 12.75 g/m*3 22.08 C 6.71667 km/h
1262 15-08-2016 14:00:00 23.13333 C 12.72 g/m*3 23.13 C 5.34167 km/h
1263 15-08-2016 15:00:00 24.54167 C 12.82 g/m*3 24.54 C 7.80833 km/h
1264 15-08-2016 16:00:00 25.625 C 13.05 g/m*3 25.63 C 9.95833 km/h
1265 15-08-2016 17:00:00 26.375 C 12.86 g/m*3 26.38 C 10.75833 km/h
1266 15-08-2016 18:00:00 25.35 C 12.62 g/m*3 25.35 C 8.74167 km/h
1267 15-08-2016 19:00:00 24.9 C 12.61 g/m*3 24.9 C 6.69167 km/h
1268 15-08-2016 20:00:00 21.88333 C 13.32 g/m*3 21.88 C 2.26667 km/h
1269 15-08-2016 21:00:00 18.65 C 12.69 g/m*3 18.65 C 0.13333 km/h
1270 15-08-2016 22:00:00 17.79167 C 12.41 g/m*3 17.79 C 0.66667 km/h
1271 15-08-2016 23:00:00 16.66667 C 12.03 g/m*3 16.67 C 0 km/h
1272 16-08-2016 00:00:00 15.29167 C 11.24 g/m*3 15.29 C 0 km/h
1273 16-08-2016 01:00:00 14.44167 C 10.83 g/m*3 14.44 C 0 km/h
1274 16-08-2016 02:00:00 13.84167 C 10.56 g/m*3 13.84 C 0 km/h
1275 16-08-2016 03:00:00 13.4 C 10.35 g/m*3 13.4 C 0 km/h
Sensor: Nr:Datum:Temp:Abs-Feuchte:Windchill:Wind:
Aussen-T/F 1276 16-08-2016 04:00:00 12.74167 C 10.04 g/m*3 12.74 C 0 km/h
1277 16-08-2016 05:00:00 11.975 C 9.74 g/m*3 11.98 C 0 km/h
1278 16-08-2016 06:00:00 11.475 C 9.55 g/m*3 11.48 C 0 km/h
1279 16-08-2016 07:00:00 11.625 C 9.75 g/m*3 11.63 C 0 km/h
1280 16-08-2016 08:00:00 12.45 C 10.33 g/m*3 12.45 C 0 km/h
1281 16-08-2016 09:00:00 14.00833 C 11.38 g/m*3 14.01 C 0.66667 km/h
1282 16-08-2016 10:00:00 16.325 C 11.98 g/m*3 16.33 C 1.33333 km/h
1283 16-08-2016 11:00:00 17.91667 C 12.19 g/m*3 17.92 C 1.86667 km/h
1284 16-08-2016 12:00:00 19.825 C 12.37 g/m*3 19.83 C 2.4 km/h
1285 16-08-2016 13:00:00 21.425 C 12.41 g/m*3 21.43 C 4.275 km/h
1286 16-08-2016 14:00:00 22.89167 C 12.07 g/m*3 22.89 C 6.98333 km/h
1287 16-08-2016 15:00:00 24.21667 C 12.06 g/m*3 24.22 C 5.35833 km/h
1288 16-08-2016 16:00:00 26.4 C 11.72 g/m*3 26.4 C 7.525 km/h
1289 16-08-2016 17:00:00 27.59167 C 9.73 g/m*3 27.59 C 8.34167 km/h
1290 16-08-2016 18:00:00 27.275 C 10.6 g/m*3 27.28 C 8.2 km/h
1291 16-08-2016 19:00:00 26 C 11.12 g/m*3 26 C 5.48333 km/h
1292 16-08-2016 20:00:00 21.36667 C 12.63 g/m*3 21.37 C 1.46667 km/h
1293 16-08-2016 21:00:00 18.55 C 11.78 g/m*3 18.55 C 0.66667 km/h
1294 16-08-2016 22:00:00 16.94167 C 11.75 g/m*3 16.94 C 0 km/h
1295 16-08-2016 23:00:00 15.89167 C 11.54 g/m*3 15.89 C 0 km/h
1296 17-08-2016 00:00:00 14.825 C 11.14 g/m*3 14.83 C 0 km/h
1297 17-08-2016 01:00:00 14.20833 C 10.87 g/m*3 14.21 C 0 km/h
1298 17-08-2016 02:00:00 13.85 C 10.52 g/m*3 13.85 C 0 km/h
1299 17-08-2016 03:00:00 13.675 C 10.37 g/m*3 13.68 C 0.8 km/h
1300 17-08-2016 04:00:00 13.35 C 10.08 g/m*3 13.35 C 0 km/h
Sensor: Nr:Datum:Temp:Abs-Feuchte:Windchill:Wind:
Aussen-T/F 1301 17-08-2016 05:00:00 12.89167 C 9.88 g/m*3 12.89 C 0 km/h
1302 17-08-2016 06:00:00 12.11667 C 9.71 g/m*3 12.12 C 0 km/h
1303 17-08-2016 07:00:00 12.04167 C 9.87 g/m*3 12.04 C 0 km/h
1304 17-08-2016 08:00:00 12.675 C 10.31 g/m*3 12.68 C 0 km/h
1305 17-08-2016 09:00:00 13.775 C 10.87 g/m*3 13.78 C 0.13333 km/h
1306 17-08-2016 10:00:00 15.84167 C 11.66 g/m*3 15.84 C 3.2 km/h
1307 17-08-2016 11:00:00 18.75 C 11.88 g/m*3 18.75 C 7.24167 km/h
1308 17-08-2016 12:00:00 20.98333 C 11.94 g/m*3 20.98 C 7.65833 km/h
1309 17-08-2016 13:00:00 22.25 C 11.72 g/m*3 22.25 C 6.45 km/h
1310 17-08-2016 14:00:00 23.3 C 11.2 g/m*3 23.3 C 7.38333 km/h
1311 17-08-2016 15:00:00 24.66667 C 10.77 g/m*3 24.67 C 9.41667 km/h
1312 17-08-2016 16:00:00 26.18333 C 10.8 g/m*3 26.18 C 6.98333 km/h
1313 17-08-2016 17:00:00 27.33333 C 10.77 g/m*3 27.33 C 6.025 km/h
1314 17-08-2016 18:00:00 27.275 C 12.17 g/m*3 27.28 C 4.40833 km/h
1315 17-08-2016 19:00:00 24.63333 C 13.3 g/m*3 24.63 C 0.8 km/h
1316 17-08-2016 20:00:00 20.76667 C 12.08 g/m*3 20.77 C 1.46667 km/h
1317 17-08-2016 21:00:00 18.225 C 10.68 g/m*3 18.23 C 1.6 km/h
1318 17-08-2016 22:00:00 16.80833 C 10.6 g/m*3 16.81 C 0.4 km/h
1319 17-08-2016 23:00:00 15.09167 C 10.37 g/m*3 15.09 C 0 km/h
1320 18-08-2016 00:00:00 14.03333 C 10.05 g/m*3 14.03 C 0 km/h
1321 18-08-2016 01:00:00 13.35833 C 9.98 g/m*3 13.36 C 0 km/h
1322 18-08-2016 02:00:00 12.65833 C 9.85 g/m*3 12.66 C 0 km/h
1323 18-08-2016 03:00:00 12.00833 C 9.61 g/m*3 12.01 C 0 km/h
1324 18-08-2016 04:00:00 11.50833 C 9.3 g/m*3 11.51 C 0 km/h
1325 18-08-2016 05:00:00 11.01667 C 9.07 g/m*3 11.02 C 0 km/h
Sensor: Nr:Datum:Temp:Abs-Feuchte:Windchill:Wind:
Aussen-T/F 1326 18-08-2016 06:00:00 10.81667 C 9.12 g/m*3 10.82 C 0 km/h
1327 18-08-2016 07:00:00 10.93333 C 9.27 g/m*3 10.93 C 0 km/h
1328 18-08-2016 08:00:00 11.95833 C 9.96 g/m*3 11.96 C 0 km/h
1329 18-08-2016 09:00:00 13.45 C 10.74 g/m*3 13.45 C 0 km/h
1330 18-08-2016 10:00:00 15.225 C 11.71 g/m*3 15.23 C 0 km/h
1331 18-08-2016 11:00:00 17.875 C 12.65 g/m*3 17.88 C 0 km/h
1332 18-08-2016 12:00:00 20.38333 C 13.64 g/m*3 20.38 C 1.2 km/h
1333 18-08-2016 13:00:00 22.7 C 14.68 g/m*3 22.7 C 1.2 km/h
1334 18-08-2016 14:00:00 24.69167 C 13.56 g/m*3 24.69 C 3.34167 km/h
1335 18-08-2016 15:00:00 24.64167 C 15.59 g/m*3 24.64 C 1.33333 km/h
1336 18-08-2016 16:00:00 25 C 14.18 g/m*3 25 C 6.84167 km/h
1337 18-08-2016 17:00:00 23.73333 C 15.14 g/m*3 23.73 C 2.14167 km/h
1338 18-08-2016 18:00:00 21.51667 C 14.49 g/m*3 21.52 C 0 km/h
1339 18-08-2016 19:00:00 20.16667 C 13.68 g/m*3 20.17 C 0 km/h
1340 18-08-2016 20:00:00 19.61667 C 13.46 g/m*3 19.62 C 0.13333 km/h
1341 18-08-2016 21:00:00 19.08333 C 13.31 g/m*3 19.08 C 0.13333 km/h
1342 18-08-2016 22:00:00 18.63333 C 13.63 g/m*3 18.63 C 0 km/h
1343 18-08-2016 23:00:00 18.45 C 13.66 g/m*3 18.45 C 1.6 km/h
1344 19-08-2016 00:00:00 17.9 C 13.12 g/m*3 17.9 C 1.875 km/h
1345 19-08-2016 01:00:00 16.3 C 12.5 g/m*3 16.3 C 0 km/h
1346 19-08-2016 02:00:00 15.45833 C 12.22 g/m*3 15.46 C 0 km/h
1347 19-08-2016 03:00:00 15.20833 C 12.13 g/m*3 15.21 C 2.41667 km/h
1348 19-08-2016 04:00:00 14.78333 C 11.92 g/m*3 14.78 C 0 km/h
1349 19-08-2016 05:00:00 14.84167 C 12.06 g/m*3 14.84 C 0 km/h
1350 19-08-2016 06:00:00 14.7 C 11.96 g/m*3 14.7 C 0 km/h
Sensor: Nr:Datum:Temp:Abs-Feuchte:Windchill:Wind:
Aussen-T/F 1351 19-08-2016 07:00:00 15.34167 C 12.47 g/m*3 15.34 C 1.06667 km/h
1352 19-08-2016 08:00:00 16.33333 C 13.09 g/m*3 16.33 C 3.6 km/h
1353 19-08-2016 09:00:00 17.35833 C 13.37 g/m*3 17.36 C 2.93333 km/h
1354 19-08-2016 10:00:00 17.95833 C 13.7 g/m*3 17.96 C 0.8 km/h
1355 19-08-2016 11:00:00 19.59167 C 14.51 g/m*3 19.59 C 3.46667 km/h
1356 19-08-2016 12:00:00 22.08333 C 14.38 g/m*3 22.08 C 8.325 km/h
1357 19-08-2016 13:00:00 23.73333 C 13.84 g/m*3 23.73 C 7.8 km/h
1358 19-08-2016 14:00:00 24.69167 C 14.5 g/m*3 24.69 C 11.15 km/h
1359 19-08-2016 15:00:00 25.06667 C 14.83 g/m*3 25.07 C 7.38333 km/h
1360 19-08-2016 16:00:00 24.35 C 15.16 g/m*3 24.35 C 5.75 km/h
1361 19-08-2016 17:00:00 24.26667 C 16.12 g/m*3 24.27 C 1.86667 km/h
1362 19-08-2016 18:00:00 23.91667 C 16.19 g/m*3 23.92 C 0.4 km/h
1363 19-08-2016 19:00:00 21.60833 C 15.24 g/m*3 21.61 C 0 km/h
1364 19-08-2016 20:00:00 20.625 C 14.95 g/m*3 20.63 C 0 km/h
1365 19-08-2016 21:00:00 19.93333 C 14.79 g/m*3 19.93 C 0.13333 km/h
1366 19-08-2016 22:00:00 19.5 C 14.29 g/m*3 19.5 C 0 km/h
1367 19-08-2016 23:00:00 19.13333 C 14.03 g/m*3 19.13 C 0.13333 km/h
1368 20-08-2016 00:00:00 18.69167 C 14.06 g/m*3 18.69 C 0 km/h
1369 20-08-2016 01:00:00 17.98333 C 13.94 g/m*3 17.98 C 0 km/h
1370 20-08-2016 02:00:00 17.675 C 13.78 g/m*3 17.68 C 0 km/h
1371 20-08-2016 03:00:00 17.325 C 13.45 g/m*3 17.33 C 0 km/h
1372 20-08-2016 04:00:00 17.125 C 13.35 g/m*3 17.13 C 0 km/h
1373 20-08-2016 05:00:00 16.26667 C 12.66 g/m*3 16.27 C 0 km/h
1374 20-08-2016 06:00:00 16 C 12.73 g/m*3 16 C 0 km/h
1375 20-08-2016 07:00:00 16.65 C 13.32 g/m*3 16.65 C 0 km/h
Sensor: Nr:Datum:Temp:Abs-Feuchte:Windchill:Wind:
Aussen-T/F 1376 20-08-2016 08:00:00 17.5 C 13.89 g/m*3 17.5 C 1.2 km/h
1377 20-08-2016 09:00:00 18.93333 C 14.15 g/m*3 18.93 C 6.58333 km/h
1378 20-08-2016 10:00:00 19.69167 C 14.3 g/m*3 19.69 C 4.275 km/h
1379 20-08-2016 11:00:00 19.75 C 14.32 g/m*3 19.75 C 2.53333 km/h
1380 20-08-2016 12:00:00 20.25833 C 14.15 g/m*3 20.26 C 4.275 km/h
1381 20-08-2016 13:00:00 20.21667 C 13.8 g/m*3 20.22 C 3.89167 km/h
1382 20-08-2016 14:00:00 19.45 C 13.22 g/m*3 19.45 C 2.275 km/h
1383 20-08-2016 15:00:00 18.95 C 13.2 g/m*3 18.95 C 2.26667 km/h
1384 20-08-2016 16:00:00 20.53333 C 13.18 g/m*3 20.53 C 5.89167 km/h
1385 20-08-2016 17:00:00 23.075 C 13.16 g/m*3 23.08 C 7.50833 km/h
1386 20-08-2016 18:00:00 24.39167 C 12.86 g/m*3 24.39 C 7.925 km/h
1387 20-08-2016 19:00:00 22.99167 C 13.08 g/m*3 22.99 C 2.14167 km/h
1388 20-08-2016 20:00:00 19.50833 C 13.01 g/m*3 19.51 C 0.66667 km/h
1389 20-08-2016 21:00:00 17.20833 C 12.45 g/m*3 17.21 C 1.86667 km/h
1390 20-08-2016 22:00:00 16.30833 C 12.02 g/m*3 16.31 C 2.80833 km/h
1391 20-08-2016 23:00:00 15.85833 C 11.84 g/m*3 15.86 C 2.01667 km/h
1392 21-08-2016 00:00:00 15.33333 C 11.77 g/m*3 15.33 C 0 km/h
1393 21-08-2016 01:00:00 14.95833 C 11.7 g/m*3 14.96 C 0 km/h
1394 21-08-2016 02:00:00 14.86667 C 11.75 g/m*3 14.87 C 0 km/h
1395 21-08-2016 03:00:00 14.725 C 11.62 g/m*3 14.73 C 0.66667 km/h
1396 21-08-2016 04:00:00 14.94167 C 11.61 g/m*3 14.94 C 3.625 km/h
1397 21-08-2016 05:00:00 14.05 C 11.18 g/m*3 14.05 C 0.53333 km/h
1398 21-08-2016 06:00:00 13.8 C 11.2 g/m*3 13.8 C 0.13333 km/h
1399 21-08-2016 07:00:00 14.06667 C 11.42 g/m*3 14.07 C 2.80833 km/h
1400 21-08-2016 08:00:00 15.25833 C 11.54 g/m*3 15.26 C 8.05 km/h
Sensor: Nr:Datum:Temp:Abs-Feuchte:Windchill:Wind:
Aussen-T/F 1401 21-08-2016 09:00:00 16.33333 C 11.48 g/m*3 16.33 C 9.275 km/h
1402 21-08-2016 10:00:00 17 C 11.41 g/m*3 17 C 8.60833 km/h
1403 21-08-2016 11:00:00 17.86667 C 11.54 g/m*3 17.87 C 8.84167 km/h
1404 21-08-2016 12:00:00 18.20833 C 11.34 g/m*3 18.21 C 11.15833 km/h
1405 21-08-2016 13:00:00 19.00833 C 11.62 g/m*3 19.01 C 14.63333 km/h
1406 21-08-2016 14:00:00 19.84167 C 11.73 g/m*3 19.84 C 16.23333 km/h
1407 21-08-2016 15:00:00 19.70833 C 11.68 g/m*3 19.71 C 15.55833 km/h
1408 21-08-2016 16:00:00 20.33333 C 11.26 g/m*3 20.33 C 19.71667 km/h
1409 21-08-2016 17:00:00 20.66667 C 11.69 g/m*3 20.67 C 12.075 km/h
1410 21-08-2016 18:00:00 20.30833 C 11.57 g/m*3 20.31 C 13.01667 km/h
1411 21-08-2016 19:00:00 19.05833 C 11.72 g/m*3 19.06 C 10.59167 km/h
1412 21-08-2016 20:00:00 18.16667 C 11.84 g/m*3 18.17 C 8.18333 km/h
1413 21-08-2016 21:00:00 17.45833 C 11.77 g/m*3 17.46 C 5.775 km/h
1414 21-08-2016 22:00:00 17.03333 C 11.62 g/m*3 17.03 C 10.08333 km/h
1415 21-08-2016 23:00:00 16.775 C 11.69 g/m*3 16.77 C 8.59167 km/h
1416 22-08-2016 00:00:00 16.5 C 11.65 g/m*3 16.5 C 3.73333 km/h
1417 22-08-2016 01:00:00 15.81667 C 11.35 g/m*3 15.82 C 1.20833 km/h
1418 22-08-2016 02:00:00 14.35833 C 10.87 g/m*3 14.36 C 0 km/h
1419 22-08-2016 03:00:00 13.45 C 10.68 g/m*3 13.45 C 0 km/h
1420 22-08-2016 04:00:00 12.98333 C 10.51 g/m*3 12.98 C 0.4 km/h
1421 22-08-2016 05:00:00 12.94167 C 10.6 g/m*3 12.94 C 0.66667 km/h
1422 22-08-2016 06:00:00 13.08333 C 10.72 g/m*3 13.08 C 0.26667 km/h
1423 22-08-2016 07:00:00 13.475 C 11 g/m*3 13.48 C 0 km/h
1424 22-08-2016 08:00:00 14.475 C 11.56 g/m*3 14.48 C 0.93333 km/h
1425 22-08-2016 09:00:00 15.725 C 11.51 g/m*3 15.73 C 7.23333 km/h
Sensor: Nr:Datum:Temp:Abs-Feuchte:Windchill:Wind:
Aussen-T/F 1426 22-08-2016 10:00:00 15.975 C 12.03 g/m*3 15.98 C 9.95833 km/h
1427 22-08-2016 11:00:00 16.28333 C 12.59 g/m*3 16.28 C 11.43333 km/h
1428 22-08-2016 12:00:00 17.825 C 12.9 g/m*3 17.83 C 11.69167 km/h
1429 22-08-2016 13:00:00 18.325 C 12.85 g/m*3 18.33 C 8.875 km/h
1430 22-08-2016 14:00:00 19.65833 C 13.41 g/m*3 19.66 C 6.575 km/h
1431 22-08-2016 15:00:00 21.46667 C 13.97 g/m*3 21.47 C 8.33333 km/h
1432 22-08-2016 16:00:00 21.85833 C 14.18 g/m*3 21.86 C 5.21667 km/h
1433 22-08-2016 17:00:00 22.61667 C 14.53 g/m*3 22.62 C 3.88333 km/h
1434 22-08-2016 18:00:00 23.48333 C 14.53 g/m*3 23.48 C 4.69167 km/h
1435 22-08-2016 19:00:00 22.825 C 14.67 g/m*3 22.83 C 2.275 km/h
1436 22-08-2016 20:00:00 20.36667 C 13.6 g/m*3 20.37 C 1.33333 km/h
1437 22-08-2016 21:00:00 18.46667 C 12.91 g/m*3 18.47 C 0.13333 km/h
1438 22-08-2016 22:00:00 17.29167 C 12.49 g/m*3 17.29 C 0 km/h
1439 22-08-2016 23:00:00 16.14167 C 12 g/m*3 16.14 C 0 km/h
1440 23-08-2016 00:00:00 15.14167 C 11.57 g/m*3 15.14 C 0 km/h
1441 23-08-2016 01:00:00 14.38333 C 11.29 g/m*3 14.38 C 0 km/h
1442 23-08-2016 02:00:00 13.85 C 11.07 g/m*3 13.85 C 0 km/h
1443 23-08-2016 03:00:00 13.31667 C 10.83 g/m*3 13.32 C 0 km/h
1444 23-08-2016 04:00:00 12.90833 C 10.6 g/m*3 12.91 C 0 km/h
1445 23-08-2016 05:00:00 12.64167 C 10.49 g/m*3 12.64 C 0.13333 km/h
1446 23-08-2016 06:00:00 12.31667 C 10.33 g/m*3 12.32 C 0 km/h
1447 23-08-2016 07:00:00 12.44167 C 10.43 g/m*3 12.44 C 0 km/h
1448 23-08-2016 08:00:00 12.95 C 10.84 g/m*3 12.95 C 0 km/h
1449 23-08-2016 09:00:00 13.95833 C 11.55 g/m*3 13.96 C 0 km/h
1450 23-08-2016 10:00:00 15.55 C 12.71 g/m*3 15.55 C 0 km/h
Sensor: Nr:Datum:Temp:Abs-Feuchte:Windchill:Wind:
Aussen-T/F 1451 23-08-2016 11:00:00 18.18333 C 14.19 g/m*3 18.18 C 0 km/h
1452 23-08-2016 12:00:00 20.75 C 15.18 g/m*3 20.75 C 0.53333 km/h
1453 23-08-2016 13:00:00 23.325 C 14.6 g/m*3 23.33 C 3.75 km/h
1454 23-08-2016 14:00:00 25.775 C 12.9 g/m*3 25.78 C 8.075 km/h
1455 23-08-2016 15:00:00 27.01667 C 11.89 g/m*3 27.02 C 6.28333 km/h
1456 23-08-2016 16:00:00 28.84167 C 11.18 g/m*3 28.84 C 7.93333 km/h
1457 23-08-2016 17:00:00 30.18333 C 12.38 g/m*3 30.18 C 5.21667 km/h
1458 23-08-2016 18:00:00 28.41667 C 14.77 g/m*3 28.42 C 0 km/h
1459 23-08-2016 19:00:00 25.825 C 14.12 g/m*3 25.83 C 0 km/h
1460 23-08-2016 20:00:00 22.75 C 13.51 g/m*3 22.75 C 0.53333 km/h
1461 23-08-2016 21:00:00 20.86667 C 13.16 g/m*3 20.87 C 0 km/h
1462 23-08-2016 22:00:00 19.45833 C 12.63 g/m*3 19.46 C 0.13333 km/h
1463 23-08-2016 23:00:00 17.35 C 12.1 g/m*3 17.35 C 0 km/h
1464 24-08-2016 00:00:00 16.125 C 11.73 g/m*3 16.13 C 0 km/h
1465 24-08-2016 01:00:00 15.25 C 11.39 g/m*3 15.25 C 0 km/h
1466 24-08-2016 02:00:00 14.63333 C 11.17 g/m*3 14.63 C 0 km/h
1467 24-08-2016 03:00:00 13.94167 C 10.86 g/m*3 13.94 C 0 km/h
1468 24-08-2016 04:00:00 13.325 C 10.63 g/m*3 13.33 C 0 km/h
1469 24-08-2016 05:00:00 13.05 C 10.61 g/m*3 13.05 C 0 km/h
1470 24-08-2016 06:00:00 12.76667 C 10.46 g/m*3 12.77 C 0 km/h
1471 24-08-2016 07:00:00 12.76667 C 10.57 g/m*3 12.77 C 0 km/h
1472 24-08-2016 08:00:00 13.39167 C 11.06 g/m*3 13.39 C 0 km/h
1473 24-08-2016 09:00:00 14.56667 C 11.96 g/m*3 14.57 C 0 km/h
1474 24-08-2016 10:00:00 16.70833 C 13.44 g/m*3 16.71 C 0 km/h
1475 24-08-2016 11:00:00 20.33333 C 15.3 g/m*3 20.33 C 0.13333 km/h
Sensor: Nr:Datum:Temp:Abs-Feuchte:Windchill:Wind:
Aussen-T/F 1476 24-08-2016 12:00:00 24.14167 C 15.46 g/m*3 24.14 C 4.81667 km/h
1477 24-08-2016 13:00:00 26.06667 C 14.89 g/m*3 26.07 C 6.16667 km/h
1478 24-08-2016 14:00:00 27.81667 C 14.25 g/m*3 27.82 C 6.55833 km/h
1479 24-08-2016 15:00:00 29.04167 C 14.78 g/m*3 29.04 C 7.79167 km/h
1480 24-08-2016 16:00:00 30.88333 C 15.34 g/m*3 30.88 C 4.93333 km/h
1481 24-08-2016 17:00:00 32.875 C 15.94 g/m*3 32.88 C 4.675 km/h
1482 24-08-2016 18:00:00 31.16667 C 16.9 g/m*3 31.17 C 1.73333 km/h
1483 24-08-2016 19:00:00 27.79167 C 16.42 g/m*3 27.79 C 2 km/h
1484 24-08-2016 20:00:00 24.325 C 15.68 g/m*3 24.33 C 0.93333 km/h
1485 24-08-2016 21:00:00 22.09167 C 15.2 g/m*3 22.09 C 0 km/h
1486 24-08-2016 22:00:00 20.55 C 14.78 g/m*3 20.55 C 0 km/h
1487 24-08-2016 23:00:00 19.49167 C 14.3 g/m*3 19.49 C 0 km/h
1488 25-08-2016 00:00:00 18.44167 C 13.78 g/m*3 18.44 C 0 km/h
1489 25-08-2016 01:00:00 17.5 C 13.36 g/m*3 17.5 C 0 km/h
1490 25-08-2016 02:00:00 16.80833 C 12.96 g/m*3 16.81 C 0 km/h
1491 25-08-2016 03:00:00 16.20833 C 12.67 g/m*3 16.21 C 0 km/h
1492 25-08-2016 04:00:00 15.625 C 12.38 g/m*3 15.63 C 0 km/h
1493 25-08-2016 05:00:00 15.04167 C 12.03 g/m*3 15.04 C 0 km/h
1494 25-08-2016 06:00:00 14.65 C 11.82 g/m*3 14.65 C 0 km/h
1495 25-08-2016 07:00:00 14.75 C 12 g/m*3 14.75 C 0.13333 km/h
1496 25-08-2016 08:00:00 15.09167 C 12.28 g/m*3 15.09 C 0 km/h
1497 25-08-2016 09:00:00 16.225 C 13.26 g/m*3 16.23 C 0 km/h
1498 25-08-2016 10:00:00 18.25 C 14.68 g/m*3 18.25 C 0.26667 km/h
1499 25-08-2016 11:00:00 21.425 C 16.13 g/m*3 21.43 C 0 km/h
1500 25-08-2016 12:00:00 24.05833 C 16.54 g/m*3 24.06 C 2.675 km/h
Sensor: Nr:Datum:Temp:Abs-Feuchte:Windchill:Wind:
Aussen-T/F 1501 25-08-2016 13:00:00 26.5 C 14.48 g/m*3 26.5 C 8.59167 km/h
1502 25-08-2016 14:00:00 28.275 C 14.13 g/m*3 28.28 C 4.94167 km/h
1503 25-08-2016 15:00:00 29.86667 C 13.67 g/m*3 29.87 C 6.43333 km/h
1504 25-08-2016 16:00:00 31.46667 C 14.9 g/m*3 31.47 C 6.83333 km/h
1505 25-08-2016 17:00:00 33.08333 C 16.54 g/m*3 33.08 C 3.625 km/h
1506 25-08-2016 18:00:00 30.70833 C 16.65 g/m*3 30.71 C 1.46667 km/h
1507 25-08-2016 19:00:00 27.66667 C 15.58 g/m*3 27.67 C 1.6 km/h
1508 25-08-2016 20:00:00 24.19167 C 14.24 g/m*3 24.19 C 1.46667 km/h
1509 25-08-2016 21:00:00 22.81667 C 13.56 g/m*3 22.82 C 0.66667 km/h
1510 25-08-2016 22:00:00 20.675 C 13.75 g/m*3 20.68 C 0 km/h
1511 25-08-2016 23:00:00 19.05 C 13.36 g/m*3 19.05 C 0 km/h
1512 26-08-2016 00:00:00 17.90833 C 13.07 g/m*3 17.91 C 0 km/h
1513 26-08-2016 01:00:00 16.95 C 12.66 g/m*3 16.95 C 0 km/h
1514 26-08-2016 02:00:00 16.31667 C 12.45 g/m*3 16.32 C 0 km/h
1515 26-08-2016 03:00:00 16.03333 C 12.45 g/m*3 16.03 C 0 km/h
1516 26-08-2016 04:00:00 15.70833 C 12.3 g/m*3 15.71 C 0 km/h
1517 26-08-2016 05:00:00 15.325 C 12.16 g/m*3 15.33 C 0 km/h
1518 26-08-2016 06:00:00 15.10833 C 12.08 g/m*3 15.11 C 0 km/h
1519 26-08-2016 07:00:00 15.06667 C 12.1 g/m*3 15.07 C 0 km/h
1520 26-08-2016 08:00:00 15.65833 C 12.68 g/m*3 15.66 C 0 km/h
1521 26-08-2016 09:00:00 16.75833 C 13.45 g/m*3 16.76 C 0 km/h
1522 26-08-2016 10:00:00 18.725 C 14.64 g/m*3 18.73 C 0 km/h
1523 26-08-2016 11:00:00 22.025 C 16.59 g/m*3 22.03 C 0 km/h
1524 26-08-2016 12:00:00 24.90833 C 17.94 g/m*3 24.91 C 0 km/h
1525 26-08-2016 13:00:00 27.51667 C 17.94 g/m*3 27.52 C 0 km/h
Sensor: Nr:Datum:Temp:Abs-Feuchte:Windchill:Wind:
Aussen-T/F 1526 26-08-2016 14:00:00 29.76667 C 16.74 g/m*3 29.77 C 1.86667 km/h
1527 26-08-2016 15:00:00 31.575 C 15.79 g/m*3 31.58 C 5.08333 km/h
1528 26-08-2016 16:00:00 33.66667 C 15.73 g/m*3 33.67 C 5.35 km/h
1529 26-08-2016 17:00:00 34.125 C 17.75 g/m*3 34.13 C 2.13333 km/h
1530 26-08-2016 18:00:00 31.775 C 18.07 g/m*3 31.78 C 1.46667 km/h
1531 26-08-2016 19:00:00 29.075 C 17.5 g/m*3 29.08 C 1.46667 km/h
1532 26-08-2016 20:00:00 26.28333 C 16.32 g/m*3 26.28 C 0.93333 km/h
1533 26-08-2016 21:00:00 24.525 C 16.32 g/m*3 24.53 C 0.26667 km/h
1534 26-08-2016 22:00:00 23.51667 C 16.32 g/m*3 23.52 C 0.26667 km/h
1535 26-08-2016 23:00:00 22.575 C 16.37 g/m*3 22.58 C 0 km/h
1536 27-08-2016 00:00:00 21.54167 C 16.29 g/m*3 21.54 C 0 km/h
1537 27-08-2016 01:00:00 20.95 C 16.18 g/m*3 20.95 C 0 km/h
1538 27-08-2016 02:00:00 20.51667 C 16.1 g/m*3 20.52 C 0.13333 km/h
1539 27-08-2016 03:00:00 19.94167 C 15.79 g/m*3 19.94 C 0.13333 km/h
1540 27-08-2016 04:00:00 19.65 C 15.75 g/m*3 19.65 C 0 km/h
1541 27-08-2016 05:00:00 18.925 C 15.17 g/m*3 18.93 C 0 km/h
1542 27-08-2016 06:00:00 18.49167 C 14.93 g/m*3 18.49 C 0 km/h
1543 27-08-2016 07:00:00 18.275 C 14.81 g/m*3 18.27 C 0 km/h
1544 27-08-2016 08:00:00 18.8 C 15.39 g/m*3 18.8 C 0 km/h
1545 27-08-2016 09:00:00 19.875 C 16.47 g/m*3 19.88 C 0 km/h
1546 27-08-2016 10:00:00 21.025 C 17.35 g/m*3 21.03 C 0.13333 km/h
1547 27-08-2016 11:00:00 23.125 C 18.42 g/m*3 23.13 C 0.26667 km/h
1548 27-08-2016 12:00:00 25.4 C 19.46 g/m*3 25.4 C 0 km/h
1549 27-08-2016 13:00:00 27.59167 C 20.7 g/m*3 27.59 C 0.26667 km/h
1550 27-08-2016 14:00:00 30.05833 C 18.13 g/m*3 30.06 C 4.69167 km/h
Sensor: Nr:Datum:Temp:Abs-Feuchte:Windchill:Wind:
Aussen-T/F 1551 27-08-2016 15:00:00 31.275 C 16.94 g/m*3 31.28 C 2.4 km/h
1552 27-08-2016 16:00:00 32.64167 C 17.35 g/m*3 32.64 C 3.48333 km/h
1553 27-08-2016 17:00:00 34.55 C 18.28 g/m*3 34.55 C 2.26667 km/h
1554 27-08-2016 18:00:00 30.58333 C 17.68 g/m*3 30.58 C 1.46667 km/h
1555 27-08-2016 19:00:00 28.20833 C 16.71 g/m*3 28.21 C 1.33333 km/h
1556 27-08-2016 20:00:00 24.93333 C 16.02 g/m*3 24.93 C 1.46667 km/h
1557 27-08-2016 21:00:00 24.25833 C 15.55 g/m*3 24.26 C 1.06667 km/h
1558 27-08-2016 22:00:00 23 C 15.45 g/m*3 23 C 0 km/h
1559 27-08-2016 23:00:00 21.55 C 15.27 g/m*3 21.55 C 0 km/h
1560 28-08-2016 00:00:00 21.1 C 15.26 g/m*3 21.1 C 0.26667 km/h
1561 28-08-2016 01:00:00 20.51667 C 15.04 g/m*3 20.52 C 0 km/h
1562 28-08-2016 02:00:00 19.71667 C 14.69 g/m*3 19.72 C 0.13333 km/h
1563 28-08-2016 03:00:00 19.49167 C 14.65 g/m*3 19.49 C 0.26667 km/h
1564 28-08-2016 04:00:00 18.93333 C 14.24 g/m*3 18.93 C 0 km/h
1565 28-08-2016 05:00:00 18.84167 C 14.27 g/m*3 18.84 C 0.26667 km/h
1566 28-08-2016 06:00:00 18.25833 C 14.04 g/m*3 18.26 C 0 km/h
1567 28-08-2016 07:00:00 17.94167 C 13.95 g/m*3 17.94 C 0 km/h
1568 28-08-2016 08:00:00 18.175 C 14.3 g/m*3 18.18 C 0.13333 km/h
1569 28-08-2016 09:00:00 19.14167 C 15.12 g/m*3 19.14 C 0 km/h
1570 28-08-2016 10:00:00 21.1 C 16.46 g/m*3 21.1 C 0 km/h
1571 28-08-2016 11:00:00 24.48333 C 17.74 g/m*3 24.48 C 1.73333 km/h
1572 28-08-2016 12:00:00 27.45 C 17.04 g/m*3 27.45 C 9.125 km/h
1573 28-08-2016 13:00:00 29.94167 C 15.59 g/m*3 29.94 C 12.9 km/h
1574 28-08-2016 14:00:00 31.10833 C 14.99 g/m*3 31.11 C 15.7 km/h
1575 28-08-2016 15:00:00 31.55833 C 15.2 g/m*3 31.56 C 17.96667 km/h
Sensor: Nr:Datum:Temp:Abs-Feuchte:Windchill:Wind:
Aussen-T/F 1576 28-08-2016 16:00:00 29.51667 C 14.01 g/m*3 29.52 C 18.23333 km/h
1577 28-08-2016 17:00:00 28.34167 C 13.25 g/m*3 28.34 C 13.3 km/h
1578 28-08-2016 18:00:00 27.40833 C 12.55 g/m*3 27.41 C 14.63333 km/h
1579 28-08-2016 19:00:00 26.14167 C 14.56 g/m*3 26.14 C 7.65 km/h
1580 28-08-2016 20:00:00 24.50833 C 14.76 g/m*3 24.51 C 3.20833 km/h
1581 28-08-2016 21:00:00 23.5 C 14.49 g/m*3 23.5 C 4.68333 km/h
1582 28-08-2016 22:00:00 23.65833 C 13.73 g/m*3 23.66 C 6.975 km/h
1583 28-08-2016 23:00:00 22.40833 C 13.63 g/m*3 22.41 C 4.00833 km/h
1584 29-08-2016 00:00:00 19.95 C 13.27 g/m*3 19.95 C 0.53333 km/h
1585 29-08-2016 01:00:00 19.55833 C 12.98 g/m*3 19.56 C 0.8 km/h
1586 29-08-2016 02:00:00 18.575 C 12.58 g/m*3 18.58 C 0.13333 km/h
1587 29-08-2016 03:00:00 17.825 C 12.35 g/m*3 17.83 C 0.53333 km/h
1588 29-08-2016 04:00:00 17.31667 C 12.12 g/m*3 17.32 C 0 km/h
1589 29-08-2016 05:00:00 15.975 C 11.61 g/m*3 15.98 C 0 km/h
1590 29-08-2016 06:00:00 14.89167 C 11.2 g/m*3 14.89 C 0 km/h
1591 29-08-2016 07:00:00 15.575 C 11.91 g/m*3 15.58 C 3.2 km/h
1592 29-08-2016 08:00:00 16.81667 C 12.45 g/m*3 16.82 C 1.33333 km/h
1593 29-08-2016 09:00:00 18.90833 C 13.14 g/m*3 18.91 C 5.5 km/h
1594 29-08-2016 10:00:00 20.2 C 13.17 g/m*3 20.2 C 2.94167 km/h
1595 29-08-2016 11:00:00 20.9 C 13.01 g/m*3 20.9 C 3.33333 km/h
1596 29-08-2016 12:00:00 21.56667 C 13 g/m*3 21.57 C 4.675 km/h
1597 29-08-2016 13:00:00 22.01667 C 13.28 g/m*3 22.02 C 3.2 km/h
1598 29-08-2016 14:00:00 22.16667 C 13.39 g/m*3 22.17 C 3.475 km/h
1599 29-08-2016 15:00:00 22.54167 C 12.86 g/m*3 22.54 C 9.81667 km/h
1600 29-08-2016 16:00:00 22.25 C 13.04 g/m*3 22.25 C 13.83333 km/h
Sensor: Nr:Datum:Temp:Abs-Feuchte:Windchill:Wind:
Aussen-T/F 1601 29-08-2016 17:00:00 20.5 C 13.36 g/m*3 20.5 C 12.76667 km/h
1602 29-08-2016 18:00:00 19.69167 C 13.32 g/m*3 19.69 C 5.64167 km/h
1603 29-08-2016 19:00:00 18.76667 C 13.73 g/m*3 18.77 C 0 km/h
1604 29-08-2016 20:00:00 17.66667 C 13.19 g/m*3 17.67 C 0.13333 km/h
1605 29-08-2016 21:00:00 17.3 C 13.1 g/m*3 17.3 C 0.26667 km/h
1606 29-08-2016 22:00:00 17.6 C 13.2 g/m*3 17.6 C 0 km/h
1607 29-08-2016 23:00:00 17.2 C 12.86 g/m*3 17.2 C 0 km/h
1608 30-08-2016 00:00:00 16.50833 C 12.54 g/m*3 16.51 C 0 km/h
1609 30-08-2016 01:00:00 16.05833 C 12.36 g/m*3 16.06 C 0 km/h
1610 30-08-2016 02:00:00 15.43333 C 12.13 g/m*3 15.43 C 0 km/h
1611 30-08-2016 03:00:00 14.55 C 11.58 g/m*3 14.55 C 0 km/h
1612 30-08-2016 04:00:00 13.96667 C 11.29 g/m*3 13.97 C 0 km/h
1613 30-08-2016 05:00:00 13.59167 C 11.13 g/m*3 13.59 C 0.13333 km/h
1614 30-08-2016 06:00:00 13.9 C 11.43 g/m*3 13.9 C 0.26667 km/h
1615 30-08-2016 07:00:00 14.45 C 11.88 g/m*3 14.45 C 1.33333 km/h
1616 30-08-2016 08:00:00 14.76667 C 12.14 g/m*3 14.77 C 1.73333 km/h
1617 30-08-2016 09:00:00 15.425 C 12.53 g/m*3 15.43 C 2.13333 km/h
1618 30-08-2016 10:00:00 16.3 C 12.79 g/m*3 16.3 C 1.73333 km/h
1619 30-08-2016 11:00:00 17.325 C 13.18 g/m*3 17.33 C 0.26667 km/h
1620 30-08-2016 12:00:00 18.89167 C 12.72 g/m*3 18.89 C 5.64167 km/h
1621 30-08-2016 13:00:00 20.64167 C 11.9 g/m*3 20.64 C 6.71667 km/h
1622 30-08-2016 14:00:00 21.75833 C 11.09 g/m*3 21.76 C 7.10833 km/h
1623 30-08-2016 15:00:00 22.69167 C 10.4 g/m*3 22.69 C 8.73333 km/h
1624 30-08-2016 16:00:00 24.4 C 10.39 g/m*3 24.4 C 8.19167 km/h
1625 30-08-2016 17:00:00 25.80833 C 10.14 g/m*3 25.81 C 7.66667 km/h
Sensor: Nr:Datum:Temp:Abs-Feuchte:Windchill:Wind:
Aussen-T/F 1626 30-08-2016 18:00:00 26.1 C 9.96 g/m*3 26.1 C 6.44167 km/h
1627 30-08-2016 19:00:00 23.4 C 11.3 g/m*3 23.4 C 0.8 km/h
1628 30-08-2016 20:00:00 19.1 C 9.97 g/m*3 19.1 C 1.6 km/h
1629 30-08-2016 21:00:00 17.55833 C 9.71 g/m*3 17.56 C 1.2 km/h
1630 30-08-2016 22:00:00 16.70833 C 9.53 g/m*3 16.71 C 0.13333 km/h
1631 30-08-2016 23:00:00 15.48333 C 9.49 g/m*3 15.48 C 0 km/h
1632 31-08-2016 00:00:00 14.03333 C 9.43 g/m*3 14.03 C 0 km/h
1633 31-08-2016 01:00:00 13.1 C 9.3 g/m*3 13.1 C 0 km/h
1634 31-08-2016 02:00:00 12.25 C 9.14 g/m*3 12.25 C 0 km/h
1635 31-08-2016 03:00:00 11.54167 C 9 g/m*3 11.54 C 0 km/h
1636 31-08-2016 04:00:00 11.125 C 8.95 g/m*3 11.13 C 0 km/h
1637 31-08-2016 05:00:00 10.75833 C 8.87 g/m*3 10.76 C 0 km/h
1638 31-08-2016 06:00:00 10.41667 C 8.8 g/m*3 10.42 C 0 km/h
1639 31-08-2016 07:00:00 10.55833 C 8.96 g/m*3 10.56 C 0 km/h
1640 31-08-2016 08:00:00 11.525 C 9.6 g/m*3 11.53 C 0 km/h
1641 31-08-2016 09:00:00 13.55 C 10.74 g/m*3 13.55 C 0 km/h
1642 31-08-2016 10:00:00 15.825 C 11.64 g/m*3 15.83 C 0 km/h
1643 31-08-2016 11:00:00 18.10833 C 12.56 g/m*3 18.11 C 0 km/h
1644 31-08-2016 12:00:00 21.29167 C 12.93 g/m*3 21.29 C 1.33333 km/h
1645 31-08-2016 13:00:00 23.5 C 12.72 g/m*3 23.5 C 3.86667 km/h
1646 31-08-2016 14:00:00 24.375 C 14.02 g/m*3 24.38 C 1.73333 km/h
1647 31-08-2016 15:00:00 25.09167 C 14.62 g/m*3 25.09 C 1.60833 km/h
1648 31-08-2016 16:00:00 24.13333 C 15.45 g/m*3 24.13 C 0.4 km/h
1649 31-08-2016 17:00:00 26.025 C 15.07 g/m*3 26.03 C 1.73333 km/h
1650 31-08-2016 18:00:00 24.99167 C 14.4 g/m*3 24.99 C 1.73333 km/h
Sensor: Nr:Datum:Temp:Abs-Feuchte:Windchill:Wind:
Aussen-T/F 1651 31-08-2016 19:00:00 23.71667 C 13.68 g/m*3 23.72 C 3.20833 km/h
1652 31-08-2016 20:00:00 22.05 C 13.79 g/m*3 22.05 C 0.13333 km/h
1653 31-08-2016 21:00:00 20.76667 C 13.58 g/m*3 20.77 C 0 km/h
1654 31-08-2016 22:00:00 20.01667 C 13.35 g/m*3 20.02 C 0 km/h
1655 31-08-2016 23:00:00 19.53333 C 13.14 g/m*3 19.53 C 0 km/h
1656 01-09-2016 00:00:00 18.65 C 12.61 g/m*3 18.65 C 0 km/h
1657 01-09-2016 01:00:00 17.475 C 12.34 g/m*3 17.48 C 0 km/h
1658 01-09-2016 02:00:00 16.73333 C 12.35 g/m*3 16.73 C 0.53333 km/h
1659 01-09-2016 03:00:00 16.55833 C 12.29 g/m*3 16.56 C 0 km/h
1660 01-09-2016 04:00:00 16.04167 C 12.08 g/m*3 16.04 C 0.66667 km/h
1661 01-09-2016 05:00:00 15.53333 C 11.85 g/m*3 15.53 C 0.26667 km/h
1662 01-09-2016 06:00:00 14.675 C 11.35 g/m*3 14.68 C 0 km/h
1663 01-09-2016 07:00:00 14.00833 C 11.1 g/m*3 14.01 C 0 km/h
1664 01-09-2016 08:00:00 14.8 C 11.8 g/m*3 14.8 C 0 km/h
1665 01-09-2016 09:00:00 15.9 C 12.54 g/m*3 15.9 C 0 km/h
1666 01-09-2016 10:00:00 17.78333 C 13.07 g/m*3 17.78 C 1.2 km/h
1667 01-09-2016 11:00:00 19.65 C 13.09 g/m*3 19.65 C 1.86667 km/h
1668 01-09-2016 12:00:00 21.025 C 13.21 g/m*3 21.03 C 2.13333 km/h
1669 01-09-2016 13:00:00 22.25833 C 13.02 g/m*3 22.26 C 5.20833 km/h
1670 01-09-2016 14:00:00 23.825 C 13.09 g/m*3 23.83 C 6.7 km/h
1671 01-09-2016 15:00:00 24.9 C 12.82 g/m*3 24.9 C 8.875 km/h
1672 01-09-2016 16:00:00 25.775 C 12.74 g/m*3 25.78 C 8.325 km/h
1673 01-09-2016 17:00:00 25.84167 C 12.81 g/m*3 25.84 C 6.30833 km/h
1674 01-09-2016 18:00:00 25.375 C 12.4 g/m*3 25.38 C 6.44167 km/h
1675 01-09-2016 19:00:00 24.45833 C 12.54 g/m*3 24.46 C 5.625 km/h
Sensor: Nr:Datum:Temp:Abs-Feuchte:Windchill:Wind:
Aussen-T/F 1676 01-09-2016 20:00:00 22.28333 C 12.66 g/m*3 22.28 C 5.075 km/h
1677 01-09-2016 21:00:00 20.36667 C 13.04 g/m*3 20.37 C 1.73333 km/h
1678 01-09-2016 22:00:00 18.875 C 12.98 g/m*3 18.88 C 0 km/h
1679 01-09-2016 23:00:00 18.19167 C 12.86 g/m*3 18.19 C 0 km/h
1680 02-09-2016 00:00:00 17.31667 C 12.55 g/m*3 17.32 C 0 km/h
1681 02-09-2016 01:00:00 16.3 C 12.2 g/m*3 16.3 C 0 km/h
1682 02-09-2016 02:00:00 15.36667 C 11.84 g/m*3 15.37 C 0 km/h
1683 02-09-2016 03:00:00 14.775 C 11.63 g/m*3 14.78 C 0 km/h
1684 02-09-2016 04:00:00 14.23333 C 11.38 g/m*3 14.23 C 0.26667 km/h
1685 02-09-2016 05:00:00 13.71667 C 11.08 g/m*3 13.72 C 0 km/h
1686 02-09-2016 06:00:00 13.25833 C 10.83 g/m*3 13.26 C 0 km/h
1687 02-09-2016 07:00:00 13.23333 C 10.9 g/m*3 13.23 C 0.13333 km/h
1688 02-09-2016 08:00:00 13.73333 C 11.27 g/m*3 13.73 C 0 km/h
1689 02-09-2016 09:00:00 14.24167 C 11.65 g/m*3 14.24 C 0 km/h
1690 02-09-2016 10:00:00 15.675 C 12.75 g/m*3 15.68 C 0 km/h
1691 02-09-2016 11:00:00 18.28333 C 13.86 g/m*3 18.28 C 2.13333 km/h
1692 02-09-2016 12:00:00 21.475 C 13.67 g/m*3 21.48 C 4.68333 km/h
1693 02-09-2016 13:00:00 22.68333 C 13.12 g/m*3 22.68 C 4.95833 km/h
1694 02-09-2016 14:00:00 23.9 C 12.96 g/m*3 23.9 C 5.625 km/h
1695 02-09-2016 15:00:00 24.825 C 12.8 g/m*3 24.83 C 5.63333 km/h
1696 02-09-2016 16:00:00 26.15833 C 13.22 g/m*3 26.16 C 6.98333 km/h
1697 02-09-2016 17:00:00 26.375 C 13.86 g/m*3 26.38 C 2.01667 km/h
1698 02-09-2016 18:00:00 23.81667 C 13.94 g/m*3 23.82 C 0.53333 km/h
1699 02-09-2016 19:00:00 21.63333 C 12.78 g/m*3 21.63 C 1.33333 km/h
1700 02-09-2016 20:00:00 20.7 C 12.14 g/m*3 20.7 C 0.8 km/h
Sensor: Nr:Datum:Temp:Abs-Feuchte:Windchill:Wind:
Aussen-T/F 1701 02-09-2016 21:00:00 20.025 C 12.14 g/m*3 20.02 C 0.13333 km/h
1702 02-09-2016 22:00:00 19.94167 C 12.64 g/m*3 19.94 C 0 km/h
1703 02-09-2016 23:00:00 19.24167 C 12.99 g/m*3 19.24 C 0 km/h
1704 03-09-2016 00:00:00 18.35 C 12.9 g/m*3 18.35 C 0 km/h
1705 03-09-2016 01:00:00 17.83333 C 12.81 g/m*3 17.83 C 0.13333 km/h
1706 03-09-2016 02:00:00 17.46667 C 12.85 g/m*3 17.47 C 0 km/h
1707 03-09-2016 03:00:00 17.26667 C 12.61 g/m*3 17.27 C 0 km/h
1708 03-09-2016 04:00:00 16.46667 C 12.3 g/m*3 16.47 C 0.53333 km/h
1709 03-09-2016 05:00:00 15.75 C 11.96 g/m*3 15.75 C 0 km/h
1710 03-09-2016 06:00:00 14.70833 C 11.46 g/m*3 14.71 C 0 km/h
1711 03-09-2016 07:00:00 14.45 C 11.51 g/m*3 14.45 C 0 km/h
1712 03-09-2016 08:00:00 15.40833 C 12.19 g/m*3 15.41 C 0.4 km/h
1713 03-09-2016 09:00:00 16.55 C 12.69 g/m*3 16.55 C 0 km/h
1714 03-09-2016 10:00:00 18.025 C 13.49 g/m*3 18.02 C 0.13333 km/h
1715 03-09-2016 11:00:00 20.85833 C 14.57 g/m*3 20.86 C 0.4 km/h
1716 03-09-2016 12:00:00 22.98333 C 14.34 g/m*3 22.98 C 2.93333 km/h
1717 03-09-2016 13:00:00 24.36667 C 14.36 g/m*3 24.37 C 5.08333 km/h
1718 03-09-2016 14:00:00 26.03333 C 13.33 g/m*3 26.03 C 9.81667 km/h
1719 03-09-2016 15:00:00 26.90833 C 13.19 g/m*3 26.91 C 8.18333 km/h
1720 03-09-2016 16:00:00 27.91667 C 13.13 g/m*3 27.92 C 10.34167 km/h
1721 03-09-2016 17:00:00 29.45833 C 13.06 g/m*3 29.46 C 9.80833 km/h
1722 03-09-2016 18:00:00 28.65 C 13.81 g/m*3 28.65 C 5.225 km/h
1723 03-09-2016 19:00:00 25.96667 C 13.71 g/m*3 25.97 C 3.88333 km/h
1724 03-09-2016 20:00:00 22.45833 C 13.15 g/m*3 22.46 C 1.33333 km/h
1725 03-09-2016 21:00:00 21.11667 C 12.69 g/m*3 21.12 C 1.33333 km/h
Sensor: Nr:Datum:Temp:Abs-Feuchte:Windchill:Wind:
Aussen-T/F 1726 03-09-2016 22:00:00 19.51667 C 11.84 g/m*3 19.52 C 0.13333 km/h
1727 03-09-2016 23:00:00 18.75833 C 11.73 g/m*3 18.76 C 0.13333 km/h
1728 04-09-2016 00:00:00 18 C 11.58 g/m*3 18 C 0 km/h
1729 04-09-2016 01:00:00 16.80833 C 11.38 g/m*3 16.81 C 0 km/h
1730 04-09-2016 02:00:00 16.04167 C 11.26 g/m*3 16.04 C 0.66667 km/h
1731 04-09-2016 03:00:00 15.875 C 11.36 g/m*3 15.88 C 2.8 km/h
1732 04-09-2016 04:00:00 16.56667 C 11.62 g/m*3 16.57 C 2.28333 km/h
1733 04-09-2016 05:00:00 16.325 C 11.68 g/m*3 16.33 C 1.33333 km/h
1734 04-09-2016 06:00:00 16.65833 C 11.72 g/m*3 16.66 C 2.53333 km/h
1735 04-09-2016 07:00:00 16.93333 C 11.87 g/m*3 16.93 C 4.28333 km/h
1736 04-09-2016 08:00:00 16.94167 C 12.88 g/m*3 16.94 C 1.075 km/h
1737 04-09-2016 09:00:00 16.75 C 13.29 g/m*3 16.75 C 0.53333 km/h
1738 04-09-2016 10:00:00 16.95 C 13.63 g/m*3 16.95 C 4.43333 km/h
1739 04-09-2016 11:00:00 17.875 C 14.15 g/m*3 17.88 C 9.00833 km/h
1740 04-09-2016 12:00:00 19.85 C 14.76 g/m*3 19.85 C 14.5 km/h
1741 04-09-2016 13:00:00 19.89167 C 15.04 g/m*3 19.89 C 13.15 km/h
1742 04-09-2016 14:00:00 20.44167 C 15.5 g/m*3 20.44 C 13.16667 km/h
1743 04-09-2016 15:00:00 20.59167 C 15.03 g/m*3 20.59 C 14.1 km/h
1744 04-09-2016 16:00:00 21.40833 C 15.21 g/m*3 21.41 C 16.1 km/h
1745 04-09-2016 17:00:00 21.20833 C 13.74 g/m*3 21.21 C 15.425 km/h
1746 04-09-2016 18:00:00 20.69167 C 11.8 g/m*3 20.69 C 15.3 km/h
1747 04-09-2016 19:00:00 19.65 C 11.36 g/m*3 19.65 C 13.83333 km/h
1748 04-09-2016 20:00:00 18.95833 C 11.18 g/m*3 18.96 C 16.1 km/h
1749 04-09-2016 21:00:00 18.28333 C 11.43 g/m*3 18.28 C 14.23333 km/h
1750 04-09-2016 22:00:00 17.16667 C 11.79 g/m*3 17.17 C 12.09167 km/h
Sensor: Nr:Datum:Temp:Abs-Feuchte:Windchill:Wind:
Aussen-T/F 1751 04-09-2016 23:00:00 16.61667 C 11.78 g/m*3 16.62 C 4.41667 km/h
1752 05-09-2016 00:00:00 16.24167 C 11.76 g/m*3 16.24 C 4.7 km/h
1753 05-09-2016 01:00:00 16.04167 C 11.59 g/m*3 16.04 C 1.6 km/h
1754 05-09-2016 02:00:00 15.39167 C 11.48 g/m*3 15.39 C 2.55 km/h
1755 05-09-2016 03:00:00 15.89167 C 11.58 g/m*3 15.89 C 5.49167 km/h
1756 05-09-2016 04:00:00 15.45833 C 11.35 g/m*3 15.46 C 3.60833 km/h
1757 05-09-2016 05:00:00 15.04167 C 11.43 g/m*3 15.04 C 3.60833 km/h
1758 05-09-2016 06:00:00 15.3 C 11.52 g/m*3 15.3 C 4.14167 km/h
1759 05-09-2016 07:00:00 15.65 C 11.71 g/m*3 15.65 C 3.875 km/h
1760 05-09-2016 08:00:00 16 C 11.94 g/m*3 16 C 4.28333 km/h
1761 05-09-2016 09:00:00 16.58333 C 12.38 g/m*3 16.58 C 0.8 km/h
1762 05-09-2016 10:00:00 16.86667 C 12.68 g/m*3 16.87 C 4.15 km/h
1763 05-09-2016 11:00:00 18.36667 C 12.73 g/m*3 18.37 C 6.175 km/h
1764 05-09-2016 12:00:00 19.30833 C 12.34 g/m*3 19.31 C 8.45 km/h
1765 05-09-2016 13:00:00 20.13333 C 11.84 g/m*3 20.13 C 10.9 km/h
1766 05-09-2016 14:00:00 20.675 C 11.83 g/m*3 20.68 C 10.76667 km/h
1767 05-09-2016 15:00:00 21.08333 C 11.86 g/m*3 21.08 C 11.03333 km/h
1768 05-09-2016 16:00:00 22.04167 C 11.98 g/m*3 22.04 C 8.725 km/h
1769 05-09-2016 17:00:00 22.68333 C 11.61 g/m*3 22.68 C 7.10833 km/h
1770 05-09-2016 18:00:00 22.93333 C 12.17 g/m*3 22.93 C 5.23333 km/h
1771 05-09-2016 19:00:00 20.375 C 12.87 g/m*3 20.38 C 0 km/h
1772 05-09-2016 20:00:00 18.1 C 12.08 g/m*3 18.1 C 0 km/h
1773 05-09-2016 21:00:00 16.4 C 11.77 g/m*3 16.4 C 0 km/h
1774 05-09-2016 22:00:00 15.04167 C 11.29 g/m*3 15.04 C 0 km/h
1775 05-09-2016 23:00:00 14.08333 C 10.94 g/m*3 14.08 C 0 km/h
Sensor: Nr:Datum:Temp:Abs-Feuchte:Windchill:Wind:
Aussen-T/F 1776 06-09-2016 00:00:00 13.41667 C 10.69 g/m*3 13.42 C 0 km/h
1777 06-09-2016 01:00:00 12.84167 C 10.43 g/m*3 12.84 C 0.13333 km/h
1778 06-09-2016 02:00:00 12.51667 C 10.29 g/m*3 12.52 C 0.26667 km/h
1779 06-09-2016 03:00:00 11.925 C 9.97 g/m*3 11.93 C 0 km/h
1780 06-09-2016 04:00:00 11.44167 C 9.7 g/m*3 11.44 C 0 km/h
1781 06-09-2016 05:00:00 11.025 C 9.51 g/m*3 11.03 C 0 km/h
1782 06-09-2016 06:00:00 10.65833 C 9.31 g/m*3 10.66 C 0 km/h
1783 06-09-2016 07:00:00 10.475 C 9.2 g/m*3 10.48 C 0.13333 km/h
1784 06-09-2016 08:00:00 11.03333 C 9.62 g/m*3 11.03 C 1.2 km/h
1785 06-09-2016 09:00:00 11.69167 C 10.04 g/m*3 11.69 C 0 km/h
1786 06-09-2016 10:00:00 12.925 C 10.84 g/m*3 12.93 C 0.26667 km/h
1787 06-09-2016 11:00:00 15.11667 C 12.29 g/m*3 15.12 C 0.66667 km/h
1788 06-09-2016 12:00:00 18.03333 C 13.48 g/m*3 18.03 C 0.93333 km/h
1789 06-09-2016 13:00:00 21.63333 C 13.16 g/m*3 21.63 C 5.48333 km/h
1790 06-09-2016 14:00:00 22.075 C 13.32 g/m*3 22.08 C 2.55 km/h
1791 06-09-2016 15:00:00 24.15 C 12.34 g/m*3 24.15 C 9.55833 km/h
1792 06-09-2016 16:00:00 25.225 C 12.36 g/m*3 25.23 C 5.90833 km/h
1793 06-09-2016 17:00:00 26.74167 C 12.81 g/m*3 26.74 C 5.225 km/h
1794 06-09-2016 18:00:00 25.45 C 13.97 g/m*3 25.45 C 1.2 km/h
1795 06-09-2016 19:00:00 22.19167 C 13.25 g/m*3 22.19 C 0.53333 km/h
1796 06-09-2016 20:00:00 19.46667 C 12.37 g/m*3 19.47 C 0.4 km/h
1797 06-09-2016 21:00:00 17.69167 C 11.98 g/m*3 17.69 C 0 km/h
1798 06-09-2016 22:00:00 16.2 C 11.57 g/m*3 16.2 C 0 km/h
1799 06-09-2016 23:00:00 15.16667 C 11.29 g/m*3 15.17 C 0 km/h
1800 07-09-2016 00:00:00 14.30833 C 10.9 g/m*3 14.31 C 0 km/h
Sensor: Nr:Datum:Temp:Abs-Feuchte:Windchill:Wind:
Aussen-T/F 1801 07-09-2016 01:00:00 13.35 C 10.51 g/m*3 13.35 C 0 km/h
1802 07-09-2016 02:00:00 12.68333 C 10.27 g/m*3 12.68 C 0 km/h
1803 07-09-2016 03:00:00 12.21667 C 10.07 g/m*3 12.22 C 0 km/h
1804 07-09-2016 04:00:00 11.675 C 9.81 g/m*3 11.68 C 0 km/h
1805 07-09-2016 05:00:00 11.25 C 9.59 g/m*3 11.25 C 0 km/h
1806 07-09-2016 06:00:00 10.825 C 9.4 g/m*3 10.83 C 0 km/h
1807 07-09-2016 07:00:00 10.68333 C 9.32 g/m*3 10.68 C 0 km/h
1808 07-09-2016 08:00:00 10.95 C 9.55 g/m*3 10.95 C 0 km/h
1809 07-09-2016 09:00:00 11.95 C 10.21 g/m*3 11.95 C 0 km/h
1810 07-09-2016 10:00:00 13.78333 C 11.47 g/m*3 13.78 C 0.26667 km/h
1811 07-09-2016 11:00:00 16.225 C 12.76 g/m*3 16.23 C 0.93333 km/h
1812 07-09-2016 12:00:00 19.05833 C 12.95 g/m*3 19.06 C 1.6 km/h
1813 07-09-2016 13:00:00 22.09167 C 12.29 g/m*3 22.09 C 6.175 km/h
1814 07-09-2016 14:00:00 23.64167 C 12.45 g/m*3 23.64 C 4.80833 km/h
1815 07-09-2016 15:00:00 24.99167 C 12.62 g/m*3 24.99 C 9.55 km/h
1816 07-09-2016 16:00:00 26.225 C 12.7 g/m*3 26.23 C 9 km/h
1817 07-09-2016 17:00:00 27.56667 C 13.3 g/m*3 27.57 C 5.225 km/h
1818 07-09-2016 18:00:00 26.1 C 14.22 g/m*3 26.1 C 2.13333 km/h
1819 07-09-2016 19:00:00 23.46667 C 14.07 g/m*3 23.47 C 1.06667 km/h
1820 07-09-2016 20:00:00 20.825 C 13.18 g/m*3 20.83 C 0.13333 km/h
1821 07-09-2016 21:00:00 19.28333 C 12.97 g/m*3 19.28 C 0 km/h
1822 07-09-2016 22:00:00 17.60833 C 12.68 g/m*3 17.61 C 0 km/h
1823 07-09-2016 23:00:00 16.79167 C 12.44 g/m*3 16.79 C 0 km/h
1824 08-09-2016 00:00:00 15.85 C 12.05 g/m*3 15.85 C 0 km/h
1825 08-09-2016 01:00:00 15.125 C 11.79 g/m*3 15.13 C 0 km/h
Sensor: Nr:Datum:Temp:Abs-Feuchte:Windchill:Wind:
Aussen-T/F 1826 08-09-2016 02:00:00 14.625 C 11.6 g/m*3 14.63 C 0 km/h
1827 08-09-2016 03:00:00 14.14167 C 11.36 g/m*3 14.14 C 0 km/h
1828 08-09-2016 04:00:00 13.8 C 11.2 g/m*3 13.8 C 0.4 km/h
1829 08-09-2016 05:00:00 13.59167 C 11.12 g/m*3 13.59 C 1.06667 km/h
1830 08-09-2016 06:00:00 13.15 C 10.79 g/m*3 13.15 C 0 km/h
1831 08-09-2016 07:00:00 12.84167 C 10.66 g/m*3 12.84 C 0.26667 km/h
1832 08-09-2016 08:00:00 13.24167 C 10.98 g/m*3 13.24 C 0 km/h
1833 08-09-2016 09:00:00 14.225 C 11.74 g/m*3 14.23 C 0 km/h
1834 08-09-2016 10:00:00 15.85833 C 12.97 g/m*3 15.86 C 0 km/h
1835 08-09-2016 11:00:00 18.33333 C 14.41 g/m*3 18.33 C 0.13333 km/h
1836 08-09-2016 12:00:00 21.40833 C 14.79 g/m*3 21.41 C 3.88333 km/h
1837 08-09-2016 13:00:00 24.3 C 14.31 g/m*3 24.3 C 9.675 km/h
1838 08-09-2016 14:00:00 26.025 C 14.28 g/m*3 26.03 C 9.025 km/h
1839 08-09-2016 15:00:00 26.76667 C 14.35 g/m*3 26.77 C 9.54167 km/h
1840 08-09-2016 16:00:00 27.93333 C 14.27 g/m*3 27.93 C 11.55833 km/h
1841 08-09-2016 17:00:00 29.39167 C 15.18 g/m*3 29.39 C 4.55833 km/h
1842 08-09-2016 18:00:00 27.175 C 15.55 g/m*3 27.18 C 1.34167 km/h
1843 08-09-2016 19:00:00 24.975 C 15.04 g/m*3 24.98 C 0.53333 km/h
1844 08-09-2016 20:00:00 23.05833 C 14.42 g/m*3 23.06 C 1.2 km/h
1845 08-09-2016 21:00:00 21.775 C 14.02 g/m*3 21.78 C 0 km/h
1846 08-09-2016 22:00:00 20.20833 C 13.59 g/m*3 20.21 C 0 km/h
1847 08-09-2016 23:00:00 18.93333 C 13.24 g/m*3 18.93 C 0 km/h
1848 09-09-2016 00:00:00 18.95 C 13.47 g/m*3 18.95 C 0.93333 km/h
1849 09-09-2016 01:00:00 19.45833 C 13.76 g/m*3 19.46 C 2.94167 km/h
1850 09-09-2016 02:00:00 19.79167 C 13.13 g/m*3 19.79 C 5.23333 km/h
Sensor: Nr:Datum:Temp:Abs-Feuchte:Windchill:Wind:
Aussen-T/F 1851 09-09-2016 03:00:00 19.63333 C 12.21 g/m*3 19.63 C 5.75833 km/h
1852 09-09-2016 04:00:00 19.05833 C 11.57 g/m*3 19.06 C 5.48333 km/h
1853 09-09-2016 05:00:00 18.35833 C 11.44 g/m*3 18.36 C 1.73333 km/h
1854 09-09-2016 06:00:00 17.83333 C 11.29 g/m*3 17.83 C 1.73333 km/h
1855 09-09-2016 07:00:00 16.9 C 11.17 g/m*3 16.9 C 1.33333 km/h
1856 09-09-2016 08:00:00 16.20833 C 11.52 g/m*3 16.21 C 0.53333 km/h
1857 09-09-2016 09:00:00 17.425 C 11.47 g/m*3 17.43 C 3.46667 km/h
1858 09-09-2016 10:00:00 18.05 C 11.57 g/m*3 18.05 C 4.00833 km/h
1859 09-09-2016 11:00:00 18.625 C 12.03 g/m*3 18.63 C 2.26667 km/h
1860 09-09-2016 12:00:00 19.85 C 12.52 g/m*3 19.85 C 3.06667 km/h
1861 09-09-2016 13:00:00 21.25 C 12.62 g/m*3 21.25 C 4.275 km/h
1862 09-09-2016 14:00:00 22.94167 C 11.83 g/m*3 22.94 C 5.075 km/h
1863 09-09-2016 15:00:00 24.14167 C 11.2 g/m*3 24.14 C 5.75833 km/h
1864 09-09-2016 16:00:00 25.4 C 10.63 g/m*3 25.4 C 9.15 km/h
1865 09-09-2016 17:00:00 27.225 C 11.49 g/m*3 27.23 C 5.35 km/h
1866 09-09-2016 18:00:00 25.15833 C 13.37 g/m*3 25.16 C 0.53333 km/h
1867 09-09-2016 19:00:00 22.49167 C 13.14 g/m*3 22.49 C 0 km/h
1868 09-09-2016 20:00:00 20.15833 C 12.04 g/m*3 20.16 C 0.8 km/h
1869 09-09-2016 21:00:00 19 C 12.55 g/m*3 19 C 0 km/h
1870 09-09-2016 22:00:00 18.08333 C 12.35 g/m*3 18.08 C 0 km/h
1871 09-09-2016 23:00:00 16.94167 C 12.04 g/m*3 16.94 C 0 km/h
1872 10-09-2016 00:00:00 16 C 11.73 g/m*3 16 C 0 km/h
1873 10-09-2016 01:00:00 15.35 C 11.46 g/m*3 15.35 C 0 km/h
1874 10-09-2016 02:00:00 14.925 C 11.38 g/m*3 14.93 C 0 km/h
1875 10-09-2016 03:00:00 14.5 C 11.2 g/m*3 14.5 C 0.13333 km/h
Sensor: Nr:Datum:Temp:Abs-Feuchte:Windchill:Wind:
Aussen-T/F 1876 10-09-2016 04:00:00 14.05833 C 11.03 g/m*3 14.06 C 0 km/h
1877 10-09-2016 05:00:00 13.68333 C 10.88 g/m*3 13.68 C 0 km/h
1878 10-09-2016 06:00:00 13.36667 C 10.75 g/m*3 13.37 C 0 km/h
1879 10-09-2016 07:00:00 13.3 C 10.79 g/m*3 13.3 C 0 km/h
1880 10-09-2016 08:00:00 13.875 C 11.25 g/m*3 13.88 C 0 km/h
1881 10-09-2016 09:00:00 14.76667 C 11.87 g/m*3 14.77 C 0 km/h
1882 10-09-2016 10:00:00 16.06667 C 12.6 g/m*3 16.07 C 0 km/h
1883 10-09-2016 11:00:00 18.26667 C 13.75 g/m*3 18.27 C 0 km/h
1884 10-09-2016 12:00:00 21.11667 C 15.05 g/m*3 21.12 C 0 km/h
1885 10-09-2016 13:00:00 23.7 C 15.76 g/m*3 23.7 C 0.8 km/h
1886 10-09-2016 14:00:00 24.24167 C 16.45 g/m*3 24.24 C 0.93333 km/h
1887 10-09-2016 15:00:00 26.33333 C 16.04 g/m*3 26.33 C 2.66667 km/h
1888 10-09-2016 16:00:00 25.63333 C 17.01 g/m*3 25.63 C 0.53333 km/h
1889 10-09-2016 17:00:00 28.16667 C 16.6 g/m*3 28.17 C 2.66667 km/h
1890 10-09-2016 18:00:00 26.68333 C 16.12 g/m*3 26.68 C 1.2 km/h
1891 10-09-2016 19:00:00 24.58333 C 15.42 g/m*3 24.58 C 1.2 km/h
1892 10-09-2016 20:00:00 22.54167 C 14.27 g/m*3 22.54 C 0 km/h
1893 10-09-2016 21:00:00 21.30833 C 13.66 g/m*3 21.31 C 0 km/h
1894 10-09-2016 22:00:00 20.34167 C 12.96 g/m*3 20.34 C 0 km/h
1895 10-09-2016 23:00:00 18.45833 C 12.47 g/m*3 18.46 C 0 km/h
1896 11-09-2016 00:00:00 17.35 C 12.18 g/m*3 17.35 C 0 km/h
1897 11-09-2016 01:00:00 16.21667 C 11.85 g/m*3 16.22 C 0 km/h
1898 11-09-2016 02:00:00 15.3 C 11.47 g/m*3 15.3 C 0 km/h
1899 11-09-2016 03:00:00 14.70833 C 11.37 g/m*3 14.71 C 0 km/h
1900 11-09-2016 04:00:00 14.01667 C 11.01 g/m*3 14.02 C 0 km/h
Sensor: Nr:Datum:Temp:Abs-Feuchte:Windchill:Wind:
Aussen-T/F 1901 11-09-2016 05:00:00 13.5 C 10.74 g/m*3 13.5 C 0 km/h
1902 11-09-2016 06:00:00 12.9 C 10.43 g/m*3 12.9 C 0 km/h
1903 11-09-2016 07:00:00 13.06667 C 10.67 g/m*3 13.07 C 0.26667 km/h
1904 11-09-2016 08:00:00 13.975 C 11.32 g/m*3 13.98 C 0 km/h
1905 11-09-2016 09:00:00 15.76667 C 12.3 g/m*3 15.77 C 0 km/h
1906 11-09-2016 10:00:00 18.08333 C 13.17 g/m*3 18.08 C 0 km/h
1907 11-09-2016 11:00:00 19.8 C 13.79 g/m*3 19.8 C 1.2 km/h
1908 11-09-2016 12:00:00 21.88333 C 13.49 g/m*3 21.88 C 2.26667 km/h
1909 11-09-2016 13:00:00 23.675 C 13.22 g/m*3 23.68 C 3.06667 km/h
1910 11-09-2016 14:00:00 24.775 C 12.65 g/m*3 24.78 C 4.53333 km/h
1911 11-09-2016 15:00:00 25.83333 C 11.8 g/m*3 25.83 C 8.59167 km/h
1912 11-09-2016 16:00:00 26.575 C 11.44 g/m*3 26.58 C 9.26667 km/h
1913 11-09-2016 17:00:00 27.83333 C 13.18 g/m*3 27.83 C 2.80833 km/h
1914 11-09-2016 18:00:00 24.55833 C 13.51 g/m*3 24.56 C 0.4 km/h
1915 11-09-2016 19:00:00 22.29167 C 12.94 g/m*3 22.29 C 0.66667 km/h
1916 11-09-2016 20:00:00 19.96667 C 12.25 g/m*3 19.97 C 0 km/h
1917 11-09-2016 21:00:00 18.075 C 11.87 g/m*3 18.08 C 0 km/h
1918 11-09-2016 22:00:00 16.93333 C 11.58 g/m*3 16.93 C 0 km/h
1919 11-09-2016 23:00:00 15.75833 C 11.33 g/m*3 15.76 C 0 km/h
1920 12-09-2016 00:00:00 14.94167 C 11.19 g/m*3 14.94 C 0 km/h
1921 12-09-2016 01:00:00 14.53333 C 11.07 g/m*3 14.53 C 0 km/h
1922 12-09-2016 02:00:00 14.1 C 10.98 g/m*3 14.1 C 0 km/h
1923 12-09-2016 03:00:00 13.8 C 10.94 g/m*3 13.8 C 0 km/h
1924 12-09-2016 04:00:00 13.725 C 10.98 g/m*3 13.73 C 0 km/h
1925 12-09-2016 05:00:00 13.325 C 10.75 g/m*3 13.33 C 0 km/h
Sensor: Nr:Datum:Temp:Abs-Feuchte:Windchill:Wind:
Aussen-T/F 1926 12-09-2016 06:00:00 12.96667 C 10.6 g/m*3 12.97 C 0 km/h
1927 12-09-2016 07:00:00 12.88333 C 10.59 g/m*3 12.88 C 0 km/h
1928 12-09-2016 08:00:00 13.35833 C 11.02 g/m*3 13.36 C 0 km/h
1929 12-09-2016 09:00:00 14.25833 C 11.64 g/m*3 14.26 C 0 km/h
1930 12-09-2016 10:00:00 15.66667 C 12.64 g/m*3 15.67 C 0 km/h
1931 12-09-2016 11:00:00 18.175 C 13.67 g/m*3 18.18 C 0 km/h
1932 12-09-2016 12:00:00 21.00833 C 15.04 g/m*3 21.01 C 0 km/h
1933 12-09-2016 13:00:00 23.46667 C 16.39 g/m*3 23.47 C 0.4 km/h
1934 12-09-2016 14:00:00 27.05 C 15.66 g/m*3 27.05 C 7.24167 km/h
1935 12-09-2016 15:00:00 29.43333 C 14.07 g/m*3 29.43 C 10.08333 km/h
1936 12-09-2016 16:00:00 30.275 C 13.62 g/m*3 30.28 C 7.25 km/h
1937 12-09-2016 17:00:00 30.5 C 15.29 g/m*3 30.5 C 3.225 km/h
1938 12-09-2016 18:00:00 27.54167 C 15.05 g/m*3 27.54 C 1.6 km/h
1939 12-09-2016 19:00:00 25.11667 C 14.77 g/m*3 25.12 C 0.26667 km/h
1940 12-09-2016 20:00:00 22.73333 C 14.37 g/m*3 22.73 C 0 km/h
1941 12-09-2016 21:00:00 21.84167 C 14.41 g/m*3 21.84 C 0 km/h
1942 12-09-2016 22:00:00 20.4 C 14.17 g/m*3 20.4 C 0 km/h
1943 12-09-2016 23:00:00 18.925 C 13.79 g/m*3 18.93 C 0 km/h
1944 13-09-2016 00:00:00 18.14167 C 13.57 g/m*3 18.14 C 0 km/h
1945 13-09-2016 01:00:00 17.65833 C 13.37 g/m*3 17.66 C 0 km/h
1946 13-09-2016 02:00:00 17.15833 C 13.18 g/m*3 17.16 C 0 km/h
1947 13-09-2016 03:00:00 16.56667 C 12.94 g/m*3 16.57 C 0 km/h
1948 13-09-2016 04:00:00 16.11667 C 12.7 g/m*3 16.12 C 0 km/h
1949 13-09-2016 05:00:00 15.73333 C 12.54 g/m*3 15.73 C 0 km/h
1950 13-09-2016 06:00:00 15.34167 C 12.31 g/m*3 15.34 C 0 km/h
Sensor: Nr:Datum:Temp:Abs-Feuchte:Windchill:Wind:
Aussen-T/F 1951 13-09-2016 07:00:00 15.15833 C 12.23 g/m*3 15.16 C 0 km/h
1952 13-09-2016 08:00:00 15.475 C 12.55 g/m*3 15.48 C 0 km/h
1953 13-09-2016 09:00:00 16.34167 C 13.35 g/m*3 16.34 C 0 km/h
1954 13-09-2016 10:00:00 17.64167 C 14.4 g/m*3 17.64 C 0 km/h
1955 13-09-2016 11:00:00 19.86667 C 15.75 g/m*3 19.87 C 0 km/h
1956 13-09-2016 12:00:00 23.48333 C 17.06 g/m*3 23.48 C 1.06667 km/h
1957 13-09-2016 13:00:00 26.975 C 15.87 g/m*3 26.98 C 5.9 km/h
1958 13-09-2016 14:00:00 29.04167 C 14.2 g/m*3 29.04 C 5.89167 km/h
1959 13-09-2016 15:00:00 29.35833 C 14.3 g/m*3 29.36 C 5.225 km/h
1960 13-09-2016 16:00:00 29.49167 C 15.17 g/m*3 29.49 C 2.53333 km/h
1961 13-09-2016 17:00:00 30.85833 C 15.67 g/m*3 30.86 C 3.89167 km/h
1962 13-09-2016 18:00:00 29.08333 C 15.48 g/m*3 29.08 C 1.73333 km/h
1963 13-09-2016 19:00:00 25.91667 C 14.92 g/m*3 25.92 C 1.86667 km/h
1964 13-09-2016 20:00:00 23.475 C 13.85 g/m*3 23.48 C 0.4 km/h
1965 13-09-2016 21:00:00 21.43333 C 13.79 g/m*3 21.43 C 0 km/h
1966 13-09-2016 22:00:00 19.88333 C 13.32 g/m*3 19.88 C 0 km/h
1967 13-09-2016 23:00:00 18.825 C 13.05 g/m*3 18.83 C 0 km/h
1968 14-09-2016 00:00:00 18.01667 C 12.8 g/m*3 18.02 C 0 km/h
1969 14-09-2016 01:00:00 17.31667 C 12.71 g/m*3 17.32 C 0 km/h
1970 14-09-2016 02:00:00 16.775 C 12.69 g/m*3 16.77 C 0 km/h
1971 14-09-2016 03:00:00 16.04167 C 12.35 g/m*3 16.04 C 0 km/h
1972 14-09-2016 04:00:00 15.75 C 12.32 g/m*3 15.75 C 0 km/h
1973 14-09-2016 05:00:00 15.25833 C 12.05 g/m*3 15.26 C 0 km/h
1974 14-09-2016 06:00:00 14.83333 C 11.83 g/m*3 14.83 C 0 km/h
1975 14-09-2016 07:00:00 14.5 C 11.7 g/m*3 14.5 C 0 km/h
Sensor: Nr:Datum:Temp:Abs-Feuchte:Windchill:Wind:
Aussen-T/F 1976 14-09-2016 08:00:00 15.03333 C 12.21 g/m*3 15.03 C 0 km/h
1977 14-09-2016 09:00:00 15.79167 C 12.78 g/m*3 15.79 C 0 km/h
1978 14-09-2016 10:00:00 17.65 C 13.96 g/m*3 17.65 C 0 km/h
1979 14-09-2016 11:00:00 20.60833 C 15.21 g/m*3 20.61 C 0.4 km/h
1980 14-09-2016 12:00:00 24.00833 C 15.18 g/m*3 24.01 C 2.13333 km/h
1981 14-09-2016 13:00:00 26.05 C 14.65 g/m*3 26.05 C 4.025 km/h
1982 14-09-2016 14:00:00 28.18333 C 12.73 g/m*3 28.18 C 5.48333 km/h
1983 14-09-2016 15:00:00 28.75833 C 13.06 g/m*3 28.76 C 4.95833 km/h
1984 14-09-2016 16:00:00 29.875 C 12.2 g/m*3 29.88 C 7.25833 km/h
1985 14-09-2016 17:00:00 30.68333 C 13.32 g/m*3 30.68 C 6.30833 km/h
1986 14-09-2016 18:00:00 28.05 C 14.2 g/m*3 28.05 C 2 km/h
1987 14-09-2016 19:00:00 25.09167 C 13.19 g/m*3 25.09 C 2.13333 km/h
1988 14-09-2016 20:00:00 23.48333 C 12.91 g/m*3 23.48 C 2.13333 km/h
1989 14-09-2016 21:00:00 21.88333 C 13.09 g/m*3 21.88 C 0 km/h
1990 14-09-2016 22:00:00 19.64167 C 12.82 g/m*3 19.64 C 0 km/h
1991 14-09-2016 23:00:00 18.63333 C 12.52 g/m*3 18.63 C 0 km/h
1992 15-09-2016 00:00:00 17.8 C 12.29 g/m*3 17.8 C 0 km/h
1993 15-09-2016 01:00:00 17.18333 C 12.07 g/m*3 17.18 C 0 km/h
1994 15-09-2016 02:00:00 16.65833 C 12.01 g/m*3 16.66 C 0 km/h
1995 15-09-2016 03:00:00 16.325 C 11.91 g/m*3 16.33 C 0 km/h
1996 15-09-2016 04:00:00 15.95 C 11.76 g/m*3 15.95 C 0 km/h
1997 15-09-2016 05:00:00 15.34167 C 11.59 g/m*3 15.34 C 0 km/h
1998 15-09-2016 06:00:00 14.625 C 11.2 g/m*3 14.63 C 0 km/h
1999 15-09-2016 07:00:00 14.025 C 11.04 g/m*3 14.03 C 0 km/h
2000 15-09-2016 08:00:00 14.15 C 11.31 g/m*3 14.15 C 0 km/h
Sensor: Nr:Datum:Temp:Abs-Feuchte:Windchill:Wind:
Aussen-T/F 2001 15-09-2016 09:00:00 15.025 C 12.03 g/m*3 15.03 C 0 km/h
2002 15-09-2016 10:00:00 17.46667 C 13.4 g/m*3 17.47 C 1.6 km/h
2003 15-09-2016 11:00:00 21.38333 C 13.88 g/m*3 21.38 C 5.63333 km/h
2004 15-09-2016 12:00:00 24.04167 C 13.94 g/m*3 24.04 C 5.625 km/h
2005 15-09-2016 13:00:00 25.70833 C 14.21 g/m*3 25.71 C 8.18333 km/h
2006 15-09-2016 14:00:00 26.625 C 14.2 g/m*3 26.63 C 7.25 km/h
2007 15-09-2016 15:00:00 26.76667 C 15.07 g/m*3 26.77 C 2.94167 km/h
2008 15-09-2016 16:00:00 27.1 C 14.86 g/m*3 27.1 C 3.20833 km/h
2009 15-09-2016 17:00:00 26.88333 C 14.92 g/m*3 26.88 C 7.51667 km/h
2010 15-09-2016 18:00:00 24.64167 C 14.31 g/m*3 24.64 C 9.81667 km/h
2011 15-09-2016 19:00:00 23.24167 C 14 g/m*3 23.24 C 8.725 km/h
2012 15-09-2016 20:00:00 21.175 C 13.71 g/m*3 21.18 C 13.03333 km/h
2013 15-09-2016 21:00:00 19.9 C 13.29 g/m*3 19.9 C 10.75 km/h
2014 15-09-2016 22:00:00 19.43333 C 13.04 g/m*3 19.43 C 8.875 km/h
2015 15-09-2016 23:00:00 19.23333 C 12.64 g/m*3 19.23 C 6.025 km/h
2016 16-09-2016 00:00:00 18.475 C 13.09 g/m*3 18.48 C 4.29167 km/h
2017 16-09-2016 01:00:00 16.69167 C 12.87 g/m*3 16.69 C 1.2 km/h
2018 16-09-2016 02:00:00 16.15833 C 12.82 g/m*3 16.16 C 0.13333 km/h
2019 16-09-2016 03:00:00 16.04167 C 12.89 g/m*3 16.04 C 0.13333 km/h
2020 16-09-2016 04:00:00 15.66667 C 12.6 g/m*3 15.67 C 0.13333 km/h
2021 16-09-2016 05:00:00 14.975 C 12.14 g/m*3 14.98 C 0 km/h
2022 16-09-2016 06:00:00 14.66667 C 11.94 g/m*3 14.67 C 0 km/h
2023 16-09-2016 07:00:00 14.54167 C 11.91 g/m*3 14.54 C 0 km/h
2024 16-09-2016 08:00:00 14.65833 C 12.06 g/m*3 14.66 C 0 km/h
2025 16-09-2016 09:00:00 15.40833 C 12.65 g/m*3 15.41 C 1.34167 km/h
Sensor: Nr:Datum:Temp:Abs-Feuchte:Windchill:Wind:
Aussen-T/F 2026 16-09-2016 10:00:00 16.425 C 13.21 g/m*3 16.43 C 5.63333 km/h
2027 16-09-2016 11:00:00 17.975 C 13.16 g/m*3 17.98 C 6.56667 km/h
2028 16-09-2016 12:00:00 19.18333 C 13.04 g/m*3 19.18 C 6.70833 km/h
2029 16-09-2016 13:00:00 19.9 C 12.63 g/m*3 19.9 C 10.075 km/h
2030 16-09-2016 14:00:00 20.375 C 12.51 g/m*3 20.38 C 8.58333 km/h
2031 16-09-2016 15:00:00 20.7 C 12.47 g/m*3 20.7 C 8.74167 km/h
2032 16-09-2016 16:00:00 20.51667 C 12.29 g/m*3 20.52 C 7.65833 km/h
2033 16-09-2016 17:00:00 20.31667 C 12.31 g/m*3 20.32 C 6.31667 km/h
2034 16-09-2016 18:00:00 19.225 C 12.92 g/m*3 19.23 C 0.13333 km/h
2035 16-09-2016 19:00:00 17.81667 C 12.71 g/m*3 17.82 C 0 km/h
2036 16-09-2016 20:00:00 17.2 C 12.39 g/m*3 17.2 C 0.13333 km/h
2037 16-09-2016 21:00:00 16.775 C 12.46 g/m*3 16.77 C 0 km/h
2038 16-09-2016 22:00:00 16.45 C 12.32 g/m*3 16.45 C 0 km/h
2039 16-09-2016 23:00:00 15.99167 C 11.98 g/m*3 15.99 C 0 km/h
2040 17-09-2016 00:00:00 15.29167 C 11.54 g/m*3 15.29 C 0 km/h
2041 17-09-2016 01:00:00 14.33333 C 10.97 g/m*3 14.33 C 0 km/h
2042 17-09-2016 02:00:00 13.26667 C 10.55 g/m*3 13.27 C 0 km/h
2043 17-09-2016 03:00:00 12.69167 C 10.34 g/m*3 12.69 C 0 km/h
2044 17-09-2016 04:00:00 12.34167 C 10.2 g/m*3 12.34 C 0 km/h
2045 17-09-2016 05:00:00 11.96667 C 10 g/m*3 11.97 C 0.13333 km/h
2046 17-09-2016 06:00:00 11.575 C 9.75 g/m*3 11.58 C 0 km/h
2047 17-09-2016 07:00:00 11.325 C 9.71 g/m*3 11.33 C 0 km/h
2048 17-09-2016 08:00:00 11.40833 C 9.77 g/m*3 11.41 C 0.26667 km/h
2049 17-09-2016 09:00:00 11.91667 C 10.12 g/m*3 11.92 C 0.26667 km/h
2050 17-09-2016 10:00:00 13.175 C 11.01 g/m*3 13.18 C 0.53333 km/h
Sensor: Nr:Datum:Temp:Abs-Feuchte:Windchill:Wind:
Aussen-T/F 2051 17-09-2016 11:00:00 15.40833 C 12.16 g/m*3 15.41 C 1.73333 km/h
2052 17-09-2016 12:00:00 17.85833 C 12.34 g/m*3 17.86 C 5.75833 km/h
2053 17-09-2016 13:00:00 19.375 C 12.54 g/m*3 19.38 C 4.15 km/h
2054 17-09-2016 14:00:00 20.93333 C 12.2 g/m*3 20.93 C 9.825 km/h
2055 17-09-2016 15:00:00 20.68333 C 11.78 g/m*3 20.68 C 7.36667 km/h
2056 17-09-2016 16:00:00 21.425 C 11.89 g/m*3 21.43 C 8.46667 km/h
2057 17-09-2016 17:00:00 21.3 C 12.1 g/m*3 21.3 C 10.5 km/h
2058 17-09-2016 18:00:00 20.40833 C 12.42 g/m*3 20.41 C 7.80833 km/h
2059 17-09-2016 19:00:00 19.84167 C 12.04 g/m*3 19.84 C 8.99167 km/h
2060 17-09-2016 20:00:00 17.75833 C 12.86 g/m*3 17.76 C 2.54167 km/h
2061 17-09-2016 21:00:00 16.46667 C 12.96 g/m*3 16.47 C 0 km/h
2062 17-09-2016 22:00:00 16.14167 C 12.93 g/m*3 16.14 C 0.26667 km/h
2063 17-09-2016 23:00:00 16.18333 C 13.09 g/m*3 16.18 C 1.33333 km/h
2064 18-09-2016 00:00:00 16.18333 C 13.09 g/m*3 16.18 C 4.00833 km/h
2065 18-09-2016 01:00:00 16.04167 C 13.02 g/m*3 16.04 C 0.26667 km/h
2066 18-09-2016 02:00:00 16.175 C 13.22 g/m*3 16.18 C 0.66667 km/h
2067 18-09-2016 03:00:00 16.3 C 13.32 g/m*3 16.3 C 0.66667 km/h
2068 18-09-2016 04:00:00 16.3 C 13.32 g/m*3 16.3 C 0.53333 km/h
2069 18-09-2016 05:00:00 16.275 C 13.3 g/m*3 16.27 C 1.33333 km/h
2070 18-09-2016 06:00:00 16.2 C 13.24 g/m*3 16.2 C 1.06667 km/h
2071 18-09-2016 07:00:00 16.2 C 13.28 g/m*3 16.2 C 0.53333 km/h
2072 18-09-2016 08:00:00 16.15 C 13.23 g/m*3 16.15 C 4.68333 km/h
2073 18-09-2016 09:00:00 16.30833 C 13.31 g/m*3 16.31 C 4.825 km/h
2074 18-09-2016 10:00:00 16.68333 C 13.33 g/m*3 16.68 C 6.29167 km/h
2075 18-09-2016 11:00:00 17.43333 C 13.44 g/m*3 17.43 C 5.35833 km/h
Sensor: Nr:Datum:Temp:Abs-Feuchte:Windchill:Wind:
Aussen-T/F 2076 18-09-2016 12:00:00 18.05 C 13.56 g/m*3 18.05 C 6.56667 km/h
2077 18-09-2016 13:00:00 18.38333 C 13.66 g/m*3 18.38 C 6.325 km/h
2078 18-09-2016 14:00:00 18.21667 C 13.72 g/m*3 18.22 C 3.61667 km/h
2079 18-09-2016 15:00:00 19.45 C 13.71 g/m*3 19.45 C 9.55833 km/h
2080 18-09-2016 16:00:00 19.35 C 13.36 g/m*3 19.35 C 11.68333 km/h
2081 18-09-2016 17:00:00 19.925 C 13.29 g/m*3 19.93 C 13.16667 km/h
2082 18-09-2016 18:00:00 19.325 C 12.8 g/m*3 19.33 C 11.55 km/h
2083 18-09-2016 19:00:00 18.26667 C 12.68 g/m*3 18.27 C 4.41667 km/h
2084 18-09-2016 20:00:00 17.125 C 12.29 g/m*3 17.13 C 2.275 km/h
2085 18-09-2016 21:00:00 15.98333 C 12.03 g/m*3 15.98 C 0.26667 km/h
2086 18-09-2016 22:00:00 15.59167 C 12.1 g/m*3 15.59 C 0.13333 km/h
2087 18-09-2016 23:00:00 15.44167 C 11.99 g/m*3 15.44 C 0.13333 km/h
2088 19-09-2016 00:00:00 15.31667 C 11.98 g/m*3 15.32 C 0 km/h
2089 19-09-2016 01:00:00 15.20833 C 12 g/m*3 15.21 C 0 km/h
2090 19-09-2016 02:00:00 15.125 C 12.02 g/m*3 15.13 C 0 km/h
2091 19-09-2016 03:00:00 15 C 11.89 g/m*3 15 C 0 km/h
2092 19-09-2016 04:00:00 14.425 C 11.46 g/m*3 14.43 C 0 km/h
2093 19-09-2016 05:00:00 14.34167 C 11.46 g/m*3 14.34 C 0 km/h
2094 19-09-2016 06:00:00 14.23333 C 11.38 g/m*3 14.23 C 0 km/h
2095 19-09-2016 07:00:00 14.11667 C 11.3 g/m*3 14.12 C 0.13333 km/h
2096 19-09-2016 08:00:00 14.475 C 11.42 g/m*3 14.48 C 0.8 km/h
2097 19-09-2016 09:00:00 15.06667 C 11.34 g/m*3 15.07 C 2.66667 km/h
2098 19-09-2016 10:00:00 15.66667 C 11.34 g/m*3 15.67 C 5.36667 km/h
2099 19-09-2016 11:00:00 16.525 C 11.26 g/m*3 16.52 C 6.15833 km/h
2100 19-09-2016 12:00:00 17.45833 C 10.92 g/m*3 17.46 C 8.46667 km/h
Sensor: Nr:Datum:Temp:Abs-Feuchte:Windchill:Wind:
Aussen-T/F 2101 19-09-2016 13:00:00 17.725 C 10.94 g/m*3 17.73 C 8.60833 km/h
2102 19-09-2016 14:00:00 17.84167 C 10.69 g/m*3 17.84 C 8.89167 km/h
2103 19-09-2016 15:00:00 17.58333 C 10.18 g/m*3 17.58 C 7.23333 km/h
2104 19-09-2016 16:00:00 17.20833 C 10.1 g/m*3 17.21 C 3.2 km/h
2105 19-09-2016 17:00:00 16.33333 C 10.82 g/m*3 16.33 C 0.8 km/h
2106 19-09-2016 18:00:00 15.93333 C 10.88 g/m*3 15.93 C 0.26667 km/h
2107 19-09-2016 19:00:00 15.18333 C 10.83 g/m*3 15.18 C 0.26667 km/h
2108 19-09-2016 20:00:00 14.64167 C 10.71 g/m*3 14.64 C 0.13333 km/h
2109 19-09-2016 21:00:00 14.45833 C 10.57 g/m*3 14.46 C 0 km/h
2110 19-09-2016 22:00:00 14.20833 C 10.64 g/m*3 14.21 C 0 km/h
2111 19-09-2016 23:00:00 13.73333 C 10.53 g/m*3 13.73 C 0 km/h
2112 20-09-2016 00:00:00 13.5 C 10.47 g/m*3 13.5 C 0 km/h
2113 20-09-2016 01:00:00 13.4 C 10.49 g/m*3 13.4 C 0 km/h
2114 20-09-2016 02:00:00 13.33333 C 10.54 g/m*3 13.33 C 0 km/h
2115 20-09-2016 03:00:00 13.38333 C 10.65 g/m*3 13.38 C 0 km/h
2116 20-09-2016 04:00:00 13.4 C 10.69 g/m*3 13.4 C 0 km/h
2117 20-09-2016 05:00:00 13.4 C 10.74 g/m*3 13.4 C 0 km/h
2118 20-09-2016 06:00:00 13.35 C 10.78 g/m*3 13.35 C 0 km/h
2119 20-09-2016 07:00:00 13.35 C 10.85 g/m*3 13.35 C 0 km/h
2120 20-09-2016 08:00:00 13.36667 C 10.9 g/m*3 13.37 C 0 km/h
2121 20-09-2016 09:00:00 13.48333 C 11.07 g/m*3 13.48 C 0 km/h
2122 20-09-2016 10:00:00 13.85833 C 11.22 g/m*3 13.86 C 0.66667 km/h
2123 20-09-2016 11:00:00 14.4 C 11.29 g/m*3 14.4 C 3.2 km/h
2124 20-09-2016 12:00:00 15.2 C 11.47 g/m*3 15.2 C 2.13333 km/h
2125 20-09-2016 13:00:00 16.2 C 11.55 g/m*3 16.2 C 2.53333 km/h
Sensor: Nr:Datum:Temp:Abs-Feuchte:Windchill:Wind:
Aussen-T/F 2126 20-09-2016 14:00:00 17.19167 C 11.7 g/m*3 17.19 C 3.73333 km/h
2127 20-09-2016 15:00:00 17.48333 C 11.53 g/m*3 17.48 C 2.26667 km/h
2128 20-09-2016 16:00:00 17.58333 C 11.47 g/m*3 17.58 C 3.33333 km/h
2129 20-09-2016 17:00:00 17.64167 C 11.66 g/m*3 17.64 C 1.2 km/h
2130 20-09-2016 18:00:00 17 C 12.11 g/m*3 17 C 0.13333 km/h
2131 20-09-2016 19:00:00 15.75 C 11.74 g/m*3 15.75 C 0 km/h
2132 20-09-2016 20:00:00 15.16667 C 11.58 g/m*3 15.17 C 0 km/h
2133 20-09-2016 21:00:00 14.9 C 11.5 g/m*3 14.9 C 0 km/h
2134 20-09-2016 22:00:00 14.75 C 11.49 g/m*3 14.75 C 0 km/h
2135 20-09-2016 23:00:00 14.55 C 11.35 g/m*3 14.55 C 0 km/h
2136 21-09-2016 00:00:00 14.1 C 10.91 g/m*3 14.1 C 0 km/h
2137 21-09-2016 01:00:00 13.78333 C 10.59 g/m*3 13.78 C 0 km/h
2138 21-09-2016 02:00:00 13.18333 C 10.21 g/m*3 13.18 C 0 km/h
2139 21-09-2016 03:00:00 12.71667 C 10.04 g/m*3 12.72 C 0 km/h
2140 21-09-2016 04:00:00 12.6 C 10.05 g/m*3 12.6 C 0 km/h
2141 21-09-2016 05:00:00 12.18333 C 9.67 g/m*3 12.18 C 0 km/h
2142 21-09-2016 06:00:00 11.65 C 9.36 g/m*3 11.65 C 0 km/h
2143 21-09-2016 07:00:00 11.6 C 9.35 g/m*3 11.6 C 0 km/h
2144 21-09-2016 08:00:00 11.575 C 9.29 g/m*3 11.58 C 0 km/h
2145 21-09-2016 09:00:00 10.95833 C 8.99 g/m*3 10.96 C 0 km/h
2146 21-09-2016 10:00:00 11.375 C 9.18 g/m*3 11.38 C 0 km/h
2147 21-09-2016 11:00:00 13.53333 C 8.85 g/m*3 13.53 C 3.73333 km/h
2148 21-09-2016 12:00:00 15.55833 C 8.34 g/m*3 15.56 C 6.30833 km/h
2149 21-09-2016 13:00:00 16.51667 C 8.33 g/m*3 16.52 C 7.11667 km/h
2150 21-09-2016 14:00:00 17.39167 C 8.41 g/m*3 17.39 C 7.51667 km/h
Sensor: Nr:Datum:Temp:Abs-Feuchte:Windchill:Wind:
Aussen-T/F 2151 21-09-2016 15:00:00 17.99167 C 8.55 g/m*3 17.99 C 5.225 km/h
2152 21-09-2016 16:00:00 18.60833 C 8.48 g/m*3 18.61 C 6.04167 km/h
2153 21-09-2016 17:00:00 18.83333 C 9.57 g/m*3 18.83 C 2.00833 km/h
2154 21-09-2016 18:00:00 17.575 C 10.15 g/m*3 17.58 C 0.13333 km/h
2155 21-09-2016 19:00:00 14.86667 C 9.08 g/m*3 14.87 C 2.8 km/h
2156 21-09-2016 20:00:00 13.50833 C 8.81 g/m*3 13.51 C 0 km/h
2157 21-09-2016 21:00:00 12.125 C 8.85 g/m*3 12.13 C 0 km/h
2158 21-09-2016 22:00:00 10.64167 C 8.54 g/m*3 10.64 C 0 km/h
2159 21-09-2016 23:00:00 9.9 C 8.32 g/m*3 9.9 C 0 km/h
2160 22-09-2016 00:00:00 9.23333 C 8.08 g/m*3 9.23 C 0 km/h
2161 22-09-2016 01:00:00 8.71667 C 7.94 g/m*3 8.72 C 0 km/h
2162 22-09-2016 02:00:00 8.25833 C 7.8 g/m*3 8.26 C 0 km/h
2163 22-09-2016 03:00:00 7.775 C 7.59 g/m*3 7.78 C 0 km/h
2164 22-09-2016 04:00:00 7.4 C 7.47 g/m*3 7.4 C 0 km/h
2165 22-09-2016 05:00:00 7.11667 C 7.35 g/m*3 7.12 C 0 km/h
2166 22-09-2016 06:00:00 6.80833 C 7.27 g/m*3 6.81 C 0.26667 km/h
2167 22-09-2016 07:00:00 6.49167 C 7.12 g/m*3 6.49 C 0 km/h
2168 22-09-2016 08:00:00 6.64167 C 7.21 g/m*3 6.64 C 0 km/h
2169 22-09-2016 09:00:00 7.05833 C 7.45 g/m*3 7.06 C 0 km/h
2170 22-09-2016 10:00:00 8.43333 C 8.16 g/m*3 8.43 C 0 km/h
2171 22-09-2016 11:00:00 10.525 C 9.33 g/m*3 10.53 C 0 km/h
2172 22-09-2016 12:00:00 13.05 C 10.63 g/m*3 13.05 C 0.4 km/h
2173 22-09-2016 13:00:00 16.11667 C 10.77 g/m*3 16.12 C 4.43333 km/h
2174 22-09-2016 14:00:00 18.25 C 9.89 g/m*3 18.25 C 4.15 km/h
2175 22-09-2016 15:00:00 19.775 C 9.05 g/m*3 19.77 C 4.40833 km/h
Sensor: Nr:Datum:Temp:Abs-Feuchte:Windchill:Wind:
Aussen-T/F 2176 22-09-2016 16:00:00 19.71667 C 10.3 g/m*3 19.72 C 0.93333 km/h
2177 22-09-2016 17:00:00 18.15833 C 10.98 g/m*3 18.16 C 0.26667 km/h
2178 22-09-2016 18:00:00 16.45 C 10.45 g/m*3 16.45 C 0.13333 km/h
2179 22-09-2016 19:00:00 15.44167 C 10.12 g/m*3 15.44 C 0.26667 km/h
2180 22-09-2016 20:00:00 14.40833 C 9.71 g/m*3 14.41 C 0 km/h
2181 22-09-2016 21:00:00 12.83333 C 9.22 g/m*3 12.83 C 0 km/h
2182 22-09-2016 22:00:00 11.58333 C 8.76 g/m*3 11.58 C 0 km/h
2183 22-09-2016 23:00:00 10.70833 C 8.59 g/m*3 10.71 C 0 km/h
2184 23-09-2016 00:00:00 10 C 8.39 g/m*3 10 C 0 km/h
2185 23-09-2016 01:00:00 10.05833 C 8.54 g/m*3 10.06 C 0 km/h
2186 23-09-2016 02:00:00 10.425 C 8.69 g/m*3 10.43 C 0 km/h
2187 23-09-2016 03:00:00 9.99167 C 8.58 g/m*3 9.99 C 0 km/h
2188 23-09-2016 04:00:00 9.875 C 8.55 g/m*3 9.88 C 0 km/h
2189 23-09-2016 05:00:00 9.775 C 8.52 g/m*3 9.78 C 0 km/h
2190 23-09-2016 06:00:00 9.575 C 8.51 g/m*3 9.57 C 0 km/h
2191 23-09-2016 07:00:00 9.34167 C 8.38 g/m*3 9.34 C 0 km/h
2192 23-09-2016 08:00:00 9.26667 C 8.44 g/m*3 9.27 C 0 km/h
2193 23-09-2016 09:00:00 10.03333 C 8.94 g/m*3 10.03 C 0 km/h
2194 23-09-2016 10:00:00 11.9 C 10.04 g/m*3 11.9 C 0 km/h
2195 23-09-2016 11:00:00 13.45833 C 10.68 g/m*3 13.46 C 0 km/h
2196 23-09-2016 12:00:00 15.55833 C 11.22 g/m*3 15.56 C 0 km/h
2197 23-09-2016 13:00:00 18.05833 C 11.71 g/m*3 18.06 C 0.26667 km/h
2198 23-09-2016 14:00:00 19.16667 C 12.22 g/m*3 19.17 C 0 km/h
2199 23-09-2016 15:00:00 19.20833 C 12.65 g/m*3 19.21 C 0 km/h
2200 23-09-2016 16:00:00 19.21667 C 13.03 g/m*3 19.22 C 0 km/h
Sensor: Nr:Datum:Temp:Abs-Feuchte:Windchill:Wind:
Aussen-T/F 2201 23-09-2016 17:00:00 19.34167 C 12.83 g/m*3 19.34 C 0 km/h
2202 23-09-2016 18:00:00 18.96667 C 12.52 g/m*3 18.97 C 0 km/h
2203 23-09-2016 19:00:00 16.975 C 11.32 g/m*3 16.98 C 0.13333 km/h
2204 23-09-2016 20:00:00 15.59167 C 11.08 g/m*3 15.59 C 0 km/h
2205 23-09-2016 21:00:00 14.10833 C 10.78 g/m*3 14.11 C 0 km/h
2206 23-09-2016 22:00:00 13.475 C 10.52 g/m*3 13.48 C 0 km/h
2207 23-09-2016 23:00:00 12.775 C 10.3 g/m*3 12.78 C 0 km/h

Maximal/Minimal-Werte vom 14.04.2020 - 16.05.2020

Sensor Min Max Avg
Temp
(Aussen-T/F)
-0.1 °C
15-04-2020  06:55:00
26.2 °C
17-04-2020  18:05:00
11.98 °C

Die Daten stammen von einer Davis Vantage Pro 2 Wetter-Station und werden unter Linux mit der Software wview2wettercgi und aufbereitet. Alle Angaben erfolgen ohne Gewähr für ihre Vollständigkeit oder Richtigkeit.
Kontakt: Rainer Krienke krienke@uni-koblenz.de . Meine Webseiten an der Uni Koblenz oder privat.
Version: $Revision: 0.78 $